Provisional Data: Grays Run near Gray, PA


Please select a monitoring station.
Please select start date.
Please select start date.

Toggle Unit: C/F Toggle Unit: C/F
Sample Time Temperature (C) Temperature (F) Specific Conductivity (mS/cm) pH   Turbidity (NTU+) DO (mg/L)
12/23/2022 12:00:00 AM 2.85 37.13 0.031 6.46 11.77 12.79
12/23/2022 12:15:00 AM 2.83 37.094 0.031 6.48 11.95 12.8
12/23/2022 12:30:00 AM 2.8 37.04 0.031 6.46 12.12 12.81
12/23/2022 12:45:00 AM 2.78 37.004 0.031 6.44 12.37 12.8
12/23/2022 1:00:00 AM 2.77 36.986 0.031 6.46 12.8 12.81
12/23/2022 1:15:00 AM 2.72 36.896 0.031 6.5 15.9 12.8
12/23/2022 1:30:00 AM 2.68 36.824 0.03 6.5 19.53 12.82
12/23/2022 1:45:00 AM 2.64 36.752 0.03 6.48 17.87 12.82
12/23/2022 2:00:00 AM 2.6 36.68 0.03 6.42 23.68 12.83
12/23/2022 2:15:00 AM 2.61 36.698 0.03 6.38 23.49 12.82
12/23/2022 2:30:00 AM 2.63 36.734 0.029 6.38 28.03 12.82
12/23/2022 2:45:00 AM 2.65 36.77 0.029 6.35 21.15 12.81
12/23/2022 3:00:00 AM 2.69 36.842 0.029 6.35 23.23 12.79
12/23/2022 3:15:00 AM 2.75 36.95 0.029 6.37 16.9 12.77
12/23/2022 3:30:00 AM 2.8 37.04 0.029 6.43 20.06 12.75
12/23/2022 3:45:00 AM 2.85 37.13 0.029 6.37 18.3 12.73
12/23/2022 4:00:00 AM 2.91 37.238 0.029 6.33 16.32 12.7
12/23/2022 4:15:00 AM 2.96 37.328 0.029 6.33 14.87 12.69
12/23/2022 4:30:00 AM 3.01 37.418 0.028 6.3 13.42 12.67
12/23/2022 4:45:00 AM 3.06 37.508 0.028 6.32 13.6 12.64
12/23/2022 5:00:00 AM 3.09 37.562 0.028 6.3 11.55 12.64
12/23/2022 5:15:00 AM 3.11 37.598 0.028 6.29 11.45 12.62
12/23/2022 5:30:00 AM 3.15 37.67 0.028 6.28 10.16 12.61
12/23/2022 5:45:00 AM 3.2 37.76 0.028 6.28 9.95 12.59
12/23/2022 6:00:00 AM 3.25 37.85 0.028 6.29 8.82 12.57
12/23/2022 6:15:00 AM 3.3 37.94 0.028 6.3 8.35 12.55
12/23/2022 6:30:00 AM 3.33 37.994 0.028 6.3 8.35 12.54
12/23/2022 6:45:00 AM 3.37 38.066 0.027 6.31 7.97 12.52
12/23/2022 7:00:00 AM 3.39 38.102 0.027 6.29 7.39 12.51
12/23/2022 7:15:00 AM 3.41 38.138 0.027 6.28 6.85 12.5
12/23/2022 7:30:00 AM 3.45 38.21 0.027 6.3 6.61 12.48
12/23/2022 7:45:00 AM 3.48 38.264 0.027 6.3 6.34 12.47
12/23/2022 8:00:00 AM 3.49 38.282 0.027 6.3 6.51 12.46
12/23/2022 8:15:00 AM 3.51 38.318 0.027 6.29 6.62 12.45
12/23/2022 8:30:00 AM 3.52 38.336 0.027 6.31 7.08 12.45
12/23/2022 8:45:00 AM 3.52 38.336 0.027 6.28 8.52 12.45
12/23/2022 9:00:00 AM 3.51 38.318 0.027 6.25 10.39 12.45
12/23/2022 9:15:00 AM 3.48 38.264 0.027 6.26 14.6 12.46
12/23/2022 9:30:00 AM 3.45 38.21 0.027 6.25 14.15 12.46
12/23/2022 9:45:00 AM 3.44 38.192 0.027 6.24 22.82 12.48
12/23/2022 10:00:00 AM 3.45 38.21 0.027 6.28 24 12.48
12/23/2022 10:15:00 AM 3.41 38.138 0.027 6.27 21.62 12.5
12/23/2022 10:30:00 AM 3.36 38.048 0.027 6.28 18.99 12.53
12/23/2022 10:45:00 AM 3.32 37.976 0.027 6.28 19.36 12.56
12/23/2022 11:00:00 AM 3.26 37.868 0.027 6.28 17.22 12.57
12/23/2022 11:15:00 AM 3.2 37.76 0.027 6.23 15.88 12.62
12/23/2022 11:30:00 AM 3.14 37.652 0.026 6.29 13.04 12.65
12/23/2022 11:45:00 AM 3.1 37.58 0.026 6.27 18.02 12.67
12/23/2022 12:00:00 PM 3.1 37.58 0.026 6.21 38.24 12.67
12/23/2022 12:15:00 PM 3.05 37.49 0.026 6.19 9.33 12.71
12/23/2022 12:30:00 PM 2.98 37.364 0.026 6.21 7.95 12.73
12/23/2022 12:45:00 PM 2.94 37.292 0.026 6.27 46.53 12.76
12/23/2022 1:00:00 PM 2.92 37.256 0.026 6.26 8.06 12.77
12/23/2022 1:15:00 PM 2.86 37.148 0.026 6.19 6.74 12.79
12/23/2022 1:30:00 PM 2.79 37.022 0.026 6.2 6.43 12.81
12/23/2022 1:45:00 PM 2.75 36.95 0.026 6.21 6.15 12.83
12/23/2022 2:00:00 PM 2.68 36.824 0.026 6.23 6.31 12.85
12/23/2022 2:15:00 PM 2.63 36.734 0.027 6.24 5.85 12.88
12/23/2022 2:30:00 PM 2.6 36.68 0.027 6.22 5.61 12.9
12/23/2022 2:45:00 PM 2.51 36.518 0.027 6.23 19.18 12.93
12/23/2022 3:00:00 PM 2.45 36.41 0.027 6.2 5.54 12.95
12/23/2022 3:15:00 PM 2.38 36.284 0.027 6.21 4.71 12.98
12/23/2022 3:30:00 PM 2.34 36.212 0.027 6.24 83.89 12.99
12/23/2022 3:45:00 PM 2.27 36.086 0.027 6.22 4.62 13.02
12/23/2022 4:00:00 PM 2.15 35.87 0.027 6.23 4.64 13.06
12/23/2022 4:15:00 PM 2.12 35.816 0.027 6.24 4.56 13.06
12/23/2022 4:30:00 PM 2.01 35.618 0.027 6.22 4.76 13.1
12/23/2022 4:45:00 PM 1.92 35.456 0.027 6.22 4.23 13.12
12/23/2022 5:00:00 PM 1.89 35.402 0.027 6.21 4.34 13.14
12/23/2022 5:15:00 PM 1.8 35.24 0.027 6.21 4.12 13.18
12/23/2022 5:30:00 PM 1.74 35.132 0.027 6.25 4.65 13.2
12/23/2022 5:45:00 PM 1.66 34.988 0.027 6.21 4.02 13.23
12/23/2022 6:00:00 PM 1.61 34.898 0.027 6.21 3.81 13.25
12/23/2022 6:15:00 PM 1.54 34.772 0.027 6.21 3.66 13.28
12/23/2022 6:30:00 PM 1.47 34.646 0.027 6.21 3.69 13.3
12/23/2022 6:45:00 PM 1.4 34.52 0.028 6.21 3.75 13.34
12/23/2022 7:00:00 PM 1.35 34.43 0.028 6.2 5.37 13.36
12/23/2022 7:15:00 PM 1.32 34.376 0.028 6.21 3.51 13.37
12/23/2022 7:30:00 PM 1.26 34.268 0.028 6.21 3.42 13.4
12/23/2022 7:45:00 PM 1.18 34.124 0.028 6.2 3.63 13.43
12/23/2022 8:00:00 PM 1.12 34.016 0.028 6.2 3.35 13.45
12/23/2022 8:15:00 PM 1.07 33.926 0.028 6.19 3.51 13.48
12/23/2022 8:30:00 PM 1.02 33.836 0.028 6.19 3.57 13.5
12/23/2022 8:45:00 PM 0.98 33.764 0.028 6.19 3.24 13.52
12/23/2022 9:00:00 PM 0.94 33.692 0.028 6.17 3.39 13.54
12/23/2022 9:15:00 PM 0.91 33.638 0.028 5.99 3.37 13.56
12/23/2022 9:30:00 PM 0.87 33.566 0.028 5.94 3.19 13.57
12/23/2022 9:45:00 PM 0.85 33.53 0.028 5.91 3.17 13.58
12/23/2022 10:00:00 PM 0.77 33.386 0.028 5.97 3.14 13.61
12/23/2022 10:15:00 PM 0.75 33.35 0.028 6 3.04 13.63
12/23/2022 10:30:00 PM 0.71 33.278 0.028 6.02 3.01 13.64
12/23/2022 10:45:00 PM 0.68 33.224 0.028 6.03 3 13.65
12/23/2022 11:00:00 PM 0.65 33.17 0.028 6.05 2.94 13.67
12/23/2022 11:15:00 PM 0.65 33.17 0.028 6.08 2.91 13.67
12/23/2022 11:30:00 PM 0.63 33.134 0.028 6.1 3 13.68
12/23/2022 11:45:00 PM 0.59 33.062 0.028 6.09 2.92 13.71
12/24/2022 12:00:00 AM 0.58 33.044 0.028 6.12 2.86 13.71
12/24/2022 12:15:00 AM 0.58 33.044 0.028 6.15 2.82 13.71
12/24/2022 12:30:00 AM 0.57 33.026 0.028 6.15 2.83 13.72
12/24/2022 12:45:00 AM 0.56 33.008 0.028 6.16 2.86 13.72
12/24/2022 1:00:00 AM 0.56 33.008 0.028 6.15 2.93 13.73
12/24/2022 1:15:00 AM 0.54 32.972 0.028 6.17 2.87 13.73
12/24/2022 1:30:00 AM 0.52 32.936 0.028 6.16 2.75 13.74
12/24/2022 1:45:00 AM 0.55 32.99 0.028 6.18 2.74 13.74
12/24/2022 2:00:00 AM 0.53 32.954 0.029 6.17 2.85 13.74
12/24/2022 2:15:00 AM 0.52 32.936 0.029 6.18 2.81 13.74
12/24/2022 2:30:00 AM 0.51 32.918 0.029 6.17 2.77 13.75
12/24/2022 2:45:00 AM 0.51 32.918 0.029 6.17 2.77 13.75
12/24/2022 3:00:00 AM 0.51 32.918 0.029 6.18 2.62 13.76
12/24/2022 3:15:00 AM 0.49 32.882 0.029 6.17 2.7 13.76
12/24/2022 3:30:00 AM 0.47 32.846 0.029 6.19 2.72 13.79
12/24/2022 3:45:00 AM 0.46 32.828 0.029 6.19 2.58 13.79
12/24/2022 4:00:00 AM 0.45 32.81 0.029 6.19 2.71 13.8
12/24/2022 4:15:00 AM 0.44 32.792 0.029 6.19 2.66 13.8
12/24/2022 4:30:00 AM 0.43 32.774 0.029 6.18 2.6 13.81
12/24/2022 4:45:00 AM 0.43 32.774 0.029 6.2 2.52 13.81
12/24/2022 5:00:00 AM 0.41 32.738 0.029 6.19 2.58 13.8
12/24/2022 5:15:00 AM 0.4 32.72 0.029 6.2 2.53 13.82
12/24/2022 5:30:00 AM 0.39 32.702 0.029 6.19 2.48 13.82
12/24/2022 5:45:00 AM 0.38 32.684 0.029 6.2 2.55 13.82
12/24/2022 6:00:00 AM 0.39 32.702 0.029 6.2 2.56 13.83
12/24/2022 6:15:00 AM 0.39 32.702 0.029 6.19 2.53 13.83
12/24/2022 6:30:00 AM 0.37 32.666 0.029 6.18 2.48 13.83
12/24/2022 6:45:00 AM 0.37 32.666 0.029 6.2 2.53 13.83
12/24/2022 7:00:00 AM 0.36 32.648 0.029 6.18 2.41 13.85
12/24/2022 7:15:00 AM 0.36 32.648 0.029 6.2 2.43 13.83
12/24/2022 7:30:00 AM 0.34 32.612 0.029 6.2 2.42 13.86
12/24/2022 7:45:00 AM 0.36 32.648 0.029 6.19 2.52 13.86
12/24/2022 8:00:00 AM 0.36 32.648 0.029 6.2 2.45 13.85
12/24/2022 8:15:00 AM 0.36 32.648 0.029 6.22 2.35 13.86
12/24/2022 8:30:00 AM 0.38 32.684 0.029 6.23 2.28 13.88
12/24/2022 8:45:00 AM 0.37 32.666 0.029 6.21 2.42 13.88
12/24/2022 9:00:00 AM 0.36 32.648 0.029 6.22 2.4 13.88
12/24/2022 9:15:00 AM 0.37 32.666 0.029 6.22 2.37 13.91
12/24/2022 9:30:00 AM 0.4 32.72 0.029 6.22 2.3 13.91
12/24/2022 9:45:00 AM 0.4 32.72 0.029 6.24 2.31 13.9
12/24/2022 10:00:00 AM 0.41 32.738 0.029 6.24 2.26 13.9
12/24/2022 10:15:00 AM 0.42 32.756 0.029 6.25 2.36 13.92
12/24/2022 10:30:00 AM 0.43 32.774 0.029 6.26 2.61 13.92
12/24/2022 10:45:00 AM 0.48 32.864 0.029 6.27 2.24 13.9
12/24/2022 11:00:00 AM 0.54 32.972 0.029 6.28 2.29 13.89
12/24/2022 11:15:00 AM 0.58 33.044 0.029 6.27 2.22 13.87
12/24/2022 11:30:00 AM 0.62 33.116 0.029 6.28 2.25 13.86
12/24/2022 11:45:00 AM 0.67 33.206 0.029 6.31 2.21 13.84
12/24/2022 12:00:00 PM 0.71 33.278 0.029 6.29 2.19 13.82
12/24/2022 12:15:00 PM 0.75 33.35 0.029 6.3 2.23 13.8
12/24/2022 12:30:00 PM 0.77 33.386 0.029 6.29 2.11 13.79
12/24/2022 12:45:00 PM 0.83 33.494 0.029 6.29 2.26 13.77
12/24/2022 1:00:00 PM 0.86 33.548 0.029 6.3 2.21 13.76
12/24/2022 1:15:00 PM 0.87 33.566 0.029 6.3 2.16 13.75
12/24/2022 1:30:00 PM 0.92 33.656 0.029 6.3 2.29 13.73
12/24/2022 1:45:00 PM 0.94 33.692 0.029 6.29 2.23 13.72
12/24/2022 2:00:00 PM 0.95 33.71 0.029 6.32 2.19 13.71
12/24/2022 2:15:00 PM 0.94 33.692 0.029 6.29 2.16 13.71
12/24/2022 2:30:00 PM 0.94 33.692 0.029 6.28 2.24 13.7
12/24/2022 2:45:00 PM 0.95 33.71 0.029 6.29 2.18 13.71
12/24/2022 3:00:00 PM 0.93 33.674 0.029 6.28 2.28 13.7
12/24/2022 3:15:00 PM 0.93 33.674 0.029 6.28 2.16 13.7
12/24/2022 3:30:00 PM 0.92 33.656 0.029 6.28 2.27 13.7
12/24/2022 3:45:00 PM 0.92 33.656 0.029 6.28 2.18 13.7
12/24/2022 4:00:00 PM 0.89 33.602 0.029 6.28 2.12 13.71
12/24/2022 4:15:00 PM 0.88 33.584 0.029 6.27 2.16 13.7
12/24/2022 4:30:00 PM 0.88 33.584 0.029 6.28 2.11 13.69
12/24/2022 4:45:00 PM 0.88 33.584 0.029 6.27 2.19 13.69
12/24/2022 5:00:00 PM 0.86 33.548 0.029 6.27 2.11 13.68
12/24/2022 5:15:00 PM 0.85 33.53 0.029 6.27 2.15 13.69
12/24/2022 5:30:00 PM 0.83 33.494 0.029 6.27 2.12 13.69
12/24/2022 5:45:00 PM 0.81 33.458 0.029 6.26 2.09 13.69
12/24/2022 6:00:00 PM 0.8 33.44 0.029 6.26 2.28 13.7
12/24/2022 6:15:00 PM 0.79 33.422 0.029 6.26 2.11 13.7
12/24/2022 6:30:00 PM 0.79 33.422 0.029 6.26 2.06 13.7
12/24/2022 6:45:00 PM 0.79 33.422 0.029 6.27 2.16 13.7
12/24/2022 7:00:00 PM 0.78 33.404 0.029 6.26 2.09 13.71
12/24/2022 7:15:00 PM 0.78 33.404 0.029 6.26 2.14 13.71
12/24/2022 7:30:00 PM 0.79 33.422 0.03 6.26 2.1 13.71
12/24/2022 7:45:00 PM 0.81 33.458 0.03 6.26 2.05 13.71
12/24/2022 8:00:00 PM 0.79 33.422 0.03 6.26 2.12 13.72
12/24/2022 8:15:00 PM 0.79 33.422 0.03 6.27 2.11 13.71
12/24/2022 8:30:00 PM 0.79 33.422 0.03 6.26 2.09 13.72
12/24/2022 8:45:00 PM 0.8 33.44 0.03 6.26 1.98 13.71
12/24/2022 9:00:00 PM 0.8 33.44 0.03 6.26 2.02 13.71
12/24/2022 9:15:00 PM 0.8 33.44 0.03 6.26 2.02 13.71
12/24/2022 9:30:00 PM 0.79 33.422 0.03 6.26 2.04 13.71
12/24/2022 9:45:00 PM 0.79 33.422 0.03 6.26 2.06 13.72
12/24/2022 10:00:00 PM 0.79 33.422 0.03 6.26 2.05 13.71
12/24/2022 10:15:00 PM 0.81 33.458 0.03 6.26 2.13 13.72
12/24/2022 10:30:00 PM 0.82 33.476 0.03 6.25 2.05 13.71
12/24/2022 10:45:00 PM 0.82 33.476 0.03 6.25 2.08 13.71
12/24/2022 11:00:00 PM 0.83 33.494 0.03 6.26 2.02 13.71
12/24/2022 11:15:00 PM 0.84 33.512 0.03 6.26 2.03 13.7
12/24/2022 11:30:00 PM 0.84 33.512 0.03 6.26 2.09 13.7
12/24/2022 11:45:00 PM 0.85 33.53 0.03 6.26 2.05 13.69
12/25/2022 12:00:00 AM 0.86 33.548 0.03 6.27 2.03 13.69
12/25/2022 12:15:00 AM 0.87 33.566 0.03 6.26 2.04 13.68
12/25/2022 12:30:00 AM 0.87 33.566 0.03 6.26 2.04 13.67
12/25/2022 12:45:00 AM 0.88 33.584 0.03 6.26 1.99 13.67
12/25/2022 1:00:00 AM 0.89 33.602 0.03 6.25 2.08 13.67
12/25/2022 1:15:00 AM 0.89 33.602 0.03 6.25 2.03 13.66
12/25/2022 1:30:00 AM 0.89 33.602 0.03 6.26 2.06 13.66
12/25/2022 1:45:00 AM 0.9 33.62 0.03 6.26 1.97 13.66
12/25/2022 2:00:00 AM 0.92 33.656 0.03 6.26 1.97 13.66
12/25/2022 2:15:00 AM 0.92 33.656 0.03 6.25 1.98 13.65
12/25/2022 2:30:00 AM 0.93 33.674 0.03 6.26 1.94 13.65
12/25/2022 2:45:00 AM 0.93 33.674 0.03 6.25 1.92 13.65
12/25/2022 3:00:00 AM 0.94 33.692 0.03 6.26 2 13.65
12/25/2022 3:15:00 AM 0.95 33.71 0.03 6.26 2.05 13.65
12/25/2022 3:30:00 AM 0.96 33.728 0.03 6.26 1.95 13.64
12/25/2022 3:45:00 AM 0.97 33.746 0.03 6.26 1.92 13.64
12/25/2022 4:00:00 AM 0.98 33.764 0.03 6.26 2.01 13.63
12/25/2022 4:15:00 AM 0.99 33.782 0.03 6.26 1.92 13.63
12/25/2022 4:30:00 AM 0.99 33.782 0.03 6.26 1.95 13.63
12/25/2022 4:45:00 AM 1.01 33.818 0.03 6.26 1.93 13.62
12/25/2022 5:00:00 AM 1.03 33.854 0.03 6.27 1.99 13.62
12/25/2022 5:15:00 AM 1.04 33.872 0.03 6.27 2 13.61
12/25/2022 5:30:00 AM 1.04 33.872 0.03 6.27 1.96 13.61
12/25/2022 5:45:00 AM 1.04 33.872 0.03 6.26 1.92 13.6
12/25/2022 6:00:00 AM 1.04 33.872 0.03 6.27 1.93 13.61
12/25/2022 6:15:00 AM 1.03 33.854 0.03 6.26 1.94 13.61
12/25/2022 6:30:00 AM 1.03 33.854 0.03 6.27 1.92 13.62
12/25/2022 6:45:00 AM 1.03 33.854 0.03 6.26 1.96 13.61
12/25/2022 7:00:00 AM 1.03 33.854 0.03 6.26 1.91 13.62
12/25/2022 7:15:00 AM 1.04 33.872 0.03 6.26 1.94 13.61
12/25/2022 7:30:00 AM 1.04 33.872 0.03 6.26 1.99 13.62
12/25/2022 7:45:00 AM 1.05 33.89 0.03 6.26 1.9 13.62
12/25/2022 8:00:00 AM 1.07 33.926 0.03 6.27 1.93 13.63
12/25/2022 8:15:00 AM 1.08 33.944 0.03 6.27 1.99 13.64
12/25/2022 8:30:00 AM 1.08 33.944 0.03 6.27 1.92 13.65
12/25/2022 8:45:00 AM 1.09 33.962 0.03 6.28 1.88 13.65
12/25/2022 9:00:00 AM 1.09 33.962 0.03 6.29 1.96 13.66
12/25/2022 9:15:00 AM 1.11 33.998 0.03 6.29 1.87 13.67
12/25/2022 9:30:00 AM 1.14 34.052 0.03 6.28 1.85 13.66
12/25/2022 9:45:00 AM 1.16 34.088 0.03 6.29 1.88 13.67
12/25/2022 10:00:00 AM 1.18 34.124 0.03 6.29 1.85 13.66
12/25/2022 10:15:00 AM 1.23 34.214 0.03 6.28 1.89 13.66
12/25/2022 10:30:00 AM 1.25 34.25 0.03 6.29 1.88 13.66
12/25/2022 10:45:00 AM 1.3 34.34 0.03 6.29 1.86 13.64
12/25/2022 11:00:00 AM 1.33 34.394 0.03 6.29 1.85 13.63
12/25/2022 11:15:00 AM 1.39 34.502 0.03 6.29 1.87 13.6
12/25/2022 11:30:00 AM 1.46 34.628 0.03 6.29 1.8 13.59
12/25/2022 11:45:00 AM 1.5 34.7 0.03 6.3 1.81 13.57
12/25/2022 12:00:00 PM 1.52 34.736 0.03 6.29 1.85 13.55
12/25/2022 12:15:00 PM 1.55 34.79 0.03 6.29 1.84 13.55
12/25/2022 12:30:00 PM 1.56 34.808 0.03 6.29 1.87 13.54
12/25/2022 12:45:00 PM 1.61 34.898 0.03 6.29 1.9 13.52
12/25/2022 1:00:00 PM 1.64 34.952 0.03 6.3 1.91 13.51
12/25/2022 1:15:00 PM 1.67 35.006 0.03 6.3 1.85 13.5
12/25/2022 1:30:00 PM 1.71 35.078 0.03 6.3 1.89 13.49
12/25/2022 1:45:00 PM 1.74 35.132 0.03 6.3 1.81 13.47
12/25/2022 2:00:00 PM 1.77 35.186 0.03 6.3 1.88 13.45
12/25/2022 2:15:00 PM 1.79 35.222 0.03 6.3 1.91 13.44
12/25/2022 2:30:00 PM 1.81 35.258 0.03 6.3 1.78 13.43
12/25/2022 2:45:00 PM 1.81 35.258 0.03 6.3 1.81 13.42
12/25/2022 3:00:00 PM 1.82 35.276 0.03 6.29 1.9 13.43
12/25/2022 3:15:00 PM 1.82 35.276 0.03 6.29 1.82 13.42
12/25/2022 3:30:00 PM 1.8 35.24 0.03 6.29 1.84 13.42
12/25/2022 3:45:00 PM 1.79 35.222 0.03 6.29 1.84 13.42
12/25/2022 4:00:00 PM 1.8 35.24 0.03 6.29 1.82 13.41
12/25/2022 4:15:00 PM 1.79 35.222 0.03 6.29 1.84 13.41
12/25/2022 4:30:00 PM 1.75 35.15 0.03 6.28 1.94 13.4
12/25/2022 4:45:00 PM 1.74 35.132 0.03 6.28 1.85 13.4
12/25/2022 5:00:00 PM 1.75 35.15 0.03 6.27 1.85 13.4
12/25/2022 5:15:00 PM 1.72 35.096 0.03 6.27 1.84 13.4
12/25/2022 5:30:00 PM 1.71 35.078 0.03 6.27 1.83 13.4
12/25/2022 5:45:00 PM 1.7 35.06 0.03 6.27 1.84 13.41
12/25/2022 6:00:00 PM 1.68 35.024 0.03 6.27 1.85 13.42
12/25/2022 6:15:00 PM 1.68 35.024 0.03 6.27 1.91 13.42
12/25/2022 6:30:00 PM 1.67 35.006 0.03 6.27 1.89 13.43
12/25/2022 6:45:00 PM 1.67 35.006 0.03 6.27 1.89 13.43
12/25/2022 7:00:00 PM 1.64 34.952 0.03 6.27 1.85 13.43
12/25/2022 7:15:00 PM 1.62 34.916 0.03 6.27 1.9 13.45
12/25/2022 7:30:00 PM 1.62 34.916 0.03 6.27 1.81 13.45
12/25/2022 7:45:00 PM 1.63 34.934 0.03 6.27 1.91 13.46
12/25/2022 8:00:00 PM 1.61 34.898 0.03 6.26 1.81 13.46
12/25/2022 8:15:00 PM 1.6 34.88 0.03 6.26 1.83 13.47
12/25/2022 8:30:00 PM 1.6 34.88 0.03 6.26 1.9 13.47
12/25/2022 8:45:00 PM 1.59 34.862 0.03 6.26 1.84 13.48
12/25/2022 9:00:00 PM 1.6 34.88 0.03 6.26 1.82 13.47
12/25/2022 9:15:00 PM 1.59 34.862 0.03 6.26 1.8 13.47
12/25/2022 9:30:00 PM 1.58 34.844 0.03 6.26 1.82 13.48
12/25/2022 9:45:00 PM 1.58 34.844 0.03 6.26 1.85 13.49
12/25/2022 10:00:00 PM 1.57 34.826 0.03 6.25 1.83 13.49
12/25/2022 10:15:00 PM 1.57 34.826 0.03 6.26 1.79 13.49
12/25/2022 10:30:00 PM 1.56 34.808 0.03 6.26 1.87 13.5
12/25/2022 10:45:00 PM 1.57 34.826 0.03 6.26 1.83 13.5
12/25/2022 11:00:00 PM 1.56 34.808 0.03 6.26 1.83 13.5
12/25/2022 11:15:00 PM 1.54 34.772 0.03 6.25 1.83 13.51
12/25/2022 11:30:00 PM 1.53 34.754 0.03 6.25 1.8 13.51
12/25/2022 11:45:00 PM 1.53 34.754 0.03 6.25 1.85 13.52
12/26/2022 12:00:00 AM 1.51 34.718 0.03 6.25 1.83 13.52
12/26/2022 12:15:00 AM 1.51 34.718 0.03 6.25 1.82 13.53
12/26/2022 12:30:00 AM 1.5 34.7 0.03 6.25 1.79 13.53
12/26/2022 12:45:00 AM 1.48 34.664 0.03 6.25 1.8 13.53
12/26/2022 1:00:00 AM 1.47 34.646 0.03 6.25 1.78 13.55
12/26/2022 1:15:00 AM 1.44 34.592 0.03 6.24 1.83 13.56
12/26/2022 1:30:00 AM 1.44 34.592 0.03 6.24 1.8 13.55
12/26/2022 1:45:00 AM 1.43 34.574 0.03 6.24 1.76 13.57
12/26/2022 2:00:00 AM 1.4 34.52 0.03 6.24 1.76 13.57
12/26/2022 2:15:00 AM 1.4 34.52 0.03 6.22 1.81 13.58
12/26/2022 2:30:00 AM 1.39 34.502 0.03 6.21 1.76 13.58
12/26/2022 2:45:00 AM 1.39 34.502 0.03 6.19 1.75 13.59
12/26/2022 3:00:00 AM 1.39 34.502 0.03 6.18 1.74 13.6
12/26/2022 3:15:00 AM 1.39 34.502 0.03 6.18 1.76 13.6
12/26/2022 3:30:00 AM 1.39 34.502 0.03 6.19 1.74 13.6
12/26/2022 3:45:00 AM 1.38 34.484 0.03 6.19 1.75 13.6
12/26/2022 4:00:00 AM 1.37 34.466 0.03 6.18 1.77 13.61
12/26/2022 4:15:00 AM 1.36 34.448 0.03 6.2 1.81 13.62
12/26/2022 4:30:00 AM 1.35 34.43 0.03 6.21 1.74 13.62
12/26/2022 4:45:00 AM 1.34 34.412 0.03 6.24 1.75 13.62
12/26/2022 5:00:00 AM 1.32 34.376 0.03 6.19 1.78 13.63
12/26/2022 5:15:00 AM 1.31 34.358 0.03 6.18 1.73 13.64
12/26/2022 5:30:00 AM 1.32 34.376 0.03 6.19 1.79 13.63
12/26/2022 5:45:00 AM 1.31 34.358 0.03 6.19 1.74 13.64
12/26/2022 6:00:00 AM 1.3 34.34 0.03 6.2 1.78 13.64
12/26/2022 6:15:00 AM 1.28 34.304 0.03 6.21 1.77 13.66
12/26/2022 6:30:00 AM 1.25 34.25 0.03 6.19 1.76 13.66
12/26/2022 6:45:00 AM 1.23 34.214 0.03 6.18 1.73 13.67
12/26/2022 7:00:00 AM 1.21 34.178 0.03 6.18 1.72 13.68
12/26/2022 7:15:00 AM 1.18 34.124 0.03 6.16 1.77 13.69
12/26/2022 7:30:00 AM 1.16 34.088 0.03 6.16 1.78 13.7
12/26/2022 7:45:00 AM 1.14 34.052 0.03 6.17 1.73 13.72
12/26/2022 8:00:00 AM 1.12 34.016 0.03 6.17 1.73 13.75
12/26/2022 8:15:00 AM 1.11 33.998 0.03 6.18 1.71 13.76
12/26/2022 8:30:00 AM 1.11 33.998 0.03 6.2 1.76 13.78
12/26/2022 8:45:00 AM 1.13 34.034 0.03 6.21 1.72 13.79
12/26/2022 9:00:00 AM 1.14 34.052 0.03 6.22 1.67 13.8
12/26/2022 9:15:00 AM 1.17 34.106 0.03 6.23 1.73 13.81
12/26/2022 9:30:00 AM 1.2 34.16 0.03 6.23 1.67 13.81
12/26/2022 9:45:00 AM 1.24 34.232 0.03 6.25 1.68 13.8
12/26/2022 10:00:00 AM 1.28 34.304 0.03 6.25 1.68 13.79
12/26/2022 10:15:00 AM 1.33 34.394 0.03 6.25 1.69 13.79
12/26/2022 10:30:00 AM 1.38 34.484 0.03 6.26 1.71 13.77
12/26/2022 10:45:00 AM 1.43 34.574 0.03 6.26 1.63 13.76
12/26/2022 11:00:00 AM 1.49 34.682 0.03 6.26 1.7 13.73
12/26/2022 11:15:00 AM 1.54 34.772 0.03 6.27 1.65 13.72
12/26/2022 11:30:00 AM 1.59 34.862 0.03 6.26 1.67 13.69
12/26/2022 11:45:00 AM 1.63 34.934 0.03 6.26 1.81 13.67
12/26/2022 12:00:00 PM 1.66 34.988 0.03 6.27 1.67 13.66
12/26/2022 12:15:00 PM 1.69 35.042 0.03 6.27 1.69 13.64
12/26/2022 12:30:00 PM 1.73 35.114 0.03 6.27 1.67 13.63
12/26/2022 12:45:00 PM 1.76 35.168 0.03 6.27 1.71 13.61
12/26/2022 1:00:00 PM 1.79 35.222 0.03 6.27 1.68 13.59
12/26/2022 1:15:00 PM 1.82 35.276 0.03 6.26 1.7 13.58
12/26/2022 1:30:00 PM 1.85 35.33 0.03 6.27 1.7 13.57
12/26/2022 1:45:00 PM 1.88 35.384 0.03 6.27 1.7 13.55
12/26/2022 2:00:00 PM 1.9 35.42 0.03 6.28 1.64 13.54
12/26/2022 2:15:00 PM 1.93 35.474 0.03 6.28 1.73 13.53
12/26/2022 2:30:00 PM 1.95 35.51 0.03 6.28 1.74 13.52
12/26/2022 2:45:00 PM 1.96 35.528 0.03 6.27 1.67 13.51
12/26/2022 3:00:00 PM 1.98 35.564 0.03 6.27 1.67 13.5
12/26/2022 3:15:00 PM 1.98 35.564 0.03 6.27 1.71 13.49
12/26/2022 3:30:00 PM 1.98 35.564 0.03 6.26 1.71 13.48
12/26/2022 3:45:00 PM 1.98 35.564 0.03 6.27 1.7 13.47
12/26/2022 4:00:00 PM 1.97 35.546 0.03 6.27 1.74 13.46
12/26/2022 4:15:00 PM 1.97 35.546 0.03 6.26 1.74 13.45
12/26/2022 4:30:00 PM 1.97 35.546 0.03 6.25 1.71 13.44
12/26/2022 4:45:00 PM 1.97 35.546 0.03 6.25 1.65 13.42
12/26/2022 5:00:00 PM 1.97 35.546 0.03 6.24 1.73 13.42
12/26/2022 5:15:00 PM 1.97 35.546 0.03 6.24 1.72 13.41
12/26/2022 5:30:00 PM 1.96 35.528 0.03 6.24 1.72 13.41
12/26/2022 5:45:00 PM 1.96 35.528 0.03 6.23 1.67 13.41
12/26/2022 6:00:00 PM 1.96 35.528 0.03 6.23 1.68 13.41
12/26/2022 6:15:00 PM 1.96 35.528 0.03 6.23 1.71 13.41
12/26/2022 6:30:00 PM 1.95 35.51 0.03 6.24 1.73 13.42
12/26/2022 6:45:00 PM 1.94 35.492 0.03 6.24 1.73 13.42
12/26/2022 7:00:00 PM 1.94 35.492 0.03 6.24 1.74 13.42
12/26/2022 7:15:00 PM 1.93 35.474 0.03 6.24 1.71 13.43
12/26/2022 7:30:00 PM 1.93 35.474 0.03 6.23 1.81 13.43
12/26/2022 7:45:00 PM 1.92 35.456 0.03 6.24 1.7 13.43
12/26/2022 8:00:00 PM 1.92 35.456 0.03 6.24 1.66 13.43
12/26/2022 8:15:00 PM 1.91 35.438 0.03 6.25 1.69 13.44
12/26/2022 8:30:00 PM 1.9 35.42 0.03 6.24 1.71 13.44
12/26/2022 8:45:00 PM 1.89 35.402 0.03 6.23 1.72 13.44
12/26/2022 9:00:00 PM 1.89 35.402 0.03 6.23 1.72 13.45
12/26/2022 9:15:00 PM 1.88 35.384 0.03 6.23 1.72 13.45
12/26/2022 9:30:00 PM 1.88 35.384 0.03 6.23 1.68 13.45
12/26/2022 9:45:00 PM 1.89 35.402 0.03 6.23 1.7 13.45
12/26/2022 10:00:00 PM 1.89 35.402 0.03 6.23 1.68 13.45
12/26/2022 10:15:00 PM 1.89 35.402 0.03 6.23 1.73 13.44
12/26/2022 10:30:00 PM 1.9 35.42 0.03 6.23 1.73 13.45
12/26/2022 10:45:00 PM 1.9 35.42 0.03 6.22 1.68 13.45
12/26/2022 11:00:00 PM 1.91 35.438 0.03 6.22 1.71 13.44
12/26/2022 11:15:00 PM 1.91 35.438 0.03 6.23 1.72 13.44
12/26/2022 11:30:00 PM 1.91 35.438 0.03 6.23 1.7 13.44
12/26/2022 11:45:00 PM 1.92 35.456 0.03 6.23 1.7 13.43
12/27/2022 12:00:00 AM 1.92 35.456 0.03 6.23 1.7 13.44
12/27/2022 12:15:00 AM 1.93 35.474 0.03 6.22 1.72 13.43
12/27/2022 12:30:00 AM 1.93 35.474 0.03 6.23 1.63 13.43
12/27/2022 12:45:00 AM 1.94 35.492 0.03 6.23 1.69 13.43
12/27/2022 1:00:00 AM 1.94 35.492 0.03 6.23 1.71 13.43
12/27/2022 1:15:00 AM 1.93 35.474 0.03 6.24 1.66 13.43
12/27/2022 1:30:00 AM 1.93 35.474 0.03 6.22 1.72 13.43
12/27/2022 1:45:00 AM 1.94 35.492 0.03 6.22 1.66 13.42
12/27/2022 2:00:00 AM 1.94 35.492 0.03 6.22 1.64 13.42
12/27/2022 2:15:00 AM 1.95 35.51 0.03 6.22 1.65 13.42
12/27/2022 2:30:00 AM 1.95 35.51 0.03 6.22 1.64 13.42
12/27/2022 2:45:00 AM 1.96 35.528 0.03 6.22 1.67 13.42
12/27/2022 3:00:00 AM 1.96 35.528 0.03 6.22 1.65 13.41
12/27/2022 3:15:00 AM 1.97 35.546 0.03 6.21 1.66 13.42
12/27/2022 3:30:00 AM 1.97 35.546 0.03 6.22 1.64 13.41
12/27/2022 3:45:00 AM 1.98 35.564 0.03 6.22 1.68 13.41
12/27/2022 4:00:00 AM 1.97 35.546 0.03 6.22 1.67 13.41
12/27/2022 4:15:00 AM 1.97 35.546 0.03 6.21 1.64 13.4
12/27/2022 4:30:00 AM 1.97 35.546 0.03 6.21 1.68 13.41
12/27/2022 4:45:00 AM 1.98 35.564 0.03 6.21 1.65 13.41
12/27/2022 5:00:00 AM 1.99 35.582 0.03 6.21 1.63 13.41
12/27/2022 5:15:00 AM 1.99 35.582 0.03 6.21 1.64 13.41
12/27/2022 5:30:00 AM 2 35.6 0.03 6.22 1.65 13.41
12/27/2022 5:45:00 AM 2.01 35.618 0.03 6.21 1.65 13.41
12/27/2022 6:00:00 AM 2.01 35.618 0.03 6.22 1.62 13.41
12/27/2022 6:15:00 AM 2.02 35.636 0.03 6.21 1.61 13.41
12/27/2022 6:30:00 AM 2.02 35.636 0.03 6.21 1.72 13.41
12/27/2022 6:45:00 AM 2.02 35.636 0.03 6.21 1.65 13.4
12/27/2022 7:00:00 AM 2.02 35.636 0.03 6.22 1.63 13.4
12/27/2022 7:15:00 AM 2.03 35.654 0.03 6.22 1.66 13.4
12/27/2022 7:30:00 AM 2.03 35.654 0.03 6.22 1.68 13.41
12/27/2022 7:45:00 AM 2.03 35.654 0.03 6.22 1.67 13.41
12/27/2022 8:00:00 AM 2.04 35.672 0.03 6.22 1.59 13.41
12/27/2022 8:15:00 AM 2.05 35.69 0.03 6.22 1.63 13.42
12/27/2022 8:30:00 AM 2.06 35.708 0.03 6.23 1.61 13.43
12/27/2022 8:45:00 AM 2.08 35.744 0.03 6.23 1.64 13.45
12/27/2022 9:00:00 AM 2.1 35.78 0.03 6.24 1.62 13.45
12/27/2022 9:15:00 AM 2.11 35.798 0.03 6.24 1.64 13.46
12/27/2022 9:30:00 AM 2.14 35.852 0.03 6.25 1.58 13.47
12/27/2022 9:45:00 AM 2.16 35.888 0.03 6.25 1.66 13.46
12/27/2022 10:00:00 AM 2.18 35.924 0.03 6.25 1.64 13.46
12/27/2022 10:15:00 AM 2.21 35.978 0.03 6.26 1.6 13.45
12/27/2022 10:30:00 AM 2.23 36.014 0.03 6.25 1.57 13.44
12/27/2022 10:45:00 AM 2.25 36.05 0.03 6.26 1.56 13.44
12/27/2022 11:00:00 AM 2.27 36.086 0.03 6.26 1.62 13.44
12/27/2022 11:15:00 AM 2.29 36.122 0.03 6.26 1.6 13.43
12/27/2022 11:30:00 AM 2.32 36.176 0.03 6.26 1.61 13.42
12/27/2022 11:45:00 AM 2.36 36.248 0.03 6.27 1.61 13.41
12/27/2022 12:00:00 PM 2.4 36.32 0.03 6.26 1.59 13.39
12/27/2022 12:15:00 PM 2.44 36.392 0.03 6.27 1.57 13.38
12/27/2022 12:30:00 PM 2.47 36.446 0.03 6.27 1.55 13.37
12/27/2022 12:45:00 PM 2.49 36.482 0.03 6.26 1.54 13.36
12/27/2022 1:00:00 PM 2.51 36.518 0.03 6.27 1.61 13.35
12/27/2022 1:15:00 PM 2.54 36.572 0.03 6.27 1.57 13.34
12/27/2022 1:30:00 PM 2.58 36.644 0.03 6.27 1.57 13.33
12/27/2022 1:45:00 PM 2.59 36.662 0.03 6.27 1.59 13.31
12/27/2022 2:00:00 PM 2.6 36.68 0.03 6.27 1.61 13.3
12/27/2022 2:15:00 PM 2.61 36.698 0.03 6.27 1.59 13.28
12/27/2022 2:30:00 PM 2.62 36.716 0.03 6.27 1.62 13.27
12/27/2022 2:45:00 PM 2.63 36.734 0.03 6.26 1.6 13.27
12/27/2022 3:00:00 PM 2.63 36.734 0.03 6.26 1.57 13.26
12/27/2022 3:15:00 PM 2.64 36.752 0.03 6.26 1.62 13.25
12/27/2022 3:30:00 PM 2.65 36.77 0.03 6.26 1.58 13.25
12/27/2022 3:45:00 PM 2.65 36.77 0.03 6.26 1.59 13.23
12/27/2022 4:00:00 PM 2.66 36.788 0.03 6.26 1.6 13.21
12/27/2022 4:15:00 PM 2.66 36.788 0.03 6.25 1.62 13.21
12/27/2022 4:30:00 PM 2.65 36.77 0.03 6.25 1.62 13.2
12/27/2022 4:45:00 PM 2.65 36.77 0.03 6.24 1.61 13.19
12/27/2022 5:00:00 PM 2.65 36.77 0.03 6.24 1.64 13.19
12/27/2022 5:15:00 PM 2.65 36.77 0.03 6.24 1.63 13.18
12/27/2022 5:30:00 PM 2.65 36.77 0.03 6.23 1.64 13.17
12/27/2022 5:45:00 PM 2.65 36.77 0.03 6.24 1.63 13.18
12/27/2022 6:00:00 PM 2.65 36.77 0.03 6.23 1.61 13.18
12/27/2022 6:15:00 PM 2.65 36.77 0.03 6.23 1.63 13.17
12/27/2022 6:30:00 PM 2.64 36.752 0.03 6.25 1.61 13.18
12/27/2022 6:45:00 PM 2.64 36.752 0.03 6.23 1.66 13.18
12/27/2022 7:00:00 PM 2.65 36.77 0.03 6.24 1.65 13.17
12/27/2022 7:15:00 PM 2.65 36.77 0.03 6.24 1.62 13.18
12/27/2022 7:30:00 PM 2.66 36.788 0.03 6.24 1.61 13.18
12/27/2022 7:45:00 PM 2.68 36.824 0.03 6.24 1.59 13.17
12/27/2022 8:00:00 PM 2.69 36.842 0.03 6.24 1.57 13.16
12/27/2022 8:15:00 PM 2.7 36.86 0.03 6.24 1.63 13.17
12/27/2022 8:30:00 PM 2.71 36.878 0.03 6.25 1.59 13.17
12/27/2022 8:45:00 PM 2.71 36.878 0.03 6.24 1.63 13.16
12/27/2022 9:00:00 PM 2.72 36.896 0.03 6.25 1.67 13.15
12/27/2022 9:15:00 PM 2.73 36.914 0.03 6.24 1.56 13.15
12/27/2022 9:30:00 PM 2.73 36.914 0.03 6.24 1.62 13.15
12/27/2022 9:45:00 PM 2.74 36.932 0.03 6.24 1.6 13.14
12/27/2022 10:00:00 PM 2.74 36.932 0.03 6.24 1.6 13.14
12/27/2022 10:15:00 PM 2.74 36.932 0.03 6.24 1.6 13.14
12/27/2022 10:30:00 PM 2.75 36.95 0.03 6.24 1.63 13.14
12/27/2022 10:45:00 PM 2.75 36.95 0.03 6.24 1.56 13.14
12/27/2022 11:00:00 PM 2.76 36.968 0.03 6.25 1.6 13.13
12/27/2022 11:15:00 PM 2.76 36.968 0.03 6.24 1.58 13.13
12/27/2022 11:30:00 PM 2.77 36.986 0.03 6.24 1.6 13.13
12/27/2022 11:45:00 PM 2.78 37.004 0.03 6.24 1.54 13.13
12/28/2022 12:00:00 AM 2.78 37.004 0.03 6.24 1.58 13.12
12/28/2022 12:15:00 AM 2.79 37.022 0.03 6.25 1.58 13.13
12/28/2022 12:30:00 AM 2.79 37.022 0.03 6.24 1.6 13.11
12/28/2022 12:45:00 AM 2.8 37.04 0.03 6.24 1.6 13.11
12/28/2022 1:00:00 AM 2.8 37.04 0.03 6.24 1.58 13.11
12/28/2022 1:15:00 AM 2.81 37.058 0.03 6.24 1.59 13.11
12/28/2022 1:30:00 AM 2.81 37.058 0.03 6.24 1.62 13.1
12/28/2022 1:45:00 AM 2.82 37.076 0.03 6.24 1.66 13.1
12/28/2022 2:00:00 AM 2.82 37.076 0.03 6.23 1.62 13.11
12/28/2022 2:15:00 AM 2.82 37.076 0.03 6.23 1.59 13.09
12/28/2022 2:30:00 AM 2.83 37.094 0.03 6.23 1.59 13.1
12/28/2022 2:45:00 AM 2.83 37.094 0.03 6.26 1.57 13.1
12/28/2022 3:00:00 AM 2.83 37.094 0.03 6.28 1.57 13.1
12/28/2022 3:15:00 AM 2.84 37.112 0.03 6.26 1.64 13.09
12/28/2022 3:30:00 AM 2.84 37.112 0.03 6.25 1.58 13.09
12/28/2022 3:45:00 AM 2.85 37.13 0.03 6.24 1.59 13.09
12/28/2022 4:00:00 AM 2.85 37.13 0.03 6.24 1.57 13.09
12/28/2022 4:15:00 AM 2.85 37.13 0.03 6.25 1.59 13.08
12/28/2022 4:30:00 AM 2.83 37.094 0.03 6.24 1.6 13.09
12/28/2022 4:45:00 AM 2.82 37.076 0.03 6.24 1.59 13.1
12/28/2022 5:00:00 AM 2.81 37.058 0.03 6.24 1.6 13.1
12/28/2022 5:15:00 AM 2.8 37.04 0.03 6.24 1.59 13.1
12/28/2022 5:30:00 AM 2.79 37.022 0.03 6.24 1.58 13.11
12/28/2022 5:45:00 AM 2.78 37.004 0.03 6.24 1.55 13.11
12/28/2022 6:00:00 AM 2.77 36.986 0.03 6.24 1.58 13.11
12/28/2022 6:15:00 AM 2.76 36.968 0.03 6.23 1.57 13.11
12/28/2022 6:30:00 AM 2.74 36.932 0.03 6.22 1.58 13.13
12/28/2022 6:45:00 AM 2.73 36.914 0.03 6.23 1.58 13.13
12/28/2022 7:00:00 AM 2.72 36.896 0.03 6.23 1.61 13.13
12/28/2022 7:15:00 AM 2.71 36.878 0.03 6.23 1.56 13.14
12/28/2022 7:30:00 AM 2.7 36.86 0.03 6.23 1.57 13.15
12/28/2022 7:45:00 AM 2.7 36.86 0.03 6.23 1.61 13.14
12/28/2022 8:00:00 AM 2.69 36.842 0.03 6.23 1.54 13.15
12/28/2022 8:15:00 AM 2.67 36.806 0.03 6.23 1.59 13.18
12/28/2022 8:30:00 AM 2.66 36.788 0.03 6.23 1.57 13.21
12/28/2022 8:45:00 AM 2.66 36.788 0.03 6.24 1.56 13.22
12/28/2022 9:00:00 AM 2.67 36.806 0.03 6.25 1.53 13.25
12/28/2022 9:15:00 AM 2.7 36.86 0.03 6.26 1.53 13.25
12/28/2022 9:30:00 AM 2.73 36.914 0.03 6.26 1.53 13.26
12/28/2022 9:45:00 AM 2.77 36.986 0.03 6.26 1.57 13.26
12/28/2022 10:00:00 AM 2.81 37.058 0.03 6.27 1.53 13.25
12/28/2022 10:15:00 AM 2.86 37.148 0.03 6.26 1.56 13.23
12/28/2022 10:30:00 AM 2.93 37.274 0.03 6.27 1.58 13.22
12/28/2022 10:45:00 AM 2.99 37.382 0.03 6.27 1.53 13.2
12/28/2022 11:00:00 AM 3.07 37.526 0.03 6.27 1.62 13.18
12/28/2022 11:15:00 AM 3.16 37.688 0.03 6.27 1.52 13.14
12/28/2022 11:30:00 AM 3.25 37.85 0.03 6.27 1.54 13.12
12/28/2022 11:45:00 AM 3.33 37.994 0.03 6.28 1.54 13.08
12/28/2022 12:00:00 PM 3.41 38.138 0.03 6.29 1.56 13.05
12/28/2022 12:15:00 PM 3.49 38.282 0.03 6.29 1.59 13.02
12/28/2022 12:30:00 PM 3.57 38.426 0.03 6.3 1.53 12.99
12/28/2022 12:45:00 PM 3.63 38.534 0.03 6.29 1.52 12.96
12/28/2022 1:00:00 PM 3.68 38.624 0.03 6.3 1.56 12.93
12/28/2022 1:15:00 PM 3.74 38.732 0.03 6.29 1.57 12.91
12/28/2022 1:30:00 PM 3.77 38.786 0.03 6.29 1.52 12.89
12/28/2022 1:45:00 PM 3.79 38.822 0.03 6.29 1.59 12.88
12/28/2022 2:00:00 PM 3.82 38.876 0.03 6.3 1.52 12.87
12/28/2022 2:15:00 PM 3.85 38.93 0.03 6.29 1.54 12.87
12/28/2022 2:30:00 PM 3.87 38.966 0.03 6.31 1.52 12.86
12/28/2022 2:45:00 PM 3.86 38.948 0.03 6.28 1.53 12.85
12/28/2022 3:00:00 PM 3.86 38.948 0.03 6.31 1.56 12.85
12/28/2022 3:15:00 PM 3.86 38.948 0.03 6.28 1.61 12.83
12/28/2022 3:30:00 PM 3.87 38.966 0.03 6.28 1.58 12.83
12/28/2022 3:45:00 PM 3.87 38.966 0.03 6.27 1.53 12.82
12/28/2022 4:00:00 PM 3.86 38.948 0.03 6.27 1.62 12.8
12/28/2022 4:15:00 PM 3.85 38.93 0.03 6.26 1.56 12.79
12/28/2022 4:30:00 PM 3.84 38.912 0.03 6.25 1.6 12.78
12/28/2022 4:45:00 PM 3.82 38.876 0.03 6.25 1.57 12.77
12/28/2022 5:00:00 PM 3.8 38.84 0.03 6.24 1.56 12.77
12/28/2022 5:15:00 PM 3.77 38.786 0.03 6.24 1.59 12.78
12/28/2022 5:30:00 PM 3.74 38.732 0.03 6.23 1.58 12.78
12/28/2022 5:45:00 PM 3.72 38.696 0.03 6.24 1.58 12.78
12/28/2022 6:00:00 PM 3.7 38.66 0.03 6.24 1.56 12.79
12/28/2022 6:15:00 PM 3.68 38.624 0.03 6.23 1.58 12.8
12/28/2022 6:30:00 PM 3.67 38.606 0.03 6.24 1.63 12.8
12/28/2022 6:45:00 PM 3.65 38.57 0.03 6.24 1.7 12.81
12/28/2022 7:00:00 PM 3.63 38.534 0.03 6.24 1.59 12.81
12/28/2022 7:15:00 PM 3.61 38.498 0.03 6.24 1.61 12.81
12/28/2022 7:30:00 PM 3.59 38.462 0.03 6.24 1.62 12.82
12/28/2022 7:45:00 PM 3.57 38.426 0.03 6.23 1.62 12.83
12/28/2022 8:00:00 PM 3.55 38.39 0.03 6.23 1.67 12.84
12/28/2022 8:15:00 PM 3.53 38.354 0.03 6.24 1.63 12.85
12/28/2022 8:30:00 PM 3.52 38.336 0.03 6.24 1.61 12.86
12/28/2022 8:45:00 PM 3.5 38.3 0.03 6.25 1.61 12.86
12/28/2022 9:00:00 PM 3.49 38.282 0.03 6.25 1.6 12.87
12/28/2022 9:15:00 PM 3.47 38.246 0.03 6.24 1.65 12.86
12/28/2022 9:30:00 PM 3.45 38.21 0.03 6.24 1.6 12.87
12/28/2022 9:45:00 PM 3.44 38.192 0.03 6.24 1.64 12.88
12/28/2022 10:00:00 PM 3.42 38.156 0.03 6.24 1.6 12.88
12/28/2022 10:15:00 PM 3.39 38.102 0.03 6.24 1.57 12.89
12/28/2022 10:30:00 PM 3.37 38.066 0.03 6.24 1.6 12.9
12/28/2022 10:45:00 PM 3.35 38.03 0.03 6.24 1.6 12.9
12/28/2022 11:00:00 PM 3.34 38.012 0.03 6.24 1.59 12.91
12/28/2022 11:15:00 PM 3.32 37.976 0.031 6.24 1.66 12.92
12/28/2022 11:30:00 PM 3.31 37.958 0.031 6.24 1.59 12.92
12/28/2022 11:45:00 PM 3.29 37.922 0.03 6.24 1.63 12.93
12/29/2022 12:00:00 AM 3.27 37.886 0.03 6.23 1.61 12.93
12/29/2022 12:15:00 AM 3.25 37.85 0.03 6.24 1.6 12.94
12/29/2022 12:30:00 AM 3.23 37.814 0.03 6.22 1.67 12.95
12/29/2022 12:45:00 AM 3.21 37.778 0.03 6.24 1.58 12.95
12/29/2022 1:00:00 AM 3.19 37.742 0.03 6.23 1.64 12.96
12/29/2022 1:15:00 AM 3.17 37.706 0.03 6.24 1.61 12.97
12/29/2022 1:30:00 AM 3.15 37.67 0.03 6.24 1.6 12.97
12/29/2022 1:45:00 AM 3.13 37.634 0.031 6.24 1.61 12.99
12/29/2022 2:00:00 AM 3.12 37.616 0.031 6.24 1.6 12.99
12/29/2022 2:15:00 AM 3.1 37.58 0.031 6.23 1.58 12.99
12/29/2022 2:30:00 AM 3.08 37.544 0.031 6.23 1.56 13
12/29/2022 2:45:00 AM 3.06 37.508 0.031 6.23 1.53 13.01
12/29/2022 3:00:00 AM 3.04 37.472 0.031 6.23 1.57 13.02
12/29/2022 3:15:00 AM 3.03 37.454 0.031 6.24 1.55 13.02
12/29/2022 3:30:00 AM 3.01 37.418 0.031 6.23 1.55 13.04
12/29/2022 3:45:00 AM 3 37.4 0.031 6.23 1.62 13.04
12/29/2022 4:00:00 AM 2.98 37.364 0.031 6.24 1.54 13.04
12/29/2022 4:15:00 AM 2.97 37.346 0.031 6.23 1.62 13.05
12/29/2022 4:30:00 AM 2.95 37.31 0.031 6.23 1.56 13.06
12/29/2022 4:45:00 AM 2.93 37.274 0.031 6.23 1.56 13.07
12/29/2022 5:00:00 AM 2.9 37.22 0.031 6.22 1.57 13.07
12/29/2022 5:15:00 AM 2.88 37.184 0.031 6.23 1.56 13.08
12/29/2022 5:30:00 AM 2.87 37.166 0.031 6.23 1.52 13.09
12/29/2022 5:45:00 AM 2.85 37.13 0.031 6.23 1.55 13.1
12/29/2022 6:00:00 AM 2.83 37.094 0.031 6.23 1.55 13.11
12/29/2022 6:15:00 AM 2.81 37.058 0.031 6.23 1.58 13.1
12/29/2022 6:30:00 AM 2.79 37.022 0.031 6.23 1.55 13.12
12/29/2022 6:45:00 AM 2.78 37.004 0.031 6.24 1.55 13.12
12/29/2022 7:00:00 AM 2.76 36.968 0.031 6.23 1.57 13.13
12/29/2022 7:15:00 AM 2.74 36.932 0.031 6.23 1.56 13.14
12/29/2022 7:30:00 AM 2.72 36.896 0.031 6.24 1.53 13.14
12/29/2022 7:45:00 AM 2.71 36.878 0.031 6.23 1.58 13.15
12/29/2022 8:00:00 AM 2.69 36.842 0.031 6.24 1.58 13.18
12/29/2022 8:15:00 AM 2.68 36.824 0.031 6.24 1.6 13.2
12/29/2022 8:30:00 AM 2.67 36.806 0.03 6.25 1.53 13.2
12/29/2022 8:45:00 AM 2.67 36.806 0.03 6.25 1.53 13.23
12/29/2022 9:00:00 AM 2.67 36.806 0.03 6.25 1.53 13.25
12/29/2022 9:15:00 AM 2.67 36.806 0.03 6.28 1.56 13.25
12/29/2022 9:30:00 AM 2.68 36.824 0.03 6.28 1.51 13.25
12/29/2022 9:45:00 AM 2.69 36.842 0.03 6.28 1.62 13.26
12/29/2022 10:00:00 AM 2.71 36.878 0.03 6.27 1.58 13.26
12/29/2022 10:15:00 AM 2.75 36.95 0.03 6.27 1.49 13.26
12/29/2022 10:30:00 AM 2.82 37.076 0.03 6.27 1.5 13.25
12/29/2022 10:45:00 AM 2.89 37.202 0.03 6.27 1.5 13.22
12/29/2022 11:00:00 AM 2.97 37.346 0.03 6.27 1.49 13.21
12/29/2022 11:15:00 AM 3.06 37.508 0.03 6.28 1.53 13.18
12/29/2022 11:30:00 AM 3.17 37.706 0.03 6.28 1.55 13.14
12/29/2022 11:45:00 AM 3.27 37.886 0.03 6.28 1.49 13.11
12/29/2022 12:00:00 PM 3.38 38.084 0.03 6.28 1.49 13.07
12/29/2022 12:15:00 PM 3.49 38.282 0.03 6.28 1.5 13.03
12/29/2022 12:30:00 PM 3.61 38.498 0.03 6.28 1.49 12.99
12/29/2022 12:45:00 PM 3.7 38.66 0.03 6.28 1.41 12.95
12/29/2022 1:00:00 PM 3.79 38.822 0.03 6.28 1.5 12.91
12/29/2022 1:15:00 PM 3.88 38.984 0.03 6.29 1.48 12.88
12/29/2022 1:30:00 PM 3.94 39.092 0.03 6.29 1.51 12.85
12/29/2022 1:45:00 PM 3.99 39.182 0.03 6.29 1.48 12.82
12/29/2022 2:00:00 PM 4.03 39.254 0.03 6.28 1.52 12.8
12/29/2022 2:15:00 PM 4.06 39.308 0.03 6.28 1.52 12.79
12/29/2022 2:30:00 PM 4.07 39.326 0.03 6.28 1.5 12.78
12/29/2022 2:45:00 PM 4.08 39.344 0.03 6.29 1.49 12.76
12/29/2022 3:00:00 PM 4.08 39.344 0.03 6.28 1.49 12.75
12/29/2022 3:15:00 PM 4.08 39.344 0.03 6.28 1.48 12.74
12/29/2022 3:30:00 PM 4.07 39.326 0.03 6.27 1.52 12.74
12/29/2022 3:45:00 PM 4.06 39.308 0.03 6.27 1.59 12.73
12/29/2022 4:00:00 PM 4.04 39.272 0.03 6.27 1.54 12.74
12/29/2022 4:15:00 PM 4.02 39.236 0.03 6.27 1.55 12.74
12/29/2022 4:30:00 PM 3.99 39.182 0.03 6.26 1.52 12.74
12/29/2022 4:45:00 PM 3.96 39.128 0.03 6.26 1.59 12.73
12/29/2022 5:00:00 PM 3.93 39.074 0.031 6.25 1.56 12.73
12/29/2022 5:15:00 PM 3.93 39.074 0.03 6.25 1.51 12.73
12/29/2022 5:30:00 PM 3.93 39.074 0.031 6.25 1.55 12.72
12/29/2022 5:45:00 PM 3.93 39.074 0.031 6.24 1.57 12.71
12/29/2022 6:00:00 PM 3.93 39.074 0.031 6.24 1.55 12.72
12/29/2022 6:15:00 PM 3.92 39.056 0.031 6.25 1.57 12.71
12/29/2022 6:30:00 PM 3.9 39.02 0.031 6.24 1.59 12.72
12/29/2022 6:45:00 PM 3.88 38.984 0.031 6.25 1.61 12.73
12/29/2022 7:00:00 PM 3.86 38.948 0.031 6.25 1.55 12.73
12/29/2022 7:15:00 PM 3.85 38.93 0.031 6.25 1.59 12.74
12/29/2022 7:30:00 PM 3.85 38.93 0.031 6.24 1.61 12.74
12/29/2022 7:45:00 PM 3.85 38.93 0.031 6.23 1.58 12.74
12/29/2022 8:00:00 PM 3.86 38.948 0.031 6.25 1.56 12.74
12/29/2022 8:15:00 PM 3.88 38.984 0.031 6.25 1.55 12.74
12/29/2022 8:30:00 PM 3.89 39.002 0.031 6.23 1.55 12.73
12/29/2022 8:45:00 PM 3.9 39.02 0.031 6.23 1.51 12.74
12/29/2022 9:00:00 PM 3.91 39.038 0.031 6.24 1.6 12.74
12/29/2022 9:15:00 PM 3.92 39.056 0.031 6.23 1.55 12.73
12/29/2022 9:30:00 PM 3.93 39.074 0.031 6.24 1.51 12.72
12/29/2022 9:45:00 PM 3.94 39.092 0.031 6.24 1.56 12.72
12/29/2022 10:00:00 PM 3.95 39.11 0.031 6.24 1.54 12.72
12/29/2022 10:15:00 PM 3.96 39.128 0.031 6.23 1.53 12.71
12/29/2022 10:30:00 PM 3.97 39.146 0.031 6.24 1.53 12.71
12/29/2022 10:45:00 PM 3.99 39.182 0.031 6.23 1.54 12.7
12/29/2022 11:00:00 PM 4 39.2 0.031 6.23 1.55 12.7
12/29/2022 11:15:00 PM 4.02 39.236 0.031 6.23 1.57 12.69
12/29/2022 11:30:00 PM 4.03 39.254 0.031 6.23 1.52 12.69
12/29/2022 11:45:00 PM 4.04 39.272 0.031 6.23 1.6 12.69
12/30/2022 12:00:00 AM 4.05 39.29 0.031 6.28 1.56 12.69
12/30/2022 12:15:00 AM 4.06 39.308 0.031 6.28 1.54 12.69
12/30/2022 12:30:00 AM 4.07 39.326 0.031 6.22 1.62 12.68
12/30/2022 12:45:00 AM 4.08 39.344 0.031 6.23 1.52 12.67
12/30/2022 1:00:00 AM 4.08 39.344 0.031 6.22 1.54 12.68
12/30/2022 1:15:00 AM 4.07 39.326 0.031 6.23 1.57 12.67
12/30/2022 1:30:00 AM 4.06 39.308 0.031 6.23 1.52 12.67
12/30/2022 1:45:00 AM 4.06 39.308 0.031 6.24 1.58 12.68
12/30/2022 2:00:00 AM 4.06 39.308 0.031 6.23 1.63 12.68
12/30/2022 2:15:00 AM 4.05 39.29 0.031 6.24 1.56 12.67
12/30/2022 2:30:00 AM 4.05 39.29 0.031 6.25 1.56 12.68
12/30/2022 2:45:00 AM 4.04 39.272 0.031 6.25 1.58 12.67
12/30/2022 3:00:00 AM 4.03 39.254 0.031 6.24 1.52 12.68
12/30/2022 3:15:00 AM 4.03 39.254 0.031 6.25 1.49 12.68
12/30/2022 3:30:00 AM 4.04 39.272 0.031 6.25 1.51 12.69
12/30/2022 3:45:00 AM 4.04 39.272 0.031 6.25 1.56 12.68
12/30/2022 4:00:00 AM 4.04 39.272 0.031 6.25 1.49 12.69
12/30/2022 4:15:00 AM 4.03 39.254 0.031 6.26 1.55 12.69
12/30/2022 4:30:00 AM 4.03 39.254 0.031 6.25 1.53 12.69
12/30/2022 4:45:00 AM 4.03 39.254 0.031 6.25 1.53 12.68
12/30/2022 5:00:00 AM 4.03 39.254 0.031 6.25 1.51 12.69
12/30/2022 5:15:00 AM 4.03 39.254 0.031 6.25 1.57 12.69
12/30/2022 5:30:00 AM 4.03 39.254 0.031 6.25 1.53 12.68
12/30/2022 5:45:00 AM 4.05 39.29 0.031 6.25 1.56 12.67
12/30/2022 6:00:00 AM 4.06 39.308 0.031 6.25 1.53 12.68
12/30/2022 6:15:00 AM 4.06 39.308 0.031 6.25 1.56 12.67
12/30/2022 6:30:00 AM 4.07 39.326 0.031 6.25 1.55 12.67
12/30/2022 6:45:00 AM 4.08 39.344 0.031 6.24 1.5 12.67
12/30/2022 7:00:00 AM 4.09 39.362 0.031 6.24 1.55 12.67
12/30/2022 7:15:00 AM 4.1 39.38 0.031 6.24 1.53 12.66
12/30/2022 7:30:00 AM 4.11 39.398 0.031 6.25 1.55 12.66
12/30/2022 7:45:00 AM 4.12 39.416 0.031 6.25 1.51 12.66
12/30/2022 8:00:00 AM 4.14 39.452 0.031 6.24 1.52 12.66
12/30/2022 8:15:00 AM 4.16 39.488 0.031 6.24 1.53 12.67
12/30/2022 8:30:00 AM 4.18 39.524 0.031 6.25 1.54 12.67
12/30/2022 8:45:00 AM 4.2 39.56 0.031 6.25 1.51 12.69
12/30/2022 9:00:00 AM 4.23 39.614 0.03 6.27 1.52 12.71
12/30/2022 9:15:00 AM 4.25 39.65 0.03 6.27 1.5 12.72
12/30/2022 9:30:00 AM 4.27 39.686 0.03 6.27 1.52 12.71
12/30/2022 9:45:00 AM 4.3 39.74 0.03 6.28 1.5 12.71
12/30/2022 10:00:00 AM 4.33 39.794 0.03 6.29 1.43 12.72
12/30/2022 10:15:00 AM 4.37 39.866 0.03 6.3 1.49 12.71
12/30/2022 10:30:00 AM 4.4 39.92 0.03 6.3 1.48 12.7
12/30/2022 10:45:00 AM 4.44 39.992 0.03 6.3 1.5 12.7
12/30/2022 11:00:00 AM 4.48 40.064 0.03 6.3 1.45 12.69
12/30/2022 11:15:00 AM 4.52 40.136 0.03 6.3 1.5 12.68
12/30/2022 11:30:00 AM 4.56 40.208 0.03 6.3 1.5 12.66
12/30/2022 11:45:00 AM 4.59 40.262 0.03 6.3 1.49 12.65
12/30/2022 12:00:00 PM 4.64 40.352 0.03 6.31 1.47 12.64
12/30/2022 12:15:00 PM 4.69 40.442 0.03 6.32 1.49 12.62
12/30/2022 12:30:00 PM 4.73 40.514 0.03 6.32 1.53 12.61
12/30/2022 12:45:00 PM 4.77 40.586 0.03 6.31 1.49 12.6
12/30/2022 1:00:00 PM 4.81 40.658 0.03 6.31 1.56 12.58
12/30/2022 1:15:00 PM 4.85 40.73 0.03 6.31 1.53 12.57
12/30/2022 1:30:00 PM 4.88 40.784 0.03 6.31 1.48 12.55
12/30/2022 1:45:00 PM 4.9 40.82 0.03 6.3 1.47 12.54
12/30/2022 2:00:00 PM 4.94 40.892 0.03 6.3 1.52 12.53
12/30/2022 2:15:00 PM 4.97 40.946 0.03 6.3 1.52 12.51
12/30/2022 2:30:00 PM 4.99 40.982 0.03 6.31 1.55 12.5
12/30/2022 2:45:00 PM 5 41 0.03 6.31 1.61 12.49
12/30/2022 3:00:00 PM 5.01 41.018 0.03 6.31 1.62 12.47
12/30/2022 3:15:00 PM 5.02 41.036 0.03 6.31 1.64 12.47
12/30/2022 3:30:00 PM 5.01 41.018 0.03 6.31 1.67 12.45
12/30/2022 3:45:00 PM 4.98 40.964 0.03 6.31 1.73 12.43
12/30/2022 4:00:00 PM 4.95 40.91 0.03 6.3 1.71 12.43
12/30/2022 4:15:00 PM 4.91 40.838 0.03 6.29 1.72 12.43
12/30/2022 4:30:00 PM 4.88 40.784 0.03 6.29 1.68 12.42
12/30/2022 4:45:00 PM 4.85 40.73 0.03 6.28 1.73 12.41
12/30/2022 5:00:00 PM 4.82 40.676 0.031 6.28 1.73 12.41
12/30/2022 5:15:00 PM 4.78 40.604 0.031 6.27 1.74 12.41
12/30/2022 5:30:00 PM 4.75 40.55 0.031 6.27 1.76 12.42
12/30/2022 5:45:00 PM 4.71 40.478 0.031 6.27 1.76 12.43
12/30/2022 6:00:00 PM 4.67 40.406 0.031 6.27 1.8 12.43
12/30/2022 6:15:00 PM 4.64 40.352 0.031 6.27 1.83 12.45
12/30/2022 6:30:00 PM 4.61 40.298 0.031 6.26 1.82 12.45
12/30/2022 6:45:00 PM 4.58 40.244 0.031 6.26 1.82 12.46
12/30/2022 7:00:00 PM 4.56 40.208 0.031 6.27 1.75 12.47
12/30/2022 7:15:00 PM 4.54 40.172 0.031 6.26 1.76 12.48
12/30/2022 7:30:00 PM 4.51 40.118 0.031 6.27 1.72 12.49
12/30/2022 7:45:00 PM 4.48 40.064 0.031 6.27 1.71 12.5
12/30/2022 8:00:00 PM 4.47 40.046 0.031 6.27 1.7 12.5
12/30/2022 8:15:00 PM 4.46 40.028 0.031 6.27 1.68 12.51
12/30/2022 8:30:00 PM 4.45 40.01 0.031 6.27 1.66 12.51
12/30/2022 8:45:00 PM 4.43 39.974 0.031 6.26 1.67 12.51
12/30/2022 9:00:00 PM 4.41 39.938 0.031 6.26 1.62 12.52
12/30/2022 9:15:00 PM 4.4 39.92 0.031 6.26 1.63 12.52
12/30/2022 9:30:00 PM 4.38 39.884 0.031 6.26 1.65 12.52
12/30/2022 9:45:00 PM 4.36 39.848 0.031 6.26 1.66 12.53
12/30/2022 10:00:00 PM 4.35 39.83 0.031 6.26 1.59 12.53
12/30/2022 10:15:00 PM 4.34 39.812 0.031 6.26 1.65 12.54
12/30/2022 10:30:00 PM 4.32 39.776 0.031 6.26 1.62 12.54
12/30/2022 10:45:00 PM 4.3 39.74 0.031 6.25 1.6 12.55
12/30/2022 11:00:00 PM 4.29 39.722 0.031 6.25 1.61 12.55
12/30/2022 11:15:00 PM 4.27 39.686 0.031 6.26 1.64 12.55
12/30/2022 11:30:00 PM 4.25 39.65 0.031 6.26 1.6 12.56
12/30/2022 11:45:00 PM 4.24 39.632 0.031 6.25 1.61 12.57
12/31/2022 12:00:00 AM 4.22 39.596 0.031 6.25 1.53 12.57
12/31/2022 12:15:00 AM 4.21 39.578 0.031 6.25 1.6 12.56
12/31/2022 12:30:00 AM 4.2 39.56 0.031 6.25 1.58 12.57
12/31/2022 12:45:00 AM 4.18 39.524 0.031 6.25 1.61 12.58
12/31/2022 1:00:00 AM 4.17 39.506 0.031 6.25 1.59 12.58
12/31/2022 1:15:00 AM 4.16 39.488 0.031 6.24 1.61 12.58
12/31/2022 1:30:00 AM 4.15 39.47 0.031 6.24 1.6 12.58
12/31/2022 1:45:00 AM 4.14 39.452 0.031 6.24 1.58 12.59
12/31/2022 2:00:00 AM 4.14 39.452 0.031 6.25 1.59 12.59
12/31/2022 2:15:00 AM 4.13 39.434 0.031 6.24 1.6 12.59
12/31/2022 2:30:00 AM 4.13 39.434 0.031 6.25 1.56 12.58
12/31/2022 2:45:00 AM 4.12 39.416 0.031 6.25 1.56 12.59
12/31/2022 3:00:00 AM 4.12 39.416 0.031 6.23 1.55 12.59
12/31/2022 3:15:00 AM 4.11 39.398 0.03 6.23 1.59 12.59
12/31/2022 3:30:00 AM 4.11 39.398 0.031 6.23 1.59 12.59
12/31/2022 3:45:00 AM 4.11 39.398 0.031 6.23 1.6 12.59
12/31/2022 4:00:00 AM 4.12 39.416 0.031 6.25 1.58 12.58
12/31/2022 4:15:00 AM 4.14 39.452 0.031 6.26 1.55 12.57
12/31/2022 4:30:00 AM 4.15 39.47 0.031 6.25 1.6 12.58
12/31/2022 4:45:00 AM 4.15 39.47 0.031 6.26 1.55 12.58
12/31/2022 5:00:00 AM 4.15 39.47 0.031 6.26 1.55 12.57
12/31/2022 5:15:00 AM 4.16 39.488 0.031 6.26 1.56 12.57
12/31/2022 5:30:00 AM 4.17 39.506 0.031 6.25 1.56 12.56
12/31/2022 5:45:00 AM 4.18 39.524 0.031 6.26 1.53 12.56
12/31/2022 6:00:00 AM 4.19 39.542 0.031 6.25 1.53 12.56
12/31/2022 6:15:00 AM 4.19 39.542 0.031 6.26 1.54 12.55
12/31/2022 6:30:00 AM 4.19 39.542 0.031 6.25 1.54 12.54
12/31/2022 6:45:00 AM 4.19 39.542 0.031 6.25 1.53 12.55
12/31/2022 7:00:00 AM 4.19 39.542 0.031 6.25 1.54 12.54
12/31/2022 7:15:00 AM 4.2 39.56 0.031 6.25 1.55 12.54
12/31/2022 7:30:00 AM 4.2 39.56 0.031 6.25 1.53 12.54
12/31/2022 7:45:00 AM 4.21 39.578 0.031 6.25 1.59 12.54
12/31/2022 8:00:00 AM 4.22 39.596 0.031 6.25 1.53 12.54
12/31/2022 8:15:00 AM 4.24 39.632 0.031 6.25 1.5 12.54
12/31/2022 8:30:00 AM 4.24 39.632 0.031 6.26 1.5 12.54
12/31/2022 8:45:00 AM 4.26 39.668 0.03 6.26 1.53 12.55
12/31/2022 9:00:00 AM 4.27 39.686 0.03 6.26 1.52 12.56
12/31/2022 9:15:00 AM 4.29 39.722 0.03 6.26 1.48 12.57
12/31/2022 9:30:00 AM 4.32 39.776 0.03 6.27 1.48 12.58
12/31/2022 9:45:00 AM 4.35 39.83 0.03 6.27 1.53 12.59
12/31/2022 10:00:00 AM 4.37 39.866 0.03 6.28 1.5 12.59
12/31/2022 10:15:00 AM 4.4 39.92 0.03 6.29 1.47 12.59
12/31/2022 10:30:00 AM 4.43 39.974 0.03 6.3 1.49 12.58
12/31/2022 10:45:00 AM 4.46 40.028 0.03 6.3 1.49 12.57
12/31/2022 11:00:00 AM 4.49 40.082 0.03 6.3 1.51 12.57
12/31/2022 11:15:00 AM 4.52 40.136 0.03 6.3 1.47 12.56
12/31/2022 11:30:00 AM 4.55 40.19 0.03 6.3 1.48 12.55
12/31/2022 11:45:00 AM 4.58 40.244 0.03 6.3 1.5 12.54
12/31/2022 12:00:00 PM 4.61 40.298 0.03 6.3 1.54 12.53
12/31/2022 12:15:00 PM 4.64 40.352 0.03 6.3 1.49 12.51
12/31/2022 12:30:00 PM 4.68 40.424 0.03 6.32 1.51 12.51
12/31/2022 12:45:00 PM 4.72 40.496 0.03 6.3 1.51 12.49
12/31/2022 1:00:00 PM 4.75 40.55 0.03 6.31 1.55 12.48
12/31/2022 1:15:00 PM 4.78 40.604 0.03 6.32 1.5 12.46
12/31/2022 1:30:00 PM 4.79 40.622 0.03 6.32 1.57 12.44
12/31/2022 1:45:00 PM 4.8 40.64 0.03 6.37 1.55 12.42
12/31/2022 2:00:00 PM 4.81 40.658 0.03 6.38 1.58 12.41
12/31/2022 2:15:00 PM 4.82 40.676 0.03 6.37 1.52 12.38
12/31/2022 2:30:00 PM 4.83 40.694 0.03 6.37 1.58 12.37
12/31/2022 2:45:00 PM 4.84 40.712 0.03 6.37 1.57 12.36
12/31/2022 3:00:00 PM 4.84 40.712 0.03 6.36 1.63 12.34
12/31/2022 3:15:00 PM 4.84 40.712 0.03 6.36 1.63 12.34
12/31/2022 3:30:00 PM 4.83 40.694 0.03 6.36 2.06 12.33
12/31/2022 3:45:00 PM 4.83 40.694 0.03 6.35 1.58 12.32
12/31/2022 4:00:00 PM 4.82 40.676 0.03 6.34 1.62 12.31
12/31/2022 4:15:00 PM 4.81 40.658 0.03 6.35 1.63 12.31
12/31/2022 4:30:00 PM 4.81 40.658 0.03 6.34 1.69 12.3
12/31/2022 4:45:00 PM 4.8 40.64 0.03 6.33 1.68 12.29
12/31/2022 5:00:00 PM 4.79 40.622 0.03 6.33 1.74 12.29
12/31/2022 5:15:00 PM 4.79 40.622 0.03 6.32 1.7 12.28
12/31/2022 5:30:00 PM 4.78 40.604 0.03 6.32 1.79 12.29
12/31/2022 5:45:00 PM 4.77 40.586 0.03 6.31 1.84 12.29
12/31/2022 6:00:00 PM 4.77 40.586 0.03 6.31 1.94 12.28
12/31/2022 6:15:00 PM 4.76 40.568 0.03 6.3 1.96 12.28
12/31/2022 6:30:00 PM 4.75 40.55 0.03 6.3 2.18 12.28
12/31/2022 6:45:00 PM 4.74 40.532 0.03 6.3 2.47 12.28
12/31/2022 7:00:00 PM 4.74 40.532 0.03 6.3 2.51 12.28
12/31/2022 7:15:00 PM 4.73 40.514 0.03 6.31 2.26 12.29
12/31/2022 7:30:00 PM 4.73 40.514 0.03 6.31 2.16 12.29
12/31/2022 7:45:00 PM 4.72 40.496 0.031 6.32 2.14 12.29
12/31/2022 8:00:00 PM 4.71 40.478 0.031 6.32 2.19 12.29
12/31/2022 8:15:00 PM 4.71 40.478 0.031 6.31 2.34 12.3
12/31/2022 8:30:00 PM 4.7 40.46 0.031 6.31 2.28 12.3
12/31/2022 8:45:00 PM 4.7 40.46 0.031 6.31 2.22 12.3
12/31/2022 9:00:00 PM 4.7 40.46 0.031 6.31 2.28 12.31
12/31/2022 9:15:00 PM 4.7 40.46 0.031 6.3 2.2 12.3
12/31/2022 9:30:00 PM 4.69 40.442 0.031 6.3 2.08 12.3
12/31/2022 9:45:00 PM 4.69 40.442 0.031 6.31 2.02 12.3
12/31/2022 10:00:00 PM 4.69 40.442 0.031 6.31 1.97 12.31
12/31/2022 10:15:00 PM 4.69 40.442 0.031 6.33 1.97 12.31
12/31/2022 10:30:00 PM 4.68 40.424 0.031 6.32 1.96 12.31
12/31/2022 10:45:00 PM 4.69 40.442 0.031 6.31 1.91 12.31
12/31/2022 11:00:00 PM 4.68 40.424 0.031 6.3 1.92 12.31
12/31/2022 11:15:00 PM 4.68 40.424 0.031 6.29 1.93 12.31
12/31/2022 11:30:00 PM 4.68 40.424 0.031 6.3 1.91 12.32
12/31/2022 11:45:00 PM 4.66 40.388 0.031 6.31 1.97 12.32
1/1/2023 12:00:00 AM 4.66 40.388 0.031 6.31 1.91 12.33
1/1/2023 12:15:00 AM 4.65 40.37 0.031 6.3 1.94 12.33
1/1/2023 12:30:00 AM 4.65 40.37 0.031 6.27 1.85 12.33
1/1/2023 12:45:00 AM 4.65 40.37 0.031 6.28 1.86 12.33
1/1/2023 1:00:00 AM 4.65 40.37 0.031 6.3 1.88 12.33
1/1/2023 1:15:00 AM 4.65 40.37 0.03 6.29 1.88 12.33
1/1/2023 1:30:00 AM 4.64 40.352 0.03 6.29 1.89 12.34
1/1/2023 1:45:00 AM 4.63 40.334 0.03 6.29 1.94 12.34
1/1/2023 2:00:00 AM 4.62 40.316 0.03 6.29 1.85 12.35
1/1/2023 2:15:00 AM 4.6 40.28 0.03 6.28 1.86 12.35
1/1/2023 2:30:00 AM 4.59 40.262 0.03 6.28 1.95 12.35
1/1/2023 2:45:00 AM 4.57 40.226 0.03 6.27 1.88 12.37
1/1/2023 3:00:00 AM 4.55 40.19 0.03 6.27 1.93 12.37
1/1/2023 3:15:00 AM 4.53 40.154 0.03 6.28 1.84 12.38
1/1/2023 3:30:00 AM 4.5 40.1 0.03 6.27 1.81 12.39
1/1/2023 3:45:00 AM 4.47 40.046 0.03 6.28 1.78 12.4
1/1/2023 4:00:00 AM 4.45 40.01 0.03 6.28 1.86 12.41
1/1/2023 4:15:00 AM 4.43 39.974 0.03 6.28 1.8 12.42
1/1/2023 4:30:00 AM 4.41 39.938 0.03 6.28 1.85 12.43
1/1/2023 4:45:00 AM 4.38 39.884 0.03 6.28 1.74 12.44
1/1/2023 5:00:00 AM 4.36 39.848 0.03 6.27 1.76 12.45
1/1/2023 5:15:00 AM 4.34 39.812 0.03 6.27 1.78 12.46
1/1/2023 5:30:00 AM 4.32 39.776 0.03 6.27 1.74 12.46
1/1/2023 5:45:00 AM 4.31 39.758 0.03 6.27 1.79 12.47
1/1/2023 6:00:00 AM 4.29 39.722 0.03 6.27 1.77 12.49
1/1/2023 6:15:00 AM 4.27 39.686 0.03 6.27 1.73 12.49
1/1/2023 6:30:00 AM 4.26 39.668 0.03 6.26 1.73 12.5
1/1/2023 6:45:00 AM 4.25 39.65 0.03 6.27 1.78 12.51
1/1/2023 7:00:00 AM 4.24 39.632 0.03 6.27 1.76 12.51
1/1/2023 7:15:00 AM 4.23 39.614 0.03 6.27 1.76 12.52
1/1/2023 7:30:00 AM 4.22 39.596 0.03 6.27 1.76 12.52
1/1/2023 7:45:00 AM 4.22 39.596 0.03 6.26 1.74 12.54
1/1/2023 8:00:00 AM 4.21 39.578 0.03 6.26 1.7 12.54
1/1/2023 8:15:00 AM 4.21 39.578 0.03 6.26 1.76 12.57
1/1/2023 8:30:00 AM 4.21 39.578 0.03 6.31 1.81 12.58
1/1/2023 8:45:00 AM 4.21 39.578 0.03 6.28 1.79 12.59
1/1/2023 9:00:00 AM 4.21 39.578 0.03 6.28 1.7 12.6
1/1/2023 9:15:00 AM 4.21 39.578 0.03 6.28 1.68 12.61
1/1/2023 9:30:00 AM 4.21 39.578 0.03 6.33 1.83 12.63
1/1/2023 9:45:00 AM 4.23 39.614 0.03 6.3 1.77 12.65
1/1/2023 10:00:00 AM 4.26 39.668 0.03 6.3 1.72 12.66
1/1/2023 10:15:00 AM 4.3 39.74 0.03 6.3 1.68 12.66
1/1/2023 10:30:00 AM 4.36 39.848 0.03 6.29 1.65 12.65
1/1/2023 10:45:00 AM 4.44 39.992 0.03 6.31 1.68 12.64
1/1/2023 11:00:00 AM 4.53 40.154 0.03 6.31 1.68 12.61
1/1/2023 11:15:00 AM 4.6 40.28 0.03 6.3 1.63 12.58
1/1/2023 11:30:00 AM 4.67 40.406 0.03 6.31 1.59 12.56
1/1/2023 11:45:00 AM 4.72 40.496 0.03 6.31 1.63 12.54
1/1/2023 12:00:00 PM 4.8 40.64 0.03 6.31 1.63 12.52
1/1/2023 12:15:00 PM 4.87 40.766 0.03 6.32 1.59 12.51
1/1/2023 12:30:00 PM 4.91 40.838 0.03 6.32 1.66 12.48
1/1/2023 12:45:00 PM 4.98 40.964 0.03 6.32 1.66 12.45
1/1/2023 1:00:00 PM 5.05 41.09 0.03 6.32 1.66 12.43
1/1/2023 1:15:00 PM 5.11 41.198 0.03 6.32 1.65 12.41
1/1/2023 1:30:00 PM 5.13 41.234 0.03 6.33 1.66 12.39
1/1/2023 1:45:00 PM 5.16 41.288 0.03 6.33 1.67 12.38
1/1/2023 2:00:00 PM 5.18 41.324 0.03 6.33 1.66 12.37
1/1/2023 2:15:00 PM 5.21 41.378 0.03 6.33 1.7 12.36
1/1/2023 2:30:00 PM 5.23 41.414 0.03 6.33 1.7 12.35
1/1/2023 2:45:00 PM 5.23 41.414 0.03 6.35 1.7 12.34
1/1/2023 3:00:00 PM 5.21 41.378 0.03 6.35 1.75 12.32
1/1/2023 3:15:00 PM 5.22 41.396 0.03 6.35 1.71 12.32
1/1/2023 3:30:00 PM 5.22 41.396 0.03 6.34 1.79 12.3
1/1/2023 3:45:00 PM 5.22 41.396 0.03 6.34 1.79 12.29
1/1/2023 4:00:00 PM 5.21 41.378 0.03 6.33 1.76 12.28
1/1/2023 4:15:00 PM 5.2 41.36 0.03 6.32 1.76 12.27
1/1/2023 4:30:00 PM 5.18 41.324 0.03 6.36 1.75 12.27
1/1/2023 4:45:00 PM 5.16 41.288 0.03 6.38 1.75 12.26
1/1/2023 5:00:00 PM 5.14 41.252 0.03 6.38 1.77 12.25
1/1/2023 5:15:00 PM 5.11 41.198 0.03 6.38 1.78 12.24
1/1/2023 5:30:00 PM 5.09 41.162 0.03 6.36 1.87 12.25
1/1/2023 5:45:00 PM 5.07 41.126 0.03 6.3 1.88 12.25
1/1/2023 6:00:00 PM 5.06 41.108 0.03 6.26 1.83 12.26
1/1/2023 6:15:00 PM 5.05 41.09 0.03 6.26 1.86 12.26
1/1/2023 6:30:00 PM 5.04 41.072 0.03 6.26 1.86 12.27
1/1/2023 6:45:00 PM 5.03 41.054 0.03 6.25 1.85 12.27
1/1/2023 7:00:00 PM 5.02 41.036 0.03 6.25 1.89 12.28
1/1/2023 7:15:00 PM 5.01 41.018 0.03 6.25 1.83 12.28
1/1/2023 7:30:00 PM 5 41 0.03 6.26 1.85 12.29
1/1/2023 7:45:00 PM 4.99 40.982 0.03 6.27 1.81 12.29
1/1/2023 8:00:00 PM 4.99 40.982 0.03 6.27 1.83 12.3
1/1/2023 8:15:00 PM 4.98 40.964 0.03 6.27 1.85 12.3
1/1/2023 8:30:00 PM 4.98 40.964 0.03 6.26 1.8 12.3
1/1/2023 8:45:00 PM 4.97 40.946 0.03 6.26 1.76 12.3
1/1/2023 9:00:00 PM 4.96 40.928 0.03 6.25 1.79 12.31
1/1/2023 9:15:00 PM 4.96 40.928 0.03 6.26 1.75 12.31
1/1/2023 9:30:00 PM 4.95 40.91 0.03 6.25 1.77 12.31
1/1/2023 9:45:00 PM 4.94 40.892 0.03 6.25 1.72 12.32
1/1/2023 10:00:00 PM 4.93 40.874 0.03 6.26 1.78 12.32
1/1/2023 10:15:00 PM 4.92 40.856 0.03 6.28 1.74 12.33
1/1/2023 10:30:00 PM 4.92 40.856 0.03 6.27 1.81 12.33
1/1/2023 10:45:00 PM 4.91 40.838 0.03 6.26 1.83 12.33
1/1/2023 11:00:00 PM 4.9 40.82 0.03 6.26 3.48 12.33
1/1/2023 11:15:00 PM 4.9 40.82 0.03 6.26 1.74 12.34
1/1/2023 11:30:00 PM 4.88 40.784 0.03 6.26 1.85 12.34
1/1/2023 11:45:00 PM 4.87 40.766 0.03 6.27 1.86 12.35
1/2/2023 12:00:00 AM 4.85 40.73 0.03 6.27 1.77 12.35
1/2/2023 12:15:00 AM 4.84 40.712 0.03 6.26 1.77 12.35
1/2/2023 12:30:00 AM 4.84 40.712 0.03 6.27 1.76 12.35
1/2/2023 12:45:00 AM 4.82 40.676 0.03 6.25 1.79 12.36
1/2/2023 1:00:00 AM 4.8 40.64 0.03 6.25 1.75 12.36
1/2/2023 1:15:00 AM 4.78 40.604 0.03 6.25 1.74 12.37
1/2/2023 1:30:00 AM 4.76 40.568 0.03 6.25 1.74 12.38
1/2/2023 1:45:00 AM 4.75 40.55 0.03 6.25 1.78 12.38
1/2/2023 2:00:00 AM 4.74 40.532 0.03 6.25 1.74 12.39
1/2/2023 2:15:00 AM 4.73 40.514 0.03 6.25 1.75 12.4
1/2/2023 2:30:00 AM 4.73 40.514 0.03 6.25 1.8 12.4
1/2/2023 2:45:00 AM 4.71 40.478 0.03 6.25 1.79 12.41
1/2/2023 3:00:00 AM 4.7 40.46 0.03 6.25 1.77 12.41
1/2/2023 3:15:00 AM 4.7 40.46 0.03 6.26 1.8 12.42
1/2/2023 3:30:00 AM 4.69 40.442 0.03 6.25 1.77 12.42
1/2/2023 3:45:00 AM 4.69 40.442 0.03 6.25 1.72 12.42
1/2/2023 4:00:00 AM 4.69 40.442 0.03 6.25 1.74 12.42
1/2/2023 4:15:00 AM 4.68 40.424 0.03 6.25 1.78 12.42
1/2/2023 4:30:00 AM 4.69 40.442 0.03 6.25 1.79 12.42
1/2/2023 4:45:00 AM 4.68 40.424 0.03 6.25 1.72 12.43
1/2/2023 5:00:00 AM 4.68 40.424 0.03 6.25 1.71 12.42
1/2/2023 5:15:00 AM 4.67 40.406 0.03 6.26 1.73 12.42
1/2/2023 5:30:00 AM 4.66 40.388 0.03 6.25 1.81 12.43
1/2/2023 5:45:00 AM 4.66 40.388 0.03 6.25 1.72 12.44
1/2/2023 6:00:00 AM 4.65 40.37 0.03 6.25 1.72 12.44
1/2/2023 6:15:00 AM 4.64 40.352 0.03 6.24 1.73 12.44
1/2/2023 6:30:00 AM 4.63 40.334 0.03 6.25 1.73 12.45
1/2/2023 6:45:00 AM 4.62 40.316 0.03 6.25 1.76 12.45
1/2/2023 7:00:00 AM 4.62 40.316 0.03 6.24 1.76 12.45
1/2/2023 7:15:00 AM 4.61 40.298 0.03 6.24 1.69 12.46
1/2/2023 7:30:00 AM 4.6 40.28 0.03 6.25 1.67 12.47
1/2/2023 7:45:00 AM 4.59 40.262 0.03 6.25 1.71 12.47
1/2/2023 8:00:00 AM 4.59 40.262 0.03 6.25 1.72 12.48
1/2/2023 8:15:00 AM 4.6 40.28 0.03 6.25 1.68 12.5
1/2/2023 8:30:00 AM 4.6 40.28 0.03 6.26 1.71 12.52
1/2/2023 8:45:00 AM 4.61 40.298 0.03 6.27 1.65 12.53
1/2/2023 9:00:00 AM 4.63 40.334 0.03 6.28 1.69 12.54
1/2/2023 9:15:00 AM 4.65 40.37 0.03 6.29 1.67 12.56
1/2/2023 9:30:00 AM 4.68 40.424 0.03 6.29 1.63 12.57
1/2/2023 9:45:00 AM 4.71 40.478 0.03 6.29 1.67 12.57
1/2/2023 10:00:00 AM 4.75 40.55 0.03 6.3 1.66 12.57
1/2/2023 10:15:00 AM 4.8 40.64 0.03 6.29 1.71 12.56
1/2/2023 10:30:00 AM 4.86 40.748 0.03 6.3 1.67 12.54
1/2/2023 10:45:00 AM 4.91 40.838 0.03 6.3 1.63 12.52
1/2/2023 11:00:00 AM 4.97 40.946 0.03 6.3 1.64 12.5
1/2/2023 11:15:00 AM 5.03 41.054 0.03 6.3 1.67 12.48
1/2/2023 11:30:00 AM 5.1 41.18 0.03 6.31 1.67 12.47
1/2/2023 11:45:00 AM 5.17 41.306 0.03 6.32 1.59 12.45
1/2/2023 12:00:00 PM 5.24 41.432 0.03 6.32 1.66 12.42
1/2/2023 12:15:00 PM 5.28 41.504 0.03 6.32 1.65 12.38
1/2/2023 12:30:00 PM 5.37 41.666 0.03 6.31 1.64 12.37
1/2/2023 12:45:00 PM 5.47 41.846 0.03 6.31 1.7 12.34
1/2/2023 1:00:00 PM 5.56 42.008 0.03 6.31 1.74 12.31
1/2/2023 1:15:00 PM 5.61 42.098 0.03 6.32 1.71 12.28
1/2/2023 1:30:00 PM 5.65 42.17 0.03 6.31 1.75 12.27
1/2/2023 1:45:00 PM 5.68 42.224 0.03 6.32 1.75 12.25
1/2/2023 2:00:00 PM 5.7 42.26 0.03 6.32 1.78 12.22
1/2/2023 2:15:00 PM 5.71 42.278 0.03 6.32 1.85 12.21
1/2/2023 2:30:00 PM 5.72 42.296 0.03 6.32 1.91 12.21
1/2/2023 2:45:00 PM 5.72 42.296 0.03 6.32 1.92 12.21
1/2/2023 3:00:00 PM 5.72 42.296 0.03 6.31 2.01 12.2
1/2/2023 3:15:00 PM 5.71 42.278 0.03 6.3 2.03 12.18
1/2/2023 3:30:00 PM 5.69 42.242 0.03 6.3 2.07 12.17
1/2/2023 3:45:00 PM 5.69 42.242 0.03 6.3 2.11 12.16
1/2/2023 4:00:00 PM 5.68 42.224 0.03 6.29 2.12 12.15
1/2/2023 4:15:00 PM 5.67 42.206 0.03 6.29 2.12 12.15
1/2/2023 4:30:00 PM 5.66 42.188 0.03 6.29 2.1 12.15
1/2/2023 4:45:00 PM 5.65 42.17 0.03 6.28 2.12 12.14
1/2/2023 5:00:00 PM 5.64 42.152 0.03 6.28 2.12 12.14
1/2/2023 5:15:00 PM 5.63 42.134 0.03 6.27 2.08 12.13
1/2/2023 5:30:00 PM 5.62 42.116 0.03 6.27 2 12.14
1/2/2023 5:45:00 PM 5.6 42.08 0.03 6.27 2.04 12.14
1/2/2023 6:00:00 PM 5.59 42.062 0.03 6.27 1.98 12.15
1/2/2023 6:15:00 PM 5.58 42.044 0.03 6.28 2.01 12.15
1/2/2023 6:30:00 PM 5.57 42.026 0.03 6.28 1.93 12.15
1/2/2023 6:45:00 PM 5.57 42.026 0.03 6.27 1.94 12.15
1/2/2023 7:00:00 PM 5.55 41.99 0.03 6.27 2 12.16
1/2/2023 7:15:00 PM 5.54 41.972 0.03 6.26 1.92 12.17
1/2/2023 7:30:00 PM 5.54 41.972 0.03 6.25 1.92 12.17
1/2/2023 7:45:00 PM 5.53 41.954 0.03 6.25 1.91 12.17
1/2/2023 8:00:00 PM 5.53 41.954 0.03 6.25 1.86 12.18
1/2/2023 8:15:00 PM 5.52 41.936 0.03 6.25 1.96 12.18
1/2/2023 8:30:00 PM 5.51 41.918 0.03 6.25 1.93 12.18
1/2/2023 8:45:00 PM 5.5 41.9 0.03 6.25 1.88 12.18
1/2/2023 9:00:00 PM 5.5 41.9 0.03 6.24 1.86 12.18
1/2/2023 9:15:00 PM 5.49 41.882 0.03 6.24 1.86 12.19
1/2/2023 9:30:00 PM 5.49 41.882 0.03 6.24 1.9 12.19
1/2/2023 9:45:00 PM 5.48 41.864 0.03 6.24 1.88 12.18
1/2/2023 10:00:00 PM 5.48 41.864 0.03 6.24 2.01 12.19
1/2/2023 10:15:00 PM 5.47 41.846 0.03 6.24 1.93 12.19
1/2/2023 10:30:00 PM 5.47 41.846 0.03 6.24 1.86 12.19
1/2/2023 10:45:00 PM 5.46 41.828 0.03 6.24 1.8 12.18
1/2/2023 11:00:00 PM 5.46 41.828 0.03 6.24 1.85 12.19
1/2/2023 11:15:00 PM 5.46 41.828 0.03 6.24 1.82 12.19
1/2/2023 11:30:00 PM 5.45 41.81 0.03 6.23 1.88 12.19
1/2/2023 11:45:00 PM 5.45 41.81 0.03 6.23 1.87 12.19
1/3/2023 12:00:00 AM 5.45 41.81 0.03 6.24 1.87 12.19
1/3/2023 12:15:00 AM 5.44 41.792 0.03 6.24 1.84 12.19
1/3/2023 12:30:00 AM 5.44 41.792 0.03 6.23 1.83 12.18
1/3/2023 12:45:00 AM 5.44 41.792 0.03 6.23 1.85 12.19
1/3/2023 1:00:00 AM 5.44 41.792 0.03 6.23 1.79 12.19
1/3/2023 1:15:00 AM 5.44 41.792 0.03 6.23 1.82 12.19
1/3/2023 1:30:00 AM 5.43 41.774 0.03 6.23 1.81 12.18
1/3/2023 1:45:00 AM 5.43 41.774 0.03 6.23 1.83 12.18
1/3/2023 2:00:00 AM 5.43 41.774 0.03 6.24 1.86 12.18
1/3/2023 2:15:00 AM 5.42 41.756 0.03 6.22 1.86 12.18
1/3/2023 2:30:00 AM 5.42 41.756 0.03 6.22 1.89 12.18
1/3/2023 2:45:00 AM 5.42 41.756 0.03 6.23 1.9 12.18
1/3/2023 3:00:00 AM 5.42 41.756 0.03 6.22 1.82 12.19
1/3/2023 3:15:00 AM 5.42 41.756 0.03 6.22 1.87 12.19
1/3/2023 3:30:00 AM 5.42 41.756 0.03 6.22 1.79 12.19
1/3/2023 3:45:00 AM 5.42 41.756 0.03 6.22 1.93 12.19
1/3/2023 4:00:00 AM 5.42 41.756 0.03 6.21 1.82 12.19
1/3/2023 4:15:00 AM 5.42 41.756 0.03 6.22 1.89 12.19
1/3/2023 4:30:00 AM 5.42 41.756 0.03 6.22 1.83 12.18
1/3/2023 4:45:00 AM 5.42 41.756 0.03 6.22 1.82 12.18
1/3/2023 5:00:00 AM 5.42 41.756 0.03 6.25 1.84 12.17
1/3/2023 5:15:00 AM 5.43 41.774 0.03 6.25 1.91 12.17
1/3/2023 5:30:00 AM 5.43 41.774 0.03 6.26 1.86 12.17
1/3/2023 5:45:00 AM 5.43 41.774 0.03 6.26 1.8 12.17
1/3/2023 6:00:00 AM 5.43 41.774 0.03 6.25 1.82 12.17
1/3/2023 6:15:00 AM 5.43 41.774 0.03 6.24 1.92 12.16
1/3/2023 6:30:00 AM 5.44 41.792 0.03 6.22 1.86 12.16
1/3/2023 6:45:00 AM 5.44 41.792 0.03 6.2 1.84 12.16
1/3/2023 7:00:00 AM 5.44 41.792 0.03 6.2 1.86 12.15
1/3/2023 7:15:00 AM 5.44 41.792 0.03 6.2 1.84 12.15
1/3/2023 7:30:00 AM 5.44 41.792 0.03 6.2 1.81 12.15
1/3/2023 7:45:00 AM 5.44 41.792 0.03 6.21 1.89 12.15
1/3/2023 8:00:00 AM 5.44 41.792 0.03 6.21 1.86 12.15
1/3/2023 8:15:00 AM 5.44 41.792 0.029 6.2 1.89 12.15
1/3/2023 8:30:00 AM 5.45 41.81 0.029 6.2 2.07 12.16
1/3/2023 8:45:00 AM 5.45 41.81 0.029 6.19 2.08 12.16
1/3/2023 9:00:00 AM 5.45 41.81 0.029 6.19 2.29 12.16
1/3/2023 9:15:00 AM 5.45 41.81 0.029 6.18 3.15 12.17
1/3/2023 9:30:00 AM 5.45 41.81 0.029 6.19 4.38 12.17
1/3/2023 9:45:00 AM 5.45 41.81 0.029 6.2 5.2 12.17
1/3/2023 10:00:00 AM 5.44 41.792 0.029 6.21 5.77 12.17
1/3/2023 10:15:00 AM 5.44 41.792 0.029 6.23 6.38 12.19
1/3/2023 10:30:00 AM 5.44 41.792 0.029 6.24 8 12.19
1/3/2023 10:45:00 AM 5.44 41.792 0.029 6.25 10.68 12.18
1/3/2023 11:00:00 AM 5.45 41.81 0.03 6.25 11.48 12.18
1/3/2023 11:15:00 AM 5.47 41.846 0.029 6.26 11.51 12.18
1/3/2023 11:30:00 AM 5.47 41.846 0.029 6.26 11.52 12.17
1/3/2023 11:45:00 AM 5.5 41.9 0.029 6.28 10.94 12.15
1/3/2023 12:00:00 PM 5.52 41.936 0.029 6.27 10.28 12.14
1/3/2023 12:15:00 PM 5.55 41.99 0.029 6.28 10.14 12.14
1/3/2023 12:30:00 PM 5.58 42.044 0.029 6.27 9.82 12.12
1/3/2023 12:45:00 PM 5.61 42.098 0.029 6.27 9.16 12.11
1/3/2023 1:00:00 PM 5.64 42.152 0.029 6.25 8.87 12.1
1/3/2023 1:15:00 PM 5.67 42.206 0.029 6.25 8.44 12.09
1/3/2023 1:30:00 PM 5.7 42.26 0.029 6.25 7.63 12.08
1/3/2023 1:45:00 PM 5.72 42.296 0.029 6.24 7.19 12.07
1/3/2023 2:00:00 PM 5.74 42.332 0.029 6.25 7.87 12.06
1/3/2023 2:15:00 PM 5.75 42.35 0.029 6.26 6.45 12.05
1/3/2023 2:30:00 PM 5.76 42.368 0.029 6.27 5.7 12.04
1/3/2023 2:45:00 PM 5.77 42.386 0.028 6.25 5.62 12.04
1/3/2023 3:00:00 PM 5.78 42.404 0.028 6.25 5.41 12.04
1/3/2023 3:15:00 PM 5.79 42.422 0.028 6.23 5.24 12.03
1/3/2023 3:30:00 PM 5.8 42.44 0.028 6.22 5.02 12.02
1/3/2023 3:45:00 PM 5.81 42.458 0.028 6.22 5.28 12.02
1/3/2023 4:00:00 PM 5.82 42.476 0.028 6.22 4.53 12.01
1/3/2023 4:15:00 PM 5.82 42.476 0.028 6.2 4.57 12.01
1/3/2023 4:30:00 PM 5.83 42.494 0.028 6.19 4.34 12
1/3/2023 4:45:00 PM 5.83 42.494 0.028 6.2 4.28 12
1/3/2023 5:00:00 PM 5.84 42.512 0.028 6.16 4.14 11.99
1/3/2023 5:15:00 PM 5.84 42.512 0.028 6.16 3.79 11.98
1/3/2023 5:30:00 PM 5.84 42.512 0.028 6.16 3.81 11.99
1/3/2023 5:45:00 PM 5.84 42.512 0.028 6.17 3.81 11.98
1/3/2023 6:00:00 PM 5.84 42.512 0.028 6.17 3.73 11.98
1/3/2023 6:15:00 PM 5.84 42.512 0.028 6.17 3.61 11.99
1/3/2023 6:30:00 PM 5.84 42.512 0.028 6.16 3.44 11.98
1/3/2023 6:45:00 PM 5.84 42.512 0.028 6.17 3.46 11.99
1/3/2023 7:00:00 PM 5.84 42.512 0.028 6.17 3.24 11.98
1/3/2023 7:15:00 PM 5.84 42.512 0.028 6.16 3.26 11.98
1/3/2023 7:30:00 PM 5.84 42.512 0.028 6.15 3.31 11.98
1/3/2023 7:45:00 PM 5.84 42.512 0.028 6.19 3.37 11.98
1/3/2023 8:00:00 PM 5.84 42.512 0.028 6.18 3.15 11.99
1/3/2023 8:15:00 PM 5.84 42.512 0.028 6.18 3.15 11.98
1/3/2023 8:30:00 PM 5.85 42.53 0.028 6.18 3.02 11.99
1/3/2023 8:45:00 PM 5.85 42.53 0.028 6.17 3.01 11.98
1/3/2023 9:00:00 PM 5.85 42.53 0.028 6.18 3.02 11.98
1/3/2023 9:15:00 PM 5.85 42.53 0.028 6.18 2.9 11.98
1/3/2023 9:30:00 PM 5.85 42.53 0.028 6.17 2.87 11.98
1/3/2023 9:45:00 PM 5.85 42.53 0.028 6.18 2.8 11.97
1/3/2023 10:00:00 PM 5.86 42.548 0.028 6.18 3.02 11.97
1/3/2023 10:15:00 PM 5.86 42.548 0.028 6.17 2.71 11.98
1/3/2023 10:30:00 PM 5.86 42.548 0.028 6.17 2.74 11.97
1/3/2023 10:45:00 PM 5.87 42.566 0.028 6.17 3.07 11.97
1/3/2023 11:00:00 PM 5.87 42.566 0.028 6.17 2.79 11.97
1/3/2023 11:15:00 PM 5.87 42.566 0.028 6.19 2.83 11.96
1/3/2023 11:30:00 PM 5.88 42.584 0.028 6.18 2.7 11.97
1/3/2023 11:45:00 PM 5.89 42.602 0.028 6.18 2.76 11.97
1/4/2023 12:00:00 AM 5.89 42.602 0.028 6.17 2.75 11.97
1/4/2023 12:15:00 AM 5.9 42.62 0.028 6.17 2.63 11.96
1/4/2023 12:30:00 AM 5.9 42.62 0.028 6.15 2.59 11.96
1/4/2023 12:45:00 AM 5.91 42.638 0.028 6.15 2.64 11.96
1/4/2023 1:00:00 AM 5.92 42.656 0.028 6.15 2.61 11.96
1/4/2023 1:15:00 AM 5.93 42.674 0.028 6.15 2.54 11.95
1/4/2023 1:30:00 AM 5.94 42.692 0.027 6.14 2.67 11.96
1/4/2023 1:45:00 AM 5.94 42.692 0.027 6.14 2.56 11.96
1/4/2023 2:00:00 AM 5.95 42.71 0.027 6.14 2.47 11.96
1/4/2023 2:15:00 AM 5.95 42.71 0.028 6.14 2.5 11.96
1/4/2023 2:30:00 AM 5.96 42.728 0.028 6.14 2.57 11.96
1/4/2023 2:45:00 AM 5.97 42.746 0.027 6.15 2.52 11.95
1/4/2023 3:00:00 AM 5.98 42.764 0.027 6.15 2.37 11.96
1/4/2023 3:15:00 AM 5.99 42.782 0.027 6.15 2.51 11.96
1/4/2023 3:30:00 AM 5.99 42.782 0.027 6.14 2.62 11.95
1/4/2023 3:45:00 AM 6 42.8 0.027 6.14 2.46 11.95
1/4/2023 4:00:00 AM 6.01 42.818 0.027 6.14 2.4 11.95
1/4/2023 4:15:00 AM 6.02 42.836 0.027 6.15 2.49 11.94
1/4/2023 4:30:00 AM 6.02 42.836 0.027 6.14 2.44 11.94
1/4/2023 4:45:00 AM 6.03 42.854 0.027 6.14 2.51 11.94
1/4/2023 5:00:00 AM 6.04 42.872 0.027 6.14 2.38 11.94
1/4/2023 5:15:00 AM 6.05 42.89 0.027 6.15 2.42 11.94
1/4/2023 5:30:00 AM 6.06 42.908 0.027 6.14 2.49 11.93
1/4/2023 5:45:00 AM 6.07 42.926 0.027 6.14 2.42 11.93
1/4/2023 6:00:00 AM 6.08 42.944 0.027 6.14 2.39 11.93
1/4/2023 6:15:00 AM 6.09 42.962 0.027 6.13 2.45 11.93
1/4/2023 6:30:00 AM 6.1 42.98 0.027 6.14 2.3 11.93
1/4/2023 6:45:00 AM 6.1 42.98 0.027 6.12 2.41 11.93
1/4/2023 7:00:00 AM 6.11 42.998 0.027 6.14 2.33 11.92
1/4/2023 7:15:00 AM 6.12 43.016 0.027 6.13 2.3 11.93
1/4/2023 7:30:00 AM 6.13 43.034 0.027 6.13 2.32 11.93
1/4/2023 7:45:00 AM 6.13 43.034 0.027 6.13 2.33 11.93
1/4/2023 8:00:00 AM 6.14 43.052 0.027 6.12 2.27 11.93
1/4/2023 8:15:00 AM 6.15 43.07 0.027 6.13 2.27 11.94
1/4/2023 8:30:00 AM 6.16 43.088 0.027 6.14 2.22 11.94
1/4/2023 8:45:00 AM 6.17 43.106 0.027 6.14 2.12 11.96
1/4/2023 9:00:00 AM 6.19 43.142 0.027 6.14 2.15 11.97
1/4/2023 9:15:00 AM 6.21 43.178 0.027 6.14 2.22 11.97
1/4/2023 9:30:00 AM 6.23 43.214 0.027 6.13 2.18 11.97
1/4/2023 9:45:00 AM 6.26 43.268 0.027 6.14 2.14 11.97
1/4/2023 10:00:00 AM 6.29 43.322 0.027 6.14 2.2 11.97
1/4/2023 10:15:00 AM 6.33 43.394 0.027 6.14 2.35 11.97
1/4/2023 10:30:00 AM 6.38 43.484 0.027 6.14 2.17 11.97
1/4/2023 10:45:00 AM 6.42 43.556 0.027 6.15 2.29 11.96
1/4/2023 11:00:00 AM 6.48 43.664 0.027 6.15 2.28 11.94
1/4/2023 11:15:00 AM 6.53 43.754 0.027 6.15 2.29 11.93
1/4/2023 11:30:00 AM 6.57 43.826 0.027 6.15 2.23 11.91
1/4/2023 11:45:00 AM 6.61 43.898 0.027 6.15 2.06 11.89
1/4/2023 12:00:00 PM 6.66 43.988 0.027 6.16 2.15 11.87
1/4/2023 12:15:00 PM 6.7 44.06 0.027 6.15 2.29 11.86
1/4/2023 12:30:00 PM 6.73 44.114 0.027 6.14 2.16 11.84
1/4/2023 12:45:00 PM 6.76 44.168 0.027 6.16 2.23 11.82
1/4/2023 1:00:00 PM 6.79 44.222 0.027 6.14 2.16 11.81
1/4/2023 1:15:00 PM 6.81 44.258 0.027 6.15 2.17 11.79
1/4/2023 1:30:00 PM 6.84 44.312 0.027 6.16 2.17 11.79
1/4/2023 1:45:00 PM 6.85 44.33 0.027 6.16 2.24 11.76
1/4/2023 2:00:00 PM 6.87 44.366 0.027 6.16 2.36 11.75
1/4/2023 2:15:00 PM 6.9 44.42 0.027 6.16 2.24 11.73
1/4/2023 2:30:00 PM 6.91 44.438 0.027 6.15 2.2 11.72
1/4/2023 2:45:00 PM 6.94 44.492 0.027 6.15 2.2 11.72
1/4/2023 3:00:00 PM 6.95 44.51 0.027 6.14 2.19 11.7
1/4/2023 3:15:00 PM 6.96 44.528 0.027 6.14 2.17 11.69
1/4/2023 3:30:00 PM 6.97 44.546 0.027 6.14 2.29 11.68
1/4/2023 3:45:00 PM 6.98 44.564 0.027 6.13 2.21 11.67
1/4/2023 4:00:00 PM 6.98 44.564 0.027 6.13 2.17 11.66
1/4/2023 4:15:00 PM 6.99 44.582 0.027 6.12 2.26 11.65
1/4/2023 4:30:00 PM 7 44.6 0.027 6.13 2.27 11.64
1/4/2023 4:45:00 PM 7 44.6 0.027 6.12 2.24 11.63
1/4/2023 5:00:00 PM 7 44.6 0.027 6.11 2.14 11.63
1/4/2023 5:15:00 PM 7.01 44.618 0.027 6.13 2.19 11.62
1/4/2023 5:30:00 PM 7.01 44.618 0.027 6.11 2.26 11.62
1/4/2023 5:45:00 PM 7.02 44.636 0.027 6.12 2.18 11.61
1/4/2023 6:00:00 PM 7.02 44.636 0.027 6.11 2.2 11.61
1/4/2023 6:15:00 PM 7.02 44.636 0.027 6.11 2.21 11.62
1/4/2023 6:30:00 PM 7.04 44.672 0.027 6.11 2.34 11.61
1/4/2023 6:45:00 PM 7.06 44.708 0.027 6.12 2.28 11.61
1/4/2023 7:00:00 PM 7.09 44.762 0.027 6.13 2.26 11.6
1/4/2023 7:15:00 PM 7.12 44.816 0.027 6.15 2.25 11.59
1/4/2023 7:30:00 PM 7.13 44.834 0.027 6.13 2.23 11.59
1/4/2023 7:45:00 PM 7.14 44.852 0.027 6.14 2.21 11.58
1/4/2023 8:00:00 PM 7.16 44.888 0.027 6.14 2.2 11.58
1/4/2023 8:15:00 PM 7.17 44.906 0.027 6.14 2.16 11.57
1/4/2023 8:30:00 PM 7.18 44.924 0.027 6.14 2.26 11.57
1/4/2023 8:45:00 PM 7.19 44.942 0.027 6.14 2.18 11.57
1/4/2023 9:00:00 PM 7.2 44.96 0.027 6.12 2.27 11.56
1/4/2023 9:15:00 PM 7.2 44.96 0.027 6.12 2.22 11.56
1/4/2023 9:30:00 PM 7.22 44.996 0.027 6.12 2.31 11.56
1/4/2023 9:45:00 PM 7.22 44.996 0.027 6.11 2.14 11.55
1/4/2023 10:00:00 PM 7.23 45.014 0.027 6.12 2.14 11.56
1/4/2023 10:15:00 PM 7.23 45.014 0.027 6.11 2.12 11.56
1/4/2023 10:30:00 PM 7.24 45.032 0.027 6.12 2.17 11.55
1/4/2023 10:45:00 PM 7.25 45.05 0.027 6.13 2.18 11.56
1/4/2023 11:00:00 PM 7.25 45.05 0.027 6.12 2.17 11.56
1/4/2023 11:15:00 PM 7.26 45.068 0.027 6.13 2.11 11.55
1/4/2023 11:30:00 PM 7.25 45.05 0.027 6.13 2.2 11.56
1/4/2023 11:45:00 PM 7.24 45.032 0.027 6.12 2.22 11.56
1/5/2023 12:00:00 AM 7.23 45.014 0.027 6.11 2.26 11.57
1/5/2023 12:15:00 AM 7.22 44.996 0.027 6.11 2.13 11.57
1/5/2023 12:30:00 AM 7.21 44.978 0.027 6.1 2.38 11.57
1/5/2023 12:45:00 AM 7.2 44.96 0.027 6.12 2.16 11.58
1/5/2023 1:00:00 AM 7.19 44.942 0.027 6.13 2.06 11.59
1/5/2023 1:15:00 AM 7.16 44.888 0.027 6.12 2.11 11.59
1/5/2023 1:30:00 AM 7.14 44.852 0.027 6.11 2.06 11.6
1/5/2023 1:45:00 AM 7.12 44.816 0.027 6.11 2.13 11.61
1/5/2023 2:00:00 AM 7.09 44.762 0.027 6.11 2.05 11.62
1/5/2023 2:15:00 AM 7.06 44.708 0.027 6.1 2.15 11.63
1/5/2023 2:30:00 AM 7.03 44.654 0.027 6.1 2.19 11.64
1/5/2023 2:45:00 AM 7 44.6 0.027 6.09 2.24 11.65
1/5/2023 3:00:00 AM 6.97 44.546 0.027 6.11 2.07 11.66
1/5/2023 3:15:00 AM 6.94 44.492 0.027 6.1 2.1 11.68
1/5/2023 3:30:00 AM 6.9 44.42 0.027 6.1 2.04 11.69
1/5/2023 3:45:00 AM 6.86 44.348 0.027 6.12 2.14 11.7
1/5/2023 4:00:00 AM 6.83 44.294 0.027 6.11 2.12 11.71
1/5/2023 4:15:00 AM 6.8 44.24 0.027 6.13 2.11 11.73
1/5/2023 4:30:00 AM 6.77 44.186 0.027 6.11 2.1 11.73
1/5/2023 4:45:00 AM 6.74 44.132 0.027 6.11 2.21 11.75
1/5/2023 5:00:00 AM 6.71 44.078 0.027 6.12 2.08 11.75
1/5/2023 5:15:00 AM 6.67 44.006 0.027 6.12 2.04 11.77
1/5/2023 5:30:00 AM 6.64 43.952 0.027 6.13 2.1 11.78
1/5/2023 5:45:00 AM 6.61 43.898 0.027 6.14 2.05 11.79
1/5/2023 6:00:00 AM 6.58 43.844 0.027 6.12 2.11 11.79
1/5/2023 6:15:00 AM 6.54 43.772 0.027 6.13 2.09 11.81
1/5/2023 6:30:00 AM 6.51 43.718 0.027 6.13 2.05 11.81
1/5/2023 6:45:00 AM 6.48 43.664 0.027 6.14 2.03 11.83
1/5/2023 7:00:00 AM 6.45 43.61 0.027 6.13 1.98 11.84
1/5/2023 7:15:00 AM 6.42 43.556 0.027 6.14 2.04 11.85
1/5/2023 7:30:00 AM 6.38 43.484 0.027 6.14 1.97 11.86
1/5/2023 7:45:00 AM 6.35 43.43 0.027 6.14 2.03 11.87
1/5/2023 8:00:00 AM 6.31 43.358 0.027 6.15 2.04 11.9
1/5/2023 8:15:00 AM 6.28 43.304 0.027 6.14 1.95 11.92
1/5/2023 8:30:00 AM 6.26 43.268 0.028 6.14 1.95 11.94
1/5/2023 8:45:00 AM 6.24 43.232 0.028 6.15 1.87 11.96
1/5/2023 9:00:00 AM 6.23 43.214 0.028 6.15 2.01 11.99
1/5/2023 9:15:00 AM 6.23 43.214 0.027 6.16 1.88 12.01
1/5/2023 9:30:00 AM 6.23 43.214 0.027 6.17 1.9 12.02
1/5/2023 9:45:00 AM 6.24 43.232 0.027 6.17 1.96 12.01
1/5/2023 10:00:00 AM 6.26 43.268 0.027 6.17 1.88 12.01
1/5/2023 10:15:00 AM 6.3 43.34 0.027 6.17 1.88 12.01
1/5/2023 10:30:00 AM 6.33 43.394 0.027 6.18 1.94 12.01
1/5/2023 10:45:00 AM 6.36 43.448 0.027 6.19 1.88 11.99
1/5/2023 11:00:00 AM 6.39 43.502 0.027 6.18 1.9 11.99
1/5/2023 11:15:00 AM 6.44 43.592 0.027 6.2 1.9 11.98
1/5/2023 11:30:00 AM 6.5 43.7 0.027 6.2 1.88 11.96
1/5/2023 11:45:00 AM 6.59 43.862 0.027 6.19 1.83 11.94
1/5/2023 12:00:00 PM 6.66 43.988 0.027 6.2 1.93 11.92
1/5/2023 12:15:00 PM 6.76 44.168 0.027 6.19 1.91 11.9
1/5/2023 12:30:00 PM 6.83 44.294 0.027 6.2 1.88 11.88
1/5/2023 12:45:00 PM 6.9 44.42 0.027 6.2 2.1 11.85
1/5/2023 1:00:00 PM 6.94 44.492 0.027 6.2 1.9 11.83
1/5/2023 1:15:00 PM 6.99 44.582 0.027 6.2 1.94 11.82
1/5/2023 1:30:00 PM 7.02 44.636 0.027 6.2 1.89 11.81
1/5/2023 1:45:00 PM 7.04 44.672 0.027 6.21 1.95 11.8
1/5/2023 2:00:00 PM 7.05 44.69 0.027 6.21 1.88 11.79
1/5/2023 2:15:00 PM 7.04 44.672 0.027 6.2 1.96 11.78
1/5/2023 2:30:00 PM 7.03 44.654 0.027 6.2 1.95 11.78
1/5/2023 2:45:00 PM 6.97 44.546 0.027 6.2 1.98 11.79
1/5/2023 3:00:00 PM 6.93 44.474 0.027 6.21 1.89 11.79
1/5/2023 3:15:00 PM 6.89 44.402 0.027 6.19 1.92 11.78
1/5/2023 3:30:00 PM 6.87 44.366 0.028 6.19 1.92 11.78
1/5/2023 3:45:00 PM 6.86 44.348 0.028 6.18 1.89 11.78
1/5/2023 4:00:00 PM 6.84 44.312 0.028 6.18 1.87 11.79
1/5/2023 4:15:00 PM 6.82 44.276 0.028 6.17 1.87 11.78
1/5/2023 4:30:00 PM 6.79 44.222 0.028 6.18 1.88 11.77
1/5/2023 4:45:00 PM 6.77 44.186 0.028 6.16 1.93 11.77
1/5/2023 5:00:00 PM 6.75 44.15 0.028 6.16 1.92 11.76
1/5/2023 5:15:00 PM 6.73 44.114 0.028 6.15 2 11.76
1/5/2023 5:30:00 PM 6.7 44.06 0.028 6.17 1.9 11.76
1/5/2023 5:45:00 PM 6.68 44.024 0.028 6.16 1.95 11.77
1/5/2023 6:00:00 PM 6.65 43.97 0.028 6.16 1.95 11.77
1/5/2023 6:15:00 PM 6.63 43.934 0.028 6.14 2.02 11.78
1/5/2023 6:30:00 PM 6.6 43.88 0.028 6.15 1.88 11.79
1/5/2023 6:45:00 PM 6.57 43.826 0.028 6.16 1.89 11.79
1/5/2023 7:00:00 PM 6.54 43.772 0.028 6.16 1.95 11.81
1/5/2023 7:15:00 PM 6.51 43.718 0.028 6.16 1.9 11.81
1/5/2023 7:30:00 PM 6.47 43.646 0.028 6.14 1.9 11.83
1/5/2023 7:45:00 PM 6.44 43.592 0.028 6.16 1.88 11.83
1/5/2023 8:00:00 PM 6.41 43.538 0.028 6.16 1.98 11.85
1/5/2023 8:15:00 PM 6.37 43.466 0.028 6.17 1.89 11.86
1/5/2023 8:30:00 PM 6.33 43.394 0.028 6.15 1.88 11.88
1/5/2023 8:45:00 PM 6.29 43.322 0.028 6.15 1.87 11.89
1/5/2023 9:00:00 PM 6.25 43.25 0.028 6.15 1.92 11.9
1/5/2023 9:15:00 PM 6.22 43.196 0.028 6.16 1.87 11.91
1/5/2023 9:30:00 PM 6.19 43.142 0.028 6.15 1.84 11.92
1/5/2023 9:45:00 PM 6.16 43.088 0.028 6.16 1.85 11.93
1/5/2023 10:00:00 PM 6.13 43.034 0.028 6.15 1.88 11.94
1/5/2023 10:15:00 PM 6.09 42.962 0.028 6.16 1.96 11.95
1/5/2023 10:30:00 PM 6.06 42.908 0.028 6.16 1.91 11.96
1/5/2023 10:45:00 PM 6.03 42.854 0.028 6.16 1.87 11.97
1/5/2023 11:00:00 PM 6.01 42.818 0.028 6.16 1.91 11.97
1/5/2023 11:15:00 PM 5.98 42.764 0.028 6.16 1.89 11.98
1/5/2023 11:30:00 PM 5.96 42.728 0.028 6.16 1.88 11.99
1/5/2023 11:45:00 PM 5.93 42.674 0.028 6.16 1.89 12
1/6/2023 12:00:00 AM 5.9 42.62 0.028 6.15 1.86 12.01
1/6/2023 12:15:00 AM 5.87 42.566 0.028 6.16 1.87 12.01
1/6/2023 12:30:00 AM 5.85 42.53 0.028 6.16 1.87 12.02
1/6/2023 12:45:00 AM 5.82 42.476 0.028 6.16 1.88 12.03
1/6/2023 1:00:00 AM 5.79 42.422 0.028 6.15 1.85 12.03
1/6/2023 1:15:00 AM 5.76 42.368 0.028 6.16 1.88 12.04
1/6/2023 1:30:00 AM 5.74 42.332 0.028 6.16 1.9 12.05
1/6/2023 1:45:00 AM 5.72 42.296 0.028 6.16 1.87 12.05
1/6/2023 2:00:00 AM 5.71 42.278 0.028 6.16 1.86 12.06
1/6/2023 2:15:00 AM 5.7 42.26 0.028 6.16 1.83 12.06
1/6/2023 2:30:00 AM 5.68 42.224 0.028 6.15 1.83 12.07
1/6/2023 2:45:00 AM 5.67 42.206 0.028 6.15 1.8 12.07
1/6/2023 3:00:00 AM 5.66 42.188 0.028 6.15 1.83 12.08
1/6/2023 3:15:00 AM 5.65 42.17 0.028 6.15 1.83 12.08
1/6/2023 3:30:00 AM 5.64 42.152 0.028 6.15 1.93 12.09
1/6/2023 3:45:00 AM 5.63 42.134 0.028 6.15 1.81 12.09
1/6/2023 4:00:00 AM 5.62 42.116 0.028 6.15 1.84 12.09
1/6/2023 4:15:00 AM 5.62 42.116 0.028 6.16 1.9 12.09
1/6/2023 4:30:00 AM 5.61 42.098 0.028 6.15 1.78 12.09
1/6/2023 4:45:00 AM 5.6 42.08 0.028 6.16 1.8 12.09
1/6/2023 5:00:00 AM 5.6 42.08 0.028 6.16 1.85 12.09
1/6/2023 5:15:00 AM 5.6 42.08 0.028 6.16 1.88 12.1
1/6/2023 5:30:00 AM 5.59 42.062 0.028 6.15 1.88 12.09
1/6/2023 5:45:00 AM 5.59 42.062 0.028 6.16 1.78 12.1
1/6/2023 6:00:00 AM 5.59 42.062 0.028 6.15 1.8 12.1
1/6/2023 6:15:00 AM 5.59 42.062 0.028 6.16 1.79 12.1
1/6/2023 6:30:00 AM 5.6 42.08 0.028 6.16 1.8 12.1
1/6/2023 6:45:00 AM 5.6 42.08 0.028 6.16 1.8 12.1
1/6/2023 7:00:00 AM 5.6 42.08 0.028 6.15 1.81 12.11
1/6/2023 7:15:00 AM 5.6 42.08 0.028 6.16 1.79 12.1
1/6/2023 7:30:00 AM 5.6 42.08 0.028 6.15 1.83 12.11
1/6/2023 7:45:00 AM 5.6 42.08 0.028 6.15 1.75 12.11
1/6/2023 8:00:00 AM 5.6 42.08 0.028 6.15 1.77 12.12
1/6/2023 8:15:00 AM 5.59 42.062 0.028 6.17 1.76 12.12
1/6/2023 8:30:00 AM 5.58 42.044 0.028 6.16 1.77 12.13
1/6/2023 8:45:00 AM 5.58 42.044 0.028 6.16 1.81 12.15
1/6/2023 9:00:00 AM 5.59 42.062 0.028 6.19 1.85 12.16
1/6/2023 9:15:00 AM 5.6 42.08 0.028 6.19 1.79 12.19
1/6/2023 9:30:00 AM 5.62 42.116 0.028 6.18 1.87 12.2
1/6/2023 9:45:00 AM 5.65 42.17 0.028 6.2 1.85 12.21
1/6/2023 10:00:00 AM 5.68 42.224 0.028 6.21 1.83 12.21
1/6/2023 10:15:00 AM 5.71 42.278 0.028 6.21 1.82 12.2
1/6/2023 10:30:00 AM 5.73 42.314 0.028 6.21 1.87 12.2
1/6/2023 10:45:00 AM 5.76 42.368 0.028 6.21 1.88 12.19
1/6/2023 11:00:00 AM 5.77 42.386 0.028 6.21 1.77 12.17
1/6/2023 11:15:00 AM 5.79 42.422 0.028 6.22 1.82 12.17
1/6/2023 11:30:00 AM 5.82 42.476 0.028 6.22 1.71 12.17
1/6/2023 11:45:00 AM 5.84 42.512 0.028 6.22 1.77 12.17
1/6/2023 12:00:00 PM 5.86 42.548 0.028 6.21 1.76 12.16
1/6/2023 12:15:00 PM 5.88 42.584 0.028 6.23 1.77 12.16
1/6/2023 12:30:00 PM 5.91 42.638 0.028 6.22 1.83 12.16
1/6/2023 12:45:00 PM 5.93 42.674 0.028 6.23 1.77 12.16
1/6/2023 1:00:00 PM 5.94 42.692 0.028 6.23 1.79 12.15
1/6/2023 1:15:00 PM 5.96 42.728 0.028 6.25 1.76 12.14
1/6/2023 1:30:00 PM 5.97 42.746 0.028 6.23 1.74 12.15
1/6/2023 1:45:00 PM 5.99 42.782 0.028 6.23 1.74 12.14
1/6/2023 2:00:00 PM 6 42.8 0.028 6.24 1.77 12.13
1/6/2023 2:15:00 PM 6.02 42.836 0.028 6.24 1.73 12.13
1/6/2023 2:30:00 PM 6.03 42.854 0.028 6.23 1.76 12.12
1/6/2023 2:45:00 PM 6.04 42.872 0.028 6.24 1.8 12.11
1/6/2023 3:00:00 PM 6.04 42.872 0.028 6.23 1.77 12.1
1/6/2023 3:15:00 PM 6.03 42.854 0.028 6.24 1.8 12.09
1/6/2023 3:30:00 PM 6.02 42.836 0.028 6.23 1.72 12.08
1/6/2023 3:45:00 PM 6.01 42.818 0.028 6.24 1.76 12.09
1/6/2023 4:00:00 PM 6.01 42.818 0.028 6.23 1.74 12.08
1/6/2023 4:15:00 PM 6 42.8 0.028 6.22 1.74 12.07
1/6/2023 4:30:00 PM 5.99 42.782 0.028 6.22 1.73 12.06
1/6/2023 4:45:00 PM 5.97 42.746 0.028 6.21 1.78 12.05
1/6/2023 5:00:00 PM 5.95 42.71 0.028 6.2 1.8 12.05
1/6/2023 5:15:00 PM 5.93 42.674 0.028 6.21 1.78 12.04
1/6/2023 5:30:00 PM 5.92 42.656 0.028 6.2 1.76 12.05
1/6/2023 5:45:00 PM 5.9 42.62 0.028 6.19 1.77 12.05
1/6/2023 6:00:00 PM 5.88 42.584 0.028 6.19 1.77 12.05
1/6/2023 6:15:00 PM 5.87 42.566 0.028 6.2 1.76 12.06
1/6/2023 6:30:00 PM 5.86 42.548 0.028 6.19 1.77 12.07
1/6/2023 6:45:00 PM 5.84 42.512 0.028 6.2 1.8 12.07
1/6/2023 7:00:00 PM 5.82 42.476 0.028 6.19 1.8 12.08
1/6/2023 7:15:00 PM 5.81 42.458 0.028 6.18 1.78 12.09
1/6/2023 7:30:00 PM 5.8 42.44 0.028 6.17 1.74 12.09
1/6/2023 7:45:00 PM 5.78 42.404 0.028 6.19 1.76 12.1
1/6/2023 8:00:00 PM 5.77 42.386 0.028 6.19 1.82 12.1
1/6/2023 8:15:00 PM 5.75 42.35 0.028 6.19 1.66 12.11
1/6/2023 8:30:00 PM 5.74 42.332 0.028 6.2 1.76 12.12
1/6/2023 8:45:00 PM 5.73 42.314 0.028 6.18 1.7 12.12
1/6/2023 9:00:00 PM 5.71 42.278 0.028 6.19 1.73 12.13
1/6/2023 9:15:00 PM 5.7 42.26 0.028 6.18 1.85 12.13
1/6/2023 9:30:00 PM 5.68 42.224 0.028 6.19 1.76 12.14
1/6/2023 9:45:00 PM 5.66 42.188 0.028 6.19 1.72 12.14
1/6/2023 10:00:00 PM 5.65 42.17 0.028 6.18 1.75 12.15
1/6/2023 10:15:00 PM 5.63 42.134 0.028 6.19 1.78 12.16
1/6/2023 10:30:00 PM 5.62 42.116 0.028 6.18 1.72 12.16
1/6/2023 10:45:00 PM 5.61 42.098 0.028 6.19 1.79 12.16
1/6/2023 11:00:00 PM 5.59 42.062 0.028 6.19 1.73 12.17
1/6/2023 11:15:00 PM 5.58 42.044 0.028 6.19 1.76 12.17
1/6/2023 11:30:00 PM 5.57 42.026 0.028 6.2 1.77 12.18
1/6/2023 11:45:00 PM 5.55 41.99 0.028 6.19 1.7 12.18
1/7/2023 12:00:00 AM 5.54 41.972 0.028 6.19 1.72 12.18
1/7/2023 12:15:00 AM 5.53 41.954 0.028 6.18 1.76 12.19
1/7/2023 12:30:00 AM 5.51 41.918 0.028 6.18 1.73 12.19
1/7/2023 12:45:00 AM 5.5 41.9 0.028 6.18 1.76 12.19
1/7/2023 1:00:00 AM 5.49 41.882 0.028 6.19 1.74 12.2
1/7/2023 1:15:00 AM 5.48 41.864 0.028 6.18 1.69 12.2
1/7/2023 1:30:00 AM 5.46 41.828 0.028 6.18 1.74 12.2
1/7/2023 1:45:00 AM 5.46 41.828 0.028 6.19 1.69 12.2
1/7/2023 2:00:00 AM 5.45 41.81 0.028 6.19 1.77 12.21
1/7/2023 2:15:00 AM 5.44 41.792 0.028 6.19 1.75 12.21
1/7/2023 2:30:00 AM 5.43 41.774 0.028 6.18 1.7 12.21
1/7/2023 2:45:00 AM 5.42 41.756 0.028 6.19 1.82 12.22
1/7/2023 3:00:00 AM 5.41 41.738 0.028 6.18 1.76 12.22
1/7/2023 3:15:00 AM 5.4 41.72 0.028 6.18 1.8 12.22
1/7/2023 3:30:00 AM 5.39 41.702 0.028 6.19 1.73 12.22
1/7/2023 3:45:00 AM 5.39 41.702 0.028 6.18 1.72 12.23
1/7/2023 4:00:00 AM 5.38 41.684 0.028 6.19 1.78 12.23
1/7/2023 4:15:00 AM 5.37 41.666 0.028 6.19 1.72 12.23
1/7/2023 4:30:00 AM 5.37 41.666 0.028 6.18 1.77 12.23
1/7/2023 4:45:00 AM 5.36 41.648 0.028 6.18 1.78 12.24
1/7/2023 5:00:00 AM 5.35 41.63 0.028 6.19 1.68 12.24
1/7/2023 5:15:00 AM 5.35 41.63 0.028 6.18 1.69 12.24
1/7/2023 5:30:00 AM 5.34 41.612 0.028 6.18 1.75 12.24
1/7/2023 5:45:00 AM 5.33 41.594 0.028 6.17 1.73 12.25
1/7/2023 6:00:00 AM 5.32 41.576 0.028 6.18 1.68 12.25
1/7/2023 6:15:00 AM 5.31 41.558 0.028 6.18 1.76 12.25
1/7/2023 6:30:00 AM 5.31 41.558 0.028 6.18 1.67 12.26
1/7/2023 6:45:00 AM 5.3 41.54 0.028 6.18 1.71 12.26
1/7/2023 7:00:00 AM 5.29 41.522 0.028 6.18 1.71 12.26
1/7/2023 7:15:00 AM 5.29 41.522 0.028 6.17 1.73 12.26
1/7/2023 7:30:00 AM 5.28 41.504 0.028 6.18 1.73 12.27
1/7/2023 7:45:00 AM 5.28 41.504 0.028 6.18 1.73 12.27
1/7/2023 8:00:00 AM 5.27 41.486 0.028 6.18 1.67 12.28
1/7/2023 8:15:00 AM 5.27 41.486 0.028 6.18 1.71 12.29
1/7/2023 8:30:00 AM 5.27 41.486 0.028 6.19 1.74 12.32
1/7/2023 8:45:00 AM 5.28 41.504 0.028 6.2 1.69 12.33
1/7/2023 9:00:00 AM 5.28 41.504 0.028 6.21 1.67 12.35
1/7/2023 9:15:00 AM 5.3 41.54 0.028 6.2 1.67 12.37
1/7/2023 9:30:00 AM 5.33 41.594 0.028 6.21 1.68 12.38
1/7/2023 9:45:00 AM 5.36 41.648 0.028 6.22 1.65 12.38
1/7/2023 10:00:00 AM 5.39 41.702 0.028 6.23 1.6 12.38
1/7/2023 10:15:00 AM 5.42 41.756 0.028 6.23 1.63 12.37
1/7/2023 10:30:00 AM 5.46 41.828 0.028 6.24 1.65 12.37
1/7/2023 10:45:00 AM 5.49 41.882 0.028 6.23 1.59 12.36
1/7/2023 11:00:00 AM 5.53 41.954 0.028 6.24 1.6 12.35
1/7/2023 11:15:00 AM 5.56 42.008 0.028 6.23 1.66 12.34
1/7/2023 11:30:00 AM 5.59 42.062 0.028 6.24 1.61 12.33
1/7/2023 11:45:00 AM 5.63 42.134 0.028 6.24 1.64 12.32
1/7/2023 12:00:00 PM 5.65 42.17 0.028 6.24 1.59 12.31
1/7/2023 12:15:00 PM 5.67 42.206 0.028 6.24 1.61 12.3
1/7/2023 12:30:00 PM 5.7 42.26 0.028 6.24 1.59 12.29
1/7/2023 12:45:00 PM 5.74 42.332 0.028 6.24 1.68 12.28
1/7/2023 1:00:00 PM 5.78 42.404 0.028 6.25 1.62 12.27
1/7/2023 1:15:00 PM 5.8 42.44 0.028 6.24 1.66 12.26
1/7/2023 1:30:00 PM 5.83 42.494 0.028 6.24 1.66 12.24
1/7/2023 1:45:00 PM 5.83 42.494 0.028 6.24 1.67 12.22
1/7/2023 2:00:00 PM 5.83 42.494 0.028 6.23 1.58 12.21
1/7/2023 2:15:00 PM 5.77 42.386 0.028 6.23 1.61 12.19
1/7/2023 2:30:00 PM 5.76 42.368 0.028 6.23 1.63 12.21
1/7/2023 2:45:00 PM 5.75 42.35 0.028 6.23 1.67 12.22
1/7/2023 3:00:00 PM 5.77 42.386 0.028 6.23 1.67 12.21
1/7/2023 3:15:00 PM 5.77 42.386 0.028 6.23 1.63 12.21
1/7/2023 3:30:00 PM 5.77 42.386 0.028 6.23 1.65 12.2
1/7/2023 3:45:00 PM 5.75 42.35 0.028 6.22 1.6 12.2
1/7/2023 4:00:00 PM 5.74 42.332 0.028 6.22 1.65 12.2
1/7/2023 4:15:00 PM 5.73 42.314 0.028 6.22 1.61 12.2
1/7/2023 4:30:00 PM 5.72 42.296 0.028 6.21 1.64 12.19
1/7/2023 4:45:00 PM 5.71 42.278 0.028 6.21 1.6 12.18
1/7/2023 5:00:00 PM 5.7 42.26 0.028 6.2 1.68 12.17
1/7/2023 5:15:00 PM 5.69 42.242 0.028 6.2 1.66 12.16
1/7/2023 5:30:00 PM 5.68 42.224 0.028 6.2 1.68 12.17
1/7/2023 5:45:00 PM 5.67 42.206 0.028 6.21 1.67 12.17
1/7/2023 6:00:00 PM 5.65 42.17 0.028 6.2 1.66 12.18
1/7/2023 6:15:00 PM 5.63 42.134 0.028 6.2 1.71 12.18
1/7/2023 6:30:00 PM 5.61 42.098 0.028 6.2 1.65 12.19
1/7/2023 6:45:00 PM 5.6 42.08 0.028 6.2 1.67 12.19
1/7/2023 7:00:00 PM 5.57 42.026 0.028 6.2 1.66 12.2
1/7/2023 7:15:00 PM 5.56 42.008 0.028 6.2 1.64 12.21
1/7/2023 7:30:00 PM 5.55 41.99 0.028 6.2 1.69 12.22
1/7/2023 7:45:00 PM 5.53 41.954 0.028 6.2 1.7 12.22
1/7/2023 8:00:00 PM 5.52 41.936 0.029 6.2 1.7 12.22
1/7/2023 8:15:00 PM 5.5 41.9 0.029 6.2 1.69 12.24
1/7/2023 8:30:00 PM 5.48 41.864 0.028 6.2 1.65 12.24
1/7/2023 8:45:00 PM 5.47 41.846 0.028 6.2 1.69 12.25
1/7/2023 9:00:00 PM 5.46 41.828 0.028 6.21 1.66 12.25
1/7/2023 9:15:00 PM 5.45 41.81 0.028 6.2 1.69 12.25
1/7/2023 9:30:00 PM 5.44 41.792 0.028 6.21 1.71 12.26
1/7/2023 9:45:00 PM 5.43 41.774 0.028 6.21 1.67 12.27
1/7/2023 10:00:00 PM 5.42 41.756 0.029 6.21 1.69 12.27
1/7/2023 10:15:00 PM 5.4 41.72 0.029 6.2 1.7 12.27
1/7/2023 10:30:00 PM 5.4 41.72 0.029 6.21 1.71 12.27
1/7/2023 10:45:00 PM 5.39 41.702 0.029 6.21 1.68 12.28
1/7/2023 11:00:00 PM 5.39 41.702 0.029 6.21 1.74 12.28
1/7/2023 11:15:00 PM 5.37 41.666 0.028 6.2 1.67 12.28
1/7/2023 11:30:00 PM 5.36 41.648 0.028 6.2 1.7 12.29
1/7/2023 11:45:00 PM 5.35 41.63 0.029 6.2 1.7 12.29
1/8/2023 12:00:00 AM 5.34 41.612 0.029 6.2 1.65 12.29
1/8/2023 12:15:00 AM 5.33 41.594 0.029 6.21 1.68 12.3
1/8/2023 12:30:00 AM 5.32 41.576 0.028 6.2 1.64 12.3
1/8/2023 12:45:00 AM 5.3 41.54 0.028 6.19 1.63 12.31
1/8/2023 1:00:00 AM 5.28 41.504 0.029 6.2 1.61 12.31
1/8/2023 1:15:00 AM 5.27 41.486 0.029 6.2 1.69 12.32
1/8/2023 1:30:00 AM 5.26 41.468 0.029 6.2 1.65 12.32
1/8/2023 1:45:00 AM 5.25 41.45 0.029 6.21 1.65 12.32
1/8/2023 2:00:00 AM 5.23 41.414 0.029 6.2 1.66 12.33
1/8/2023 2:15:00 AM 5.22 41.396 0.029 6.21 1.63 12.34
1/8/2023 2:30:00 AM 5.2 41.36 0.029 6.19 1.68 12.34
1/8/2023 2:45:00 AM 5.19 41.342 0.029 6.2 1.66 12.35
1/8/2023 3:00:00 AM 5.18 41.324 0.029 6.2 1.62 12.35
1/8/2023 3:15:00 AM 5.17 41.306 0.029 6.19 1.64 12.36
1/8/2023 3:30:00 AM 5.15 41.27 0.029 6.2 1.69 12.36
1/8/2023 3:45:00 AM 5.13 41.234 0.029 6.19 1.66 12.37
1/8/2023 4:00:00 AM 5.11 41.198 0.029 6.19 1.62 12.37
1/8/2023 4:15:00 AM 5.1 41.18 0.029 6.2 1.67 12.37
1/8/2023 4:30:00 AM 5.09 41.162 0.029 6.2 1.63 12.38
1/8/2023 4:45:00 AM 5.08 41.144 0.029 6.19 1.65 12.38
1/8/2023 5:00:00 AM 5.06 41.108 0.029 6.19 1.64 12.39
1/8/2023 5:15:00 AM 5.04 41.072 0.029 6.19 1.65 12.39
1/8/2023 5:30:00 AM 5.02 41.036 0.029 6.18 1.68 12.4
1/8/2023 5:45:00 AM 5 41 0.029 6.18 1.69 12.4
1/8/2023 6:00:00 AM 4.98 40.964 0.029 6.18 1.68 12.41
1/8/2023 6:15:00 AM 4.97 40.946 0.029 6.19 1.63 12.41
1/8/2023 6:30:00 AM 4.96 40.928 0.029 6.18 1.6 12.42
1/8/2023 6:45:00 AM 4.95 40.91 0.029 6.18 1.63 12.42
1/8/2023 7:00:00 AM 4.93 40.874 0.029 6.18 1.62 12.43
1/8/2023 7:15:00 AM 4.92 40.856 0.029 6.18 1.6 12.43
1/8/2023 7:30:00 AM 4.91 40.838 0.029 6.18 1.72 12.44
1/8/2023 7:45:00 AM 4.9 40.82 0.029 6.18 1.63 12.45
1/8/2023 8:00:00 AM 4.89 40.802 0.029 6.18 1.65 12.46
1/8/2023 8:15:00 AM 4.88 40.784 0.029 6.19 1.59 12.48
1/8/2023 8:30:00 AM 4.88 40.784 0.029 6.21 1.63 12.5
1/8/2023 8:45:00 AM 4.89 40.802 0.029 6.2 1.58 12.52
1/8/2023 9:00:00 AM 4.9 40.82 0.029 6.21 1.59 12.53
1/8/2023 9:15:00 AM 4.92 40.856 0.028 6.21 1.65 12.55
1/8/2023 9:30:00 AM 4.94 40.892 0.028 6.22 1.6 12.56
1/8/2023 9:45:00 AM 4.97 40.946 0.028 6.22 1.61 12.56
1/8/2023 10:00:00 AM 4.97 40.946 0.028 6.23 1.62 12.56
1/8/2023 10:15:00 AM 4.98 40.964 0.028 6.23 1.59 12.56
1/8/2023 10:30:00 AM 5 41 0.028 6.23 1.6 12.56
1/8/2023 10:45:00 AM 5.01 41.018 0.028 6.23 1.54 12.54
1/8/2023 11:00:00 AM 5.02 41.036 0.028 6.22 1.6 12.54
1/8/2023 11:15:00 AM 5.04 41.072 0.028 6.22 1.55 12.53
1/8/2023 11:30:00 AM 5.08 41.144 0.028 6.23 1.56 12.52
1/8/2023 11:45:00 AM 5.14 41.252 0.028 6.23 1.64 12.5
1/8/2023 12:00:00 PM 5.2 41.36 0.028 6.23 1.59 12.48
1/8/2023 12:15:00 PM 5.26 41.468 0.028 6.23 1.66 12.46
1/8/2023 12:30:00 PM 5.31 41.558 0.028 6.22 1.6 12.44
1/8/2023 12:45:00 PM 5.36 41.648 0.028 6.22 1.58 12.42
1/8/2023 1:00:00 PM 5.4 41.72 0.028 6.23 1.58 12.4
1/8/2023 1:15:00 PM 5.43 41.774 0.028 6.22 1.55 12.39
1/8/2023 1:30:00 PM 5.45 41.81 0.028 6.22 1.57 12.37
1/8/2023 1:45:00 PM 5.46 41.828 0.028 6.22 1.58 12.36
1/8/2023 2:00:00 PM 5.45 41.81 0.028 6.22 1.61 12.35
1/8/2023 2:15:00 PM 5.46 41.828 0.028 6.22 1.58 12.35
1/8/2023 2:30:00 PM 5.45 41.81 0.028 6.22 1.56 12.34
1/8/2023 2:45:00 PM 5.44 41.792 0.028 6.22 1.56 12.34
1/8/2023 3:00:00 PM 5.43 41.774 0.028 6.21 1.61 12.33
1/8/2023 3:15:00 PM 5.43 41.774 0.028 6.22 1.61 12.32
1/8/2023 3:30:00 PM 5.42 41.756 0.028 6.21 1.54 12.32
1/8/2023 3:45:00 PM 5.4 41.72 0.028 6.22 1.71 12.32
1/8/2023 4:00:00 PM 5.38 41.684 0.028 6.22 1.58 12.31
1/8/2023 4:15:00 PM 5.35 41.63 0.028 6.21 1.64 12.31
1/8/2023 4:30:00 PM 5.32 41.576 0.029 6.2 1.6 12.3
1/8/2023 4:45:00 PM 5.29 41.522 0.029 6.2 1.66 12.3
1/8/2023 5:00:00 PM 5.26 41.468 0.029 6.19 1.62 12.29
1/8/2023 5:15:00 PM 5.22 41.396 0.029 6.19 1.62 12.28
1/8/2023 5:30:00 PM 5.19 41.342 0.029 6.18 1.66 12.29
1/8/2023 5:45:00 PM 5.17 41.306 0.029 6.18 1.68 12.29
1/8/2023 6:00:00 PM 5.13 41.234 0.029 6.18 1.63 12.29
1/8/2023 6:15:00 PM 5.09 41.162 0.029 6.18 1.74 12.31
1/8/2023 6:30:00 PM 5.06 41.108 0.029 6.18 1.66 12.31
1/8/2023 6:45:00 PM 5.02 41.036 0.029 6.18 1.68 12.32
1/8/2023 7:00:00 PM 4.99 40.982 0.029 6.18 1.66 12.33
1/8/2023 7:15:00 PM 4.95 40.91 0.029 6.18 1.62 12.34
1/8/2023 7:30:00 PM 4.92 40.856 0.029 6.17 1.69 12.35
1/8/2023 7:45:00 PM 4.89 40.802 0.029 6.17 1.74 12.36
1/8/2023 8:00:00 PM 4.85 40.73 0.029 6.17 1.61 12.37
1/8/2023 8:15:00 PM 4.83 40.694 0.029 6.17 1.64 12.38
1/8/2023 8:30:00 PM 4.82 40.676 0.029 6.17 1.66 12.39
1/8/2023 8:45:00 PM 4.8 40.64 0.029 6.17 1.83 12.39
1/8/2023 9:00:00 PM 4.79 40.622 0.029 6.16 1.72 12.39
1/8/2023 9:15:00 PM 4.78 40.604 0.029 6.17 1.63 12.39
1/8/2023 9:30:00 PM 4.75 40.55 0.029 6.17 1.71 12.4
1/8/2023 9:45:00 PM 4.73 40.514 0.029 6.18 1.67 12.4
1/8/2023 10:00:00 PM 4.71 40.478 0.029 6.17 1.66 12.4
1/8/2023 10:15:00 PM 4.69 40.442 0.029 6.18 1.67 12.41
1/8/2023 10:30:00 PM 4.66 40.388 0.029 6.17 1.63 12.41
1/8/2023 10:45:00 PM 4.64 40.352 0.029 6.17 1.66 12.42
1/8/2023 11:00:00 PM 4.63 40.334 0.029 6.17 1.65 12.42
1/8/2023 11:15:00 PM 4.62 40.316 0.029 6.17 1.7 12.43
1/8/2023 11:30:00 PM 4.61 40.298 0.029 6.17 1.64 12.43
1/8/2023 11:45:00 PM 4.6 40.28 0.029 6.16 1.62 12.44
1/9/2023 12:00:00 AM 4.57 40.226 0.029 6.16 1.62 12.44
1/9/2023 12:15:00 AM 4.56 40.208 0.029 6.16 1.69 12.44
1/9/2023 12:30:00 AM 4.56 40.208 0.029 6.16 1.67 12.44
1/9/2023 12:45:00 AM 4.55 40.19 0.029 6.17 1.66 12.44
1/9/2023 1:00:00 AM 4.55 40.19 0.029 6.17 1.62 12.44
1/9/2023 1:15:00 AM 4.55 40.19 0.029 6.17 1.65 12.44
1/9/2023 1:30:00 AM 4.55 40.19 0.029 6.17 1.67 12.44
1/9/2023 1:45:00 AM 4.55 40.19 0.029 6.16 1.59 12.44
1/9/2023 2:00:00 AM 4.54 40.172 0.029 6.17 1.62 12.44
1/9/2023 2:15:00 AM 4.54 40.172 0.029 6.16 1.64 12.44
1/9/2023 2:30:00 AM 4.54 40.172 0.029 6.16 1.64 12.44
1/9/2023 2:45:00 AM 4.54 40.172 0.029 6.16 1.6 12.44
1/9/2023 3:00:00 AM 4.54 40.172 0.029 6.16 1.7 12.44
1/9/2023 3:15:00 AM 4.53 40.154 0.029 6.17 1.68 12.44
1/9/2023 3:30:00 AM 4.52 40.136 0.029 6.16 1.71 12.44
1/9/2023 3:45:00 AM 4.52 40.136 0.029 6.16 1.63 12.44
1/9/2023 4:00:00 AM 4.51 40.118 0.029 6.16 1.64 12.43
1/9/2023 4:15:00 AM 4.5 40.1 0.029 6.16 1.63 12.44
1/9/2023 4:30:00 AM 4.49 40.082 0.029 6.17 1.62 12.44
1/9/2023 4:45:00 AM 4.47 40.046 0.029 6.16 1.65 12.44
1/9/2023 5:00:00 AM 4.46 40.028 0.029 6.16 1.67 12.45
1/9/2023 5:15:00 AM 4.43 39.974 0.029 6.16 1.64 12.45
1/9/2023 5:30:00 AM 4.41 39.938 0.029 6.16 1.63 12.46
1/9/2023 5:45:00 AM 4.38 39.884 0.029 6.16 1.63 12.47
1/9/2023 6:00:00 AM 4.36 39.848 0.029 6.16 1.61 12.48
1/9/2023 6:15:00 AM 4.34 39.812 0.029 6.19 1.58 12.49
1/9/2023 6:30:00 AM 4.33 39.794 0.029 6.21 1.6 12.49
1/9/2023 6:45:00 AM 4.32 39.776 0.029 6.22 1.62 12.5
1/9/2023 7:00:00 AM 4.32 39.776 0.029 6.21 1.6 12.51
1/9/2023 7:15:00 AM 4.31 39.758 0.029 6.2 1.6 12.51
1/9/2023 7:30:00 AM 4.31 39.758 0.029 6.21 1.55 12.51
1/9/2023 7:45:00 AM 4.3 39.74 0.029 6.21 1.56 12.52
1/9/2023 8:00:00 AM 4.3 39.74 0.029 6.22 1.55 12.53
1/9/2023 8:15:00 AM 4.32 39.776 0.029 6.22 1.6 12.55
1/9/2023 8:30:00 AM 4.33 39.794 0.029 6.23 1.6 12.56
1/9/2023 8:45:00 AM 4.35 39.83 0.029 6.25 1.56 12.58
1/9/2023 9:00:00 AM 4.37 39.866 0.029 6.2 1.56 12.59
1/9/2023 9:15:00 AM 4.39 39.902 0.029 6.21 1.54 12.61
1/9/2023 9:30:00 AM 4.41 39.938 0.029 6.21 1.58 12.62
1/9/2023 9:45:00 AM 4.45 40.01 0.029 6.21 1.58 12.62
1/9/2023 10:00:00 AM 4.48 40.064 0.029 6.22 1.57 12.62
1/9/2023 10:15:00 AM 4.5 40.1 0.029 6.21 1.54 12.63
1/9/2023 10:30:00 AM 4.52 40.136 0.029 6.22 1.56 12.62
1/9/2023 10:45:00 AM 4.51 40.118 0.029 6.21 1.56 12.61
1/9/2023 11:00:00 AM 4.49 40.082 0.029 6.21 1.56 12.61
1/9/2023 11:15:00 AM 4.51 40.118 0.029 6.21 1.53 12.61
1/9/2023 11:30:00 AM 4.53 40.154 0.029 6.22 1.55 12.6
1/9/2023 11:45:00 AM 4.59 40.262 0.029 6.22 1.57 12.58
1/9/2023 12:00:00 PM 4.66 40.388 0.029 6.22 1.52 12.56
1/9/2023 12:15:00 PM 4.74 40.532 0.029 6.22 1.54 12.53
1/9/2023 12:30:00 PM 4.8 40.64 0.029 6.22 1.53 12.51
1/9/2023 12:45:00 PM 4.86 40.748 0.029 6.22 1.53 12.49
1/9/2023 1:00:00 PM 4.92 40.856 0.029 6.22 1.51 12.46
1/9/2023 1:15:00 PM 4.97 40.946 0.029 6.22 1.59 12.44
1/9/2023 1:30:00 PM 5 41 0.029 6.22 1.55 12.43
1/9/2023 1:45:00 PM 5.04 41.072 0.029 6.22 1.57 12.41
1/9/2023 2:00:00 PM 5.05 41.09 0.029 6.22 1.53 12.39
1/9/2023 2:15:00 PM 5.05 41.09 0.029 6.21 1.55 12.38
1/9/2023 2:30:00 PM 5.06 41.108 0.029 6.22 1.59 12.37
1/9/2023 2:45:00 PM 5.06 41.108 0.029 6.22 1.55 12.36
1/9/2023 3:00:00 PM 5.07 41.126 0.029 6.21 1.53 12.35
1/9/2023 3:15:00 PM 5.06 41.108 0.029 6.21 1.53 12.35
1/9/2023 3:30:00 PM 5.05 41.09 0.029 6.2 1.57 12.35
1/9/2023 3:45:00 PM 5.03 41.054 0.029 6.21 1.55 12.34
1/9/2023 4:00:00 PM 5.02 41.036 0.029 6.2 1.54 12.33
1/9/2023 4:15:00 PM 4.99 40.982 0.029 6.2 1.57 12.33
1/9/2023 4:30:00 PM 4.96 40.928 0.029 6.2 1.56 12.33
1/9/2023 4:45:00 PM 4.93 40.874 0.029 6.19 1.51 12.34
1/9/2023 5:00:00 PM 4.9 40.82 0.029 6.19 1.57 12.33
1/9/2023 5:15:00 PM 4.87 40.766 0.029 6.18 1.7 12.33
1/9/2023 5:30:00 PM 4.83 40.694 0.029 6.18 1.61 12.33
1/9/2023 5:45:00 PM 4.8 40.64 0.029 6.18 1.62 12.34
1/9/2023 6:00:00 PM 4.76 40.568 0.029 6.18 1.62 12.35
1/9/2023 6:15:00 PM 4.72 40.496 0.029 6.17 1.65 12.36
1/9/2023 6:30:00 PM 4.69 40.442 0.029 6.18 1.59 12.37
1/9/2023 6:45:00 PM 4.65 40.37 0.029 6.17 1.59 12.38
1/9/2023 7:00:00 PM 4.61 40.298 0.029 6.18 1.58 12.39
1/9/2023 7:15:00 PM 4.58 40.244 0.029 6.17 1.6 12.4
1/9/2023 7:30:00 PM 4.55 40.19 0.029 6.17 1.64 12.41
1/9/2023 7:45:00 PM 4.52 40.136 0.029 6.17 1.73 12.42
1/9/2023 8:00:00 PM 4.49 40.082 0.029 6.17 1.78 12.43
1/9/2023 8:15:00 PM 4.47 40.046 0.029 6.16 1.74 12.44
1/9/2023 8:30:00 PM 4.44 39.992 0.029 6.16 1.67 12.45
1/9/2023 8:45:00 PM 4.42 39.956 0.029 6.16 1.74 12.46
1/9/2023 9:00:00 PM 4.4 39.92 0.029 6.17 1.7 12.47
1/9/2023 9:15:00 PM 4.38 39.884 0.029 6.16 1.7 12.47
1/9/2023 9:30:00 PM 4.37 39.866 0.029 6.17 1.61 12.48
1/9/2023 9:45:00 PM 4.36 39.848 0.029 6.16 1.62 12.49
1/9/2023 10:00:00 PM 4.36 39.848 0.029 6.17 1.61 12.49
1/9/2023 10:15:00 PM 4.35 39.83 0.029 6.16 1.57 12.49
1/9/2023 10:30:00 PM 4.35 39.83 0.029 6.17 1.66 12.49
1/9/2023 10:45:00 PM 4.35 39.83 0.029 6.17 1.61 12.49
1/9/2023 11:00:00 PM 4.36 39.848 0.029 6.17 1.62 12.49
1/9/2023 11:15:00 PM 4.36 39.848 0.029 6.17 1.6 12.49
1/9/2023 11:30:00 PM 4.37 39.866 0.029 6.17 1.6 12.49
1/9/2023 11:45:00 PM 4.37 39.866 0.029 6.17 1.64 12.49
1/10/2023 12:00:00 AM 4.38 39.884 0.029 6.17 1.61 12.49
1/10/2023 12:15:00 AM 4.38 39.884 0.029 6.16 1.6 12.49
1/10/2023 12:30:00 AM 4.38 39.884 0.029 6.17 1.62 12.49
1/10/2023 12:45:00 AM 4.38 39.884 0.029 6.17 1.62 12.49
1/10/2023 1:00:00 AM 4.39 39.902 0.029 6.18 1.61 12.49
1/10/2023 1:15:00 AM 4.38 39.884 0.029 6.18 1.6 12.49
1/10/2023 1:30:00 AM 4.39 39.902 0.029 6.18 1.57 12.48
1/10/2023 1:45:00 AM 4.39 39.902 0.029 6.17 1.68 12.49
1/10/2023 2:00:00 AM 4.4 39.92 0.029 6.18 1.54 12.49
1/10/2023 2:15:00 AM 4.39 39.902 0.029 6.19 1.58 12.49
1/10/2023 2:30:00 AM 4.4 39.92 0.029 6.18 1.58 12.49
1/10/2023 2:45:00 AM 4.4 39.92 0.029 6.19 1.58 12.48
1/10/2023 3:00:00 AM 4.41 39.938 0.029 6.19 1.61 12.48
1/10/2023 3:15:00 AM 4.42 39.956 0.029 6.19 1.6 12.48
1/10/2023 3:30:00 AM 4.43 39.974 0.029 6.18 1.61 12.48
1/10/2023 3:45:00 AM 4.44 39.992 0.029 6.19 1.6 12.48
1/10/2023 4:00:00 AM 4.45 40.01 0.029 6.18 1.66 12.48
1/10/2023 4:15:00 AM 4.45 40.01 0.029 6.18 1.62 12.47
1/10/2023 4:30:00 AM 4.46 40.028 0.029 6.19 1.59 12.47
1/10/2023 4:45:00 AM 4.46 40.028 0.029 6.17 1.6 12.47
1/10/2023 5:00:00 AM 4.46 40.028 0.029 6.18 1.58 12.47
1/10/2023 5:15:00 AM 4.47 40.046 0.029 6.18 1.55 12.46
1/10/2023 5:30:00 AM 4.47 40.046 0.029 6.18 1.59 12.46
1/10/2023 5:45:00 AM 4.48 40.064 0.029 6.18 1.57 12.46
1/10/2023 6:00:00 AM 4.49 40.082 0.029 6.18 1.56 12.46
1/10/2023 6:15:00 AM 4.49 40.082 0.029 6.18 1.63 12.46
1/10/2023 6:30:00 AM 4.49 40.082 0.029 6.18 1.59 12.46
1/10/2023 6:45:00 AM 4.5 40.1 0.029 6.19 1.54 12.46
1/10/2023 7:00:00 AM 4.5 40.1 0.029 6.18 1.57 12.45
1/10/2023 7:15:00 AM 4.51 40.118 0.029 6.16 1.58 12.46
1/10/2023 7:30:00 AM 4.51 40.118 0.029 6.16 1.52 12.45
1/10/2023 7:45:00 AM 4.51 40.118 0.029 6.16 1.53 12.46
1/10/2023 8:00:00 AM 4.51 40.118 0.029 6.17 1.58 12.46
1/10/2023 8:15:00 AM 4.52 40.136 0.029 6.18 1.55 12.47
1/10/2023 8:30:00 AM 4.53 40.154 0.029 6.18 1.53 12.48
1/10/2023 8:45:00 AM 4.54 40.172 0.029 6.18 1.56 12.5
1/10/2023 9:00:00 AM 4.55 40.19 0.029 6.19 1.53 12.51
1/10/2023 9:15:00 AM 4.56 40.208 0.029 6.24 1.5 12.51
1/10/2023 9:30:00 AM 4.58 40.244 0.029 6.26 1.51 12.51
1/10/2023 9:45:00 AM 4.59 40.262 0.029 6.26 1.55 12.51
1/10/2023 10:00:00 AM 4.62 40.316 0.029 6.27 1.48 12.53
1/10/2023 10:15:00 AM 4.65 40.37 0.029 6.27 1.51 12.54
1/10/2023 10:30:00 AM 4.67 40.406 0.029 6.27 1.54 12.53
1/10/2023 10:45:00 AM 4.7 40.46 0.029 6.27 1.5 12.53
1/10/2023 11:00:00 AM 4.73 40.514 0.029 6.27 1.47 12.53
1/10/2023 11:15:00 AM 4.75 40.55 0.029 6.27 1.52 12.52
1/10/2023 11:30:00 AM 4.78 40.604 0.029 6.28 1.52 12.51
1/10/2023 11:45:00 AM 4.8 40.64 0.029 6.28 1.48 12.5
1/10/2023 12:00:00 PM 4.81 40.658 0.029 6.28 1.57 12.5
1/10/2023 12:15:00 PM 4.84 40.712 0.029 6.28 1.52 12.5
1/10/2023 12:30:00 PM 4.87 40.766 0.029 6.29 1.48 12.49
1/10/2023 12:45:00 PM 4.9 40.82 0.029 6.3 1.51 12.49
1/10/2023 1:00:00 PM 4.92 40.856 0.029 6.3 1.48 12.48
1/10/2023 1:15:00 PM 4.94 40.892 0.029 6.29 1.52 12.47
1/10/2023 1:30:00 PM 4.98 40.964 0.029 6.28 1.49 12.46
1/10/2023 1:45:00 PM 5.01 41.018 0.029 6.28 1.48 12.46
1/10/2023 2:00:00 PM 5.04 41.072 0.029 6.29 1.51 12.45
1/10/2023 2:15:00 PM 5.07 41.126 0.029 6.29 1.48 12.43
1/10/2023 2:30:00 PM 5.09 41.162 0.029 6.3 1.5 12.41
1/10/2023 2:45:00 PM 5.1 41.18 0.029 6.28 1.53 12.39
1/10/2023 3:00:00 PM 5.12 41.216 0.029 6.28 1.52 12.37
1/10/2023 3:15:00 PM 5.12 41.216 0.029 6.27 1.52 12.36
1/10/2023 3:30:00 PM 5.13 41.234 0.029 6.27 1.52 12.34
1/10/2023 3:45:00 PM 5.13 41.234 0.029 6.26 1.52 12.32
1/10/2023 4:00:00 PM 5.13 41.234 0.029 6.26 1.5 12.31
1/10/2023 4:15:00 PM 5.12 41.216 0.029 6.26 1.53 12.3
1/10/2023 4:30:00 PM 5.1 41.18 0.029 6.26 1.53 12.3
1/10/2023 4:45:00 PM 5.09 41.162 0.029 6.25 1.53 12.29
1/10/2023 5:00:00 PM 5.08 41.144 0.029 6.25 1.53 12.29
1/10/2023 5:15:00 PM 5.07 41.126 0.029 6.25 1.55 12.28
1/10/2023 5:30:00 PM 5.07 41.126 0.029 6.24 1.52 12.28
1/10/2023 5:45:00 PM 5.07 41.126 0.029 6.24 1.55 12.28
1/10/2023 6:00:00 PM 5.07 41.126 0.029 6.24 1.76 12.28
1/10/2023 6:15:00 PM 5.06 41.108 0.029 6.23 1.53 12.28
1/10/2023 6:30:00 PM 5.05 41.09 0.029 6.24 1.55 12.28
1/10/2023 6:45:00 PM 5.04 41.072 0.029 6.24 1.53 12.28
1/10/2023 7:00:00 PM 5.03 41.054 0.029 6.25 1.59 12.29
1/10/2023 7:15:00 PM 5.03 41.054 0.029 6.24 1.56 12.29
1/10/2023 7:30:00 PM 5.02 41.036 0.029 6.23 1.59 12.29
1/10/2023 7:45:00 PM 5.02 41.036 0.029 6.23 1.53 12.29
1/10/2023 8:00:00 PM 5.01 41.018 0.029 6.24 1.55 12.3
1/10/2023 8:15:00 PM 5 41 0.029 6.23 1.55 12.3
1/10/2023 8:30:00 PM 5 41 0.029 6.23 1.61 12.3
1/10/2023 8:45:00 PM 4.99 40.982 0.029 6.23 1.54 12.3
1/10/2023 9:00:00 PM 4.99 40.982 0.029 6.23 1.53 12.31
1/10/2023 9:15:00 PM 4.98 40.964 0.029 6.23 1.55 12.3
1/10/2023 9:30:00 PM 4.97 40.946 0.029 6.24 1.54 12.31
1/10/2023 9:45:00 PM 4.96 40.928 0.029 6.23 1.57 12.32
1/10/2023 10:00:00 PM 4.96 40.928 0.029 6.23 1.52 12.32
1/10/2023 10:15:00 PM 4.95 40.91 0.029 6.23 1.54 12.33
1/10/2023 10:30:00 PM 4.95 40.91 0.029 6.24 1.52 12.33
1/10/2023 10:45:00 PM 4.94 40.892 0.029 6.23 1.51 12.33
1/10/2023 11:00:00 PM 4.93 40.874 0.029 6.23 1.55 12.33
1/10/2023 11:15:00 PM 4.92 40.856 0.029 6.23 1.52 12.33
1/10/2023 11:30:00 PM 4.92 40.856 0.029 6.23 1.55 12.34
1/10/2023 11:45:00 PM 4.91 40.838 0.029 6.23 1.64 12.34
1/11/2023 12:00:00 AM 4.91 40.838 0.029 6.23 1.52 12.34
1/11/2023 12:15:00 AM 4.91 40.838 0.029 6.23 1.55 12.34
1/11/2023 12:30:00 AM 4.9 40.82 0.029 6.23 1.5 12.34
1/11/2023 12:45:00 AM 4.89 40.802 0.029 6.23 1.56 12.34
1/11/2023 1:00:00 AM 4.88 40.784 0.029 6.22 1.53 12.35
1/11/2023 1:15:00 AM 4.88 40.784 0.029 6.23 1.53 12.35
1/11/2023 1:30:00 AM 4.87 40.766 0.029 6.22 1.54 12.35
1/11/2023 1:45:00 AM 4.87 40.766 0.029 6.22 1.55 12.36
1/11/2023 2:00:00 AM 4.86 40.748 0.029 6.22 1.53 12.35
1/11/2023 2:15:00 AM 4.85 40.73 0.029 6.22 1.54 12.36
1/11/2023 2:30:00 AM 4.84 40.712 0.029 6.22 1.54 12.37
1/11/2023 2:45:00 AM 4.83 40.694 0.029 6.23 1.53 12.37
1/11/2023 3:00:00 AM 4.83 40.694 0.029 6.22 1.55 12.38
1/11/2023 3:15:00 AM 4.81 40.658 0.029 6.21 1.54 12.39
1/11/2023 3:30:00 AM 4.79 40.622 0.029 6.22 1.6 12.39
1/11/2023 3:45:00 AM 4.77 40.586 0.029 6.22 1.55 12.39
1/11/2023 4:00:00 AM 4.74 40.532 0.029 6.23 1.55 12.39
1/11/2023 4:15:00 AM 4.72 40.496 0.029 6.22 1.53 12.41
1/11/2023 4:30:00 AM 4.69 40.442 0.029 6.22 1.54 12.41
1/11/2023 4:45:00 AM 4.66 40.388 0.029 6.22 1.5 12.42
1/11/2023 5:00:00 AM 4.65 40.37 0.029 6.22 1.51 12.43
1/11/2023 5:15:00 AM 4.64 40.352 0.029 6.22 1.52 12.44
1/11/2023 5:30:00 AM 4.63 40.334 0.029 6.22 1.63 12.44
1/11/2023 5:45:00 AM 4.62 40.316 0.029 6.23 1.53 12.44
1/11/2023 6:00:00 AM 4.61 40.298 0.029 6.24 1.54 12.45
1/11/2023 6:15:00 AM 4.61 40.298 0.029 6.25 1.59 12.45
1/11/2023 6:30:00 AM 4.6 40.28 0.029 6.25 1.56 12.45
1/11/2023 6:45:00 AM 4.6 40.28 0.029 6.24 1.54 12.46
1/11/2023 7:00:00 AM 4.6 40.28 0.029 6.25 1.54 12.46
1/11/2023 7:15:00 AM 4.6 40.28 0.029 6.24 1.55 12.46
1/11/2023 7:30:00 AM 4.6 40.28 0.029 6.24 1.55 12.47
1/11/2023 7:45:00 AM 4.6 40.28 0.029 6.26 1.5 12.47
1/11/2023 8:00:00 AM 4.6 40.28 0.029 6.27 1.52 12.48
1/11/2023 8:15:00 AM 4.59 40.262 0.029 6.28 1.5 12.51
1/11/2023 8:30:00 AM 4.58 40.244 0.029 6.3 1.48 12.54
1/11/2023 8:45:00 AM 4.59 40.262 0.029 6.32 1.51 12.57
1/11/2023 9:00:00 AM 4.6 40.28 0.029 6.33 1.47 12.58
1/11/2023 9:15:00 AM 4.61 40.298 0.029 6.33 1.53 12.6
1/11/2023 9:30:00 AM 4.63 40.334 0.029 6.33 1.49 12.6
1/11/2023 9:45:00 AM 4.65 40.37 0.029 6.33 1.49 12.61
1/11/2023 10:00:00 AM 4.69 40.442 0.029 6.34 1.5 12.61
1/11/2023 10:15:00 AM 4.73 40.514 0.029 6.35 1.49 12.61
1/11/2023 10:30:00 AM 4.76 40.568 0.029 6.37 1.48 12.6
1/11/2023 10:45:00 AM 4.8 40.64 0.029 6.38 1.53 12.59
1/11/2023 11:00:00 AM 4.85 40.73 0.029 6.38 1.49 12.58
1/11/2023 11:15:00 AM 4.9 40.82 0.029 6.38 1.47 12.57
1/11/2023 11:30:00 AM 4.96 40.928 0.029 6.38 1.51 12.55
1/11/2023 11:45:00 AM 5 41 0.029 6.38 1.49 12.53
1/11/2023 12:00:00 PM 5.05 41.09 0.029 6.37 1.45 12.51
1/11/2023 12:15:00 PM 5.09 41.162 0.029 6.36 1.48 12.5
1/11/2023 12:30:00 PM 5.14 41.252 0.029 6.36 1.48 12.48
1/11/2023 12:45:00 PM 5.18 41.324 0.029 6.37 1.48 12.46
1/11/2023 1:00:00 PM 5.21 41.378 0.029 6.36 1.51 12.44
1/11/2023 1:15:00 PM 5.23 41.414 0.029 6.36 1.5 12.43
1/11/2023 1:30:00 PM 5.25 41.45 0.029 6.36 1.45 12.43
1/11/2023 1:45:00 PM 5.27 41.486 0.029 6.37 1.47 12.42
1/11/2023 2:00:00 PM 5.28 41.504 0.029 6.36 1.48 12.4
1/11/2023 2:15:00 PM 5.29 41.522 0.029 6.37 1.51 12.39
1/11/2023 2:30:00 PM 5.29 41.522 0.029 6.36 1.48 12.39
1/11/2023 2:45:00 PM 5.29 41.522 0.029 6.36 1.47 12.38
1/11/2023 3:00:00 PM 5.29 41.522 0.029 6.36 1.5 12.38
1/11/2023 3:15:00 PM 5.29 41.522 0.029 6.36 1.51 12.38
1/11/2023 3:30:00 PM 5.29 41.522 0.029 6.36 1.45 12.38
1/11/2023 3:45:00 PM 5.27 41.486 0.029 6.35 1.44 12.36
1/11/2023 4:00:00 PM 5.27 41.486 0.029 6.35 1.45 12.35
1/11/2023 4:15:00 PM 5.26 41.468 0.029 6.34 1.51 12.34
1/11/2023 4:30:00 PM 5.25 41.45 0.029 6.34 1.48 12.32
1/11/2023 4:45:00 PM 5.23 41.414 0.029 6.33 1.52 12.3
1/11/2023 5:00:00 PM 5.21 41.378 0.029 6.32 1.47 12.28
1/11/2023 5:15:00 PM 5.2 41.36 0.029 6.32 1.48 12.28
1/11/2023 5:30:00 PM 5.18 41.324 0.029 6.32 1.44 12.27
1/11/2023 5:45:00 PM 5.16 41.288 0.029 6.32 1.49 12.27
1/11/2023 6:00:00 PM 5.13 41.234 0.029 6.32 1.52 12.27
1/11/2023 6:15:00 PM 5.1 41.18 0.029 6.31 1.52 12.28
1/11/2023 6:30:00 PM 5.08 41.144 0.029 6.31 1.53 12.28
1/11/2023 6:45:00 PM 5.06 41.108 0.029 6.31 1.49 12.29
1/11/2023 7:00:00 PM 5.04 41.072 0.029 6.31 1.55 12.29
1/11/2023 7:15:00 PM 5.03 41.054 0.029 6.3 1.55 12.3
1/11/2023 7:30:00 PM 5.02 41.036 0.029 6.3 1.5 12.31
1/11/2023 7:45:00 PM 5.01 41.018 0.029 6.3 1.52 12.31
1/11/2023 8:00:00 PM 5 41 0.029 6.31 1.49 12.32
1/11/2023 8:15:00 PM 4.99 40.982 0.029 6.31 1.53 12.32
1/11/2023 8:30:00 PM 4.98 40.964 0.029 6.31 1.53 12.33
1/11/2023 8:45:00 PM 4.97 40.946 0.029 6.31 1.51 12.32
1/11/2023 9:00:00 PM 4.96 40.928 0.029 6.31 1.56 12.33
1/11/2023 9:15:00 PM 4.95 40.91 0.029 6.3 1.62 12.33
1/11/2023 9:30:00 PM 4.94 40.892 0.029 6.3 1.53 12.33
1/11/2023 9:45:00 PM 4.94 40.892 0.029 6.3 1.55 12.34
1/11/2023 10:00:00 PM 4.94 40.892 0.029 6.3 1.5 12.34
1/11/2023 10:15:00 PM 4.93 40.874 0.03 6.29 1.52 12.34
1/11/2023 10:30:00 PM 4.92 40.856 0.03 6.29 1.57 12.34
1/11/2023 10:45:00 PM 4.91 40.838 0.03 6.29 1.56 12.35
1/11/2023 11:00:00 PM 4.91 40.838 0.03 6.28 1.57 12.34
1/11/2023 11:15:00 PM 4.9 40.82 0.03 6.29 1.56 12.34
1/11/2023 11:30:00 PM 4.89 40.802 0.03 6.29 1.53 12.35
1/11/2023 11:45:00 PM 4.89 40.802 0.029 6.3 1.54 12.35
1/12/2023 12:00:00 AM 4.88 40.784 0.03 6.3 1.56 12.35
1/12/2023 12:15:00 AM 4.88 40.784 0.03 6.3 1.57 12.35
1/12/2023 12:30:00 AM 4.88 40.784 0.03 6.3 1.51 12.35
1/12/2023 12:45:00 AM 4.88 40.784 0.03 6.3 1.56 12.35
1/12/2023 1:00:00 AM 4.88 40.784 0.029 6.3 1.54 12.35
1/12/2023 1:15:00 AM 4.87 40.766 0.03 6.29 1.55 12.34
1/12/2023 1:30:00 AM 4.87 40.766 0.03 6.29 1.52 12.35
1/12/2023 1:45:00 AM 4.86 40.748 0.03 6.29 1.5 12.35
1/12/2023 2:00:00 AM 4.86 40.748 0.03 6.29 1.54 12.35
1/12/2023 2:15:00 AM 4.86 40.748 0.03 6.3 1.54 12.35
1/12/2023 2:30:00 AM 4.85 40.73 0.03 6.29 1.54 12.35
1/12/2023 2:45:00 AM 4.85 40.73 0.03 6.3 1.49 12.35
1/12/2023 3:00:00 AM 4.84 40.712 0.03 6.29 1.57 12.36
1/12/2023 3:15:00 AM 4.82 40.676 0.03 6.29 1.56 12.36
1/12/2023 3:30:00 AM 4.81 40.658 0.03 6.29 1.56 12.35
1/12/2023 3:45:00 AM 4.78 40.604 0.03 6.29 1.56 12.36
1/12/2023 4:00:00 AM 4.68 40.424 0.03 6.29 1.57 12.36
1/12/2023 4:15:00 AM 4.62 40.316 0.03 6.29 1.52 12.38
1/12/2023 4:30:00 AM 4.63 40.334 0.03 6.29 1.55 12.4
1/12/2023 4:45:00 AM 4.64 40.352 0.03 6.3 1.57 12.4
1/12/2023 5:00:00 AM 4.64 40.352 0.03 6.3 1.79 12.41
1/12/2023 5:15:00 AM 4.64 40.352 0.03 6.29 1.7 12.41
1/12/2023 5:30:00 AM 4.64 40.352 0.03 6.29 1.57 12.42
1/12/2023 5:45:00 AM 4.63 40.334 0.03 6.3 1.6 12.42
1/12/2023 6:00:00 AM 4.63 40.334 0.03 6.29 1.57 12.42
1/12/2023 6:15:00 AM 4.62 40.316 0.029 6.29 1.57 12.43
1/12/2023 6:30:00 AM 4.62 40.316 0.03 6.29 1.56 12.42
1/12/2023 6:45:00 AM 4.63 40.334 0.03 6.3 1.52 12.42
1/12/2023 7:00:00 AM 4.64 40.352 0.03 6.3 1.56 12.41
1/12/2023 7:15:00 AM 4.65 40.37 0.03 6.29 1.53 12.41
1/12/2023 7:30:00 AM 4.66 40.388 0.03 6.3 1.54 12.41
1/12/2023 7:45:00 AM 4.67 40.406 0.03 6.3 1.51 12.4
1/12/2023 8:00:00 AM 4.68 40.424 0.03 6.3 1.55 12.41
1/12/2023 8:15:00 AM 4.69 40.442 0.03 6.3 1.49 12.4
1/12/2023 8:30:00 AM 4.69 40.442 0.03 6.3 1.52 12.41
1/12/2023 8:45:00 AM 4.69 40.442 0.03 6.3 1.48 12.42
1/12/2023 9:00:00 AM 4.7 40.46 0.03 6.31 1.5 12.43
1/12/2023 9:15:00 AM 4.71 40.478 0.03 6.31 1.51 12.43
1/12/2023 9:30:00 AM 4.73 40.514 0.029 6.31 1.45 12.43
1/12/2023 9:45:00 AM 4.74 40.532 0.029 6.31 1.48 12.43
1/12/2023 10:00:00 AM 4.75 40.55 0.029 6.32 1.43 12.44
1/12/2023 10:15:00 AM 4.76 40.568 0.029 6.32 1.47 12.44
1/12/2023 10:30:00 AM 4.78 40.604 0.029 6.32 1.48 12.44
1/12/2023 10:45:00 AM 4.79 40.622 0.029 6.33 1.51 12.44
1/12/2023 11:00:00 AM 4.82 40.676 0.029 6.33 1.46 12.44
1/12/2023 11:15:00 AM 4.84 40.712 0.029 6.34 1.49 12.43
1/12/2023 11:30:00 AM 4.86 40.748 0.029 6.34 1.48 12.42
1/12/2023 11:45:00 AM 4.88 40.784 0.029 6.33 1.58 12.41
1/12/2023 12:00:00 PM 4.89 40.802 0.029 6.34 1.44 12.4
1/12/2023 12:15:00 PM 4.91 40.838 0.029 6.33 1.49 12.39
1/12/2023 12:30:00 PM 4.93 40.874 0.029 6.33 1.44 12.38
1/12/2023 12:45:00 PM 4.95 40.91 0.029 6.33 1.49 12.37
1/12/2023 1:00:00 PM 4.97 40.946 0.029 6.32 1.48 12.36
1/12/2023 1:15:00 PM 4.99 40.982 0.029 6.32 1.48 12.35
1/12/2023 1:30:00 PM 5.01 41.018 0.029 6.32 1.45 12.34
1/12/2023 1:45:00 PM 5.03 41.054 0.029 6.32 1.46 12.32
1/12/2023 2:00:00 PM 5.04 41.072 0.029 6.32 1.44 12.3
1/12/2023 2:15:00 PM 5.06 41.108 0.029 6.32 1.43 12.29
1/12/2023 2:30:00 PM 5.08 41.144 0.029 6.32 1.49 12.27
1/12/2023 2:45:00 PM 5.09 41.162 0.029 6.32 1.5 12.27
1/12/2023 3:00:00 PM 5.11 41.198 0.029 6.32 1.45 12.25
1/12/2023 3:15:00 PM 5.12 41.216 0.029 6.31 1.49 12.24
1/12/2023 3:30:00 PM 5.12 41.216 0.029 6.3 1.64 12.23
1/12/2023 3:45:00 PM 5.13 41.234 0.029 6.3 1.67 12.22
1/12/2023 4:00:00 PM 5.15 41.27 0.029 6.3 1.71 12.21
1/12/2023 4:15:00 PM 5.16 41.288 0.029 6.29 1.71 12.18
1/12/2023 4:30:00 PM 5.17 41.306 0.029 6.28 1.81 12.17
1/12/2023 4:45:00 PM 5.18 41.324 0.029 6.28 1.99 12.16
1/12/2023 5:00:00 PM 5.2 41.36 0.029 6.27 2.35 12.15
1/12/2023 5:15:00 PM 5.21 41.378 0.029 6.27 2.39 12.13
1/12/2023 5:30:00 PM 5.23 41.414 0.029 6.27 3.13 12.13
1/12/2023 5:45:00 PM 5.24 41.432 0.03 6.28 3.66 12.12
1/12/2023 6:00:00 PM 5.26 41.468 0.03 6.28 3.35 12.11
1/12/2023 6:15:00 PM 5.28 41.504 0.03 6.28 3.38 12.1
1/12/2023 6:30:00 PM 5.3 41.54 0.03 6.26 3.23 12.09
1/12/2023 6:45:00 PM 5.33 41.594 0.03 6.26 2.99 12.08
1/12/2023 7:00:00 PM 5.35 41.63 0.03 6.25 2.85 12.07
1/12/2023 7:15:00 PM 5.37 41.666 0.03 6.23 2.79 12.06
1/12/2023 7:30:00 PM 5.4 41.72 0.03 6.24 2.71 12.05
1/12/2023 7:45:00 PM 5.42 41.756 0.03 6.23 2.83 12.05
1/12/2023 8:00:00 PM 5.44 41.792 0.03 6.24 3.01 12.03
1/12/2023 8:15:00 PM 5.46 41.828 0.03 6.24 3.17 12.03
1/12/2023 8:30:00 PM 5.48 41.864 0.03 6.24 2.95 12.02
1/12/2023 8:45:00 PM 5.49 41.882 0.03 6.24 3 12.01
1/12/2023 9:00:00 PM 5.51 41.918 0.03 6.24 2.76 12.01
1/12/2023 9:15:00 PM 5.52 41.936 0.03 6.24 2.85 12
1/12/2023 9:30:00 PM 5.53 41.954 0.03 6.25 2.78 11.99
1/12/2023 9:45:00 PM 5.55 41.99 0.03 6.25 2.62 11.98
1/12/2023 10:00:00 PM 5.56 42.008 0.03 6.25 2.52 11.98
1/12/2023 10:15:00 PM 5.58 42.044 0.03 6.26 2.45 11.97
1/12/2023 10:30:00 PM 5.6 42.08 0.03 6.25 2.38 11.96
1/12/2023 10:45:00 PM 5.62 42.116 0.03 6.25 2.38 11.95
1/12/2023 11:00:00 PM 5.64 42.152 0.03 6.26 2.28 11.94
1/12/2023 11:15:00 PM 5.65 42.17 0.03 6.25 2.21 11.94
1/12/2023 11:30:00 PM 5.67 42.206 0.03 6.26 2.14 11.93
1/12/2023 11:45:00 PM 5.68 42.224 0.03 6.25 2.13 11.92
1/13/2023 12:00:00 AM 5.69 42.242 0.03 6.25 2.06 11.91
1/13/2023 12:15:00 AM 5.7 42.26 0.03 6.26 2.13 11.91
1/13/2023 12:30:00 AM 5.71 42.278 0.03 6.26 2.02 11.9
1/13/2023 12:45:00 AM 5.72 42.296 0.03 6.24 1.99 11.89
1/13/2023 1:00:00 AM 5.73 42.314 0.03 6.23 1.99 11.89
1/13/2023 1:15:00 AM 5.74 42.332 0.029 6.22 1.97 11.88
1/13/2023 1:30:00 AM 5.75 42.35 0.029 6.22 1.93 11.88
1/13/2023 1:45:00 AM 5.75 42.35 0.029 6.22 1.95 11.87
1/13/2023 2:00:00 AM 5.76 42.368 0.029 6.23 2.01 11.86
1/13/2023 2:15:00 AM 5.77 42.386 0.029 6.22 1.96 11.86
1/13/2023 2:30:00 AM 5.78 42.404 0.029 6.22 1.99 11.86
1/13/2023 2:45:00 AM 5.78 42.404 0.029 6.22 1.97 11.85
1/13/2023 3:00:00 AM 5.79 42.422 0.029 6.22 2.02 11.85
1/13/2023 3:15:00 AM 5.8 42.44 0.029 6.22 2.04 11.84
1/13/2023 3:30:00 AM 5.81 42.458 0.029 6.21 2.13 11.84
1/13/2023 3:45:00 AM 5.82 42.476 0.029 6.21 2.24 11.83
1/13/2023 4:00:00 AM 5.82 42.476 0.029 6.22 2.4 11.83
1/13/2023 4:15:00 AM 5.83 42.494 0.029 6.22 2.47 11.83
1/13/2023 4:30:00 AM 5.83 42.494 0.029 6.23 2.58 11.83
1/13/2023 4:45:00 AM 5.83 42.494 0.029 6.24 2.79 11.83
1/13/2023 5:00:00 AM 5.84 42.512 0.03 6.24 2.89 11.83
1/13/2023 5:15:00 AM 5.85 42.53 0.03 6.3 2.86 11.83
1/13/2023 5:30:00 AM 5.85 42.53 0.03 6.32 2.86 11.83
1/13/2023 5:45:00 AM 5.86 42.548 0.03 6.3 2.73 11.83
1/13/2023 6:00:00 AM 5.86 42.548 0.03 6.28 2.78 11.83
1/13/2023 6:15:00 AM 5.87 42.566 0.03 6.25 2.7 11.83
1/13/2023 6:30:00 AM 5.87 42.566 0.03 6.26 2.81 11.83
1/13/2023 6:45:00 AM 5.86 42.548 0.03 6.28 2.6 11.84
1/13/2023 7:00:00 AM 5.85 42.53 0.03 6.29 2.53 11.85
1/13/2023 7:15:00 AM 5.84 42.512 0.029 6.29 2.56 11.86
1/13/2023 7:30:00 AM 5.81 42.458 0.029 6.3 2.43 11.87
1/13/2023 7:45:00 AM 5.77 42.386 0.029 6.3 2.34 11.89
1/13/2023 8:00:00 AM 5.74 42.332 0.029 6.3 2.29 11.92
1/13/2023 8:15:00 AM 5.71 42.278 0.029 6.3 2.21 11.93
1/13/2023 8:30:00 AM 5.68 42.224 0.029 6.31 2.15 11.96
1/13/2023 8:45:00 AM 5.66 42.188 0.029 6.3 2.13 11.99
1/13/2023 9:00:00 AM 5.63 42.134 0.029 6.3 2.07 12.03
1/13/2023 9:15:00 AM 5.61 42.098 0.029 6.3 2.07 12.05
1/13/2023 9:30:00 AM 5.6 42.08 0.029 6.31 2.03 12.08
1/13/2023 9:45:00 AM 5.58 42.044 0.029 6.31 2.03 12.1
1/13/2023 10:00:00 AM 5.59 42.062 0.029 6.32 1.97 12.11
1/13/2023 10:15:00 AM 5.58 42.044 0.029 6.32 1.9 12.12
1/13/2023 10:30:00 AM 5.57 42.026 0.029 6.32 1.94 12.13
1/13/2023 10:45:00 AM 5.57 42.026 0.029 6.32 1.89 12.13
1/13/2023 11:00:00 AM 5.56 42.008 0.029 6.31 1.91 12.15
1/13/2023 11:15:00 AM 5.57 42.026 0.029 6.31 1.81 12.14
1/13/2023 11:30:00 AM 5.57 42.026 0.029 6.31 1.87 12.16
1/13/2023 11:45:00 AM 5.58 42.044 0.029 6.31 1.89 12.16
1/13/2023 12:00:00 PM 5.59 42.062 0.029 6.32 1.89 12.17
1/13/2023 12:15:00 PM 5.58 42.044 0.029 6.3 1.8 12.16
1/13/2023 12:30:00 PM 5.56 42.008 0.029 6.3 1.77 12.16
1/13/2023 12:45:00 PM 5.52 41.936 0.029 6.3 1.84 12.17
1/13/2023 1:00:00 PM 5.51 41.918 0.029 6.29 1.8 12.16
1/13/2023 1:15:00 PM 5.48 41.864 0.029 6.29 1.77 12.16
1/13/2023 1:30:00 PM 5.46 41.828 0.029 6.28 1.8 12.16
1/13/2023 1:45:00 PM 5.44 41.792 0.029 6.28 1.84 12.16
1/13/2023 2:00:00 PM 5.42 41.756 0.029 6.28 1.77 12.16
1/13/2023 2:15:00 PM 5.39 41.702 0.029 6.27 1.74 12.15
1/13/2023 2:30:00 PM 5.36 41.648 0.029 6.27 1.77 12.15
1/13/2023 2:45:00 PM 5.33 41.594 0.029 6.26 1.76 12.16
1/13/2023 3:00:00 PM 5.3 41.54 0.029 6.27 1.72 12.16
1/13/2023 3:15:00 PM 5.26 41.468 0.029 6.27 1.79 12.17
1/13/2023 3:30:00 PM 5.23 41.414 0.029 6.26 1.73 12.17
1/13/2023 3:45:00 PM 5.2 41.36 0.029 6.25 1.78 12.17
1/13/2023 4:00:00 PM 5.17 41.306 0.029 6.27 1.68 12.18
1/13/2023 4:15:00 PM 5.13 41.234 0.029 6.28 1.72 12.19
1/13/2023 4:30:00 PM 5.1 41.18 0.029 6.28 1.79 12.19
1/13/2023 4:45:00 PM 5.06 41.108 0.029 6.27 1.71 12.2
1/13/2023 5:00:00 PM 5.03 41.054 0.029 6.26 1.73 12.2
1/13/2023 5:15:00 PM 5 41 0.029 6.25 1.7 12.21
1/13/2023 5:30:00 PM 4.96 40.928 0.029 6.25 1.78 12.22
1/13/2023 5:45:00 PM 4.92 40.856 0.029 6.24 1.73 12.23
1/13/2023 6:00:00 PM 4.89 40.802 0.029 6.25 1.74 12.24
1/13/2023 6:15:00 PM 4.87 40.766 0.029 6.26 1.71 12.25
1/13/2023 6:30:00 PM 4.83 40.694 0.029 6.27 1.76 12.26
1/13/2023 6:45:00 PM 4.8 40.64 0.029 6.27 1.71 12.27
1/13/2023 7:00:00 PM 4.76 40.568 0.029 6.27 1.74 12.29
1/13/2023 7:15:00 PM 4.72 40.496 0.029 6.27 1.76 12.29
1/13/2023 7:30:00 PM 4.69 40.442 0.029 6.28 1.76 12.31
1/13/2023 7:45:00 PM 4.65 40.37 0.029 6.27 1.72 12.32
1/13/2023 8:00:00 PM 4.62 40.316 0.029 6.27 1.75 12.34
1/13/2023 8:15:00 PM 4.59 40.262 0.029 6.27 1.72 12.35
1/13/2023 8:30:00 PM 4.55 40.19 0.029 6.27 1.72 12.36
1/13/2023 8:45:00 PM 4.5 40.1 0.029 6.27 1.73 12.38
1/13/2023 9:00:00 PM 4.47 40.046 0.029 6.27 1.73 12.4
1/13/2023 9:15:00 PM 4.45 40.01 0.029 6.27 1.67 12.41
1/13/2023 9:30:00 PM 4.41 39.938 0.029 6.27 1.7 12.42
1/13/2023 9:45:00 PM 4.38 39.884 0.029 6.28 1.81 12.43
1/13/2023 10:00:00 PM 4.35 39.83 0.029 6.28 1.71 12.44
1/13/2023 10:15:00 PM 4.32 39.776 0.029 6.27 1.71 12.45
1/13/2023 10:30:00 PM 4.29 39.722 0.029 6.27 1.77 12.45
1/13/2023 10:45:00 PM 4.26 39.668 0.029 6.27 1.73 12.47
1/13/2023 11:00:00 PM 4.23 39.614 0.029 6.27 1.73 12.47
1/13/2023 11:15:00 PM 4.2 39.56 0.029 6.27 1.71 12.49
1/13/2023 11:30:00 PM 4.16 39.488 0.029 6.27 1.72 12.49
1/13/2023 11:45:00 PM 4.13 39.434 0.029 6.27 1.71 12.5
1/14/2023 12:00:00 AM 4.11 39.398 0.029 6.27 1.65 12.51
1/14/2023 12:15:00 AM 4.09 39.362 0.029 6.25 1.67 12.51
1/14/2023 12:30:00 AM 4.06 39.308 0.029 6.24 1.68 12.52
1/14/2023 12:45:00 AM 4.04 39.272 0.029 6.24 1.68 12.53
1/14/2023 1:00:00 AM 4 39.2 0.029 6.24 1.73 12.55
1/14/2023 1:15:00 AM 3.98 39.164 0.029 6.25 1.68 12.56
1/14/2023 1:30:00 AM 3.96 39.128 0.029 6.25 1.71 12.56
1/14/2023 1:45:00 AM 3.93 39.074 0.029 6.24 1.62 12.57
1/14/2023 2:00:00 AM 3.91 39.038 0.029 6.24 1.69 12.59
1/14/2023 2:15:00 AM 3.89 39.002 0.029 6.24 1.65 12.59
1/14/2023 2:30:00 AM 3.86 38.948 0.029 6.24 1.69 12.6
1/14/2023 2:45:00 AM 3.83 38.894 0.029 6.24 1.72 12.61
1/14/2023 3:00:00 AM 3.81 38.858 0.029 6.24 1.71 12.62
1/14/2023 3:15:00 AM 3.78 38.804 0.029 6.24 1.63 12.63
1/14/2023 3:30:00 AM 3.76 38.768 0.029 6.24 1.69 12.64
1/14/2023 3:45:00 AM 3.74 38.732 0.029 6.25 1.65 12.65
1/14/2023 4:00:00 AM 3.71 38.678 0.029 6.24 1.67 12.66
1/14/2023 4:15:00 AM 3.69 38.642 0.029 6.24 1.64 12.67
1/14/2023 4:30:00 AM 3.67 38.606 0.029 6.24 1.69 12.68
1/14/2023 4:45:00 AM 3.66 38.588 0.029 6.24 1.7 12.69
1/14/2023 5:00:00 AM 3.64 38.552 0.029 6.25 1.66 12.69
1/14/2023 5:15:00 AM 3.62 38.516 0.029 6.26 1.67 12.7
1/14/2023 5:30:00 AM 3.59 38.462 0.029 6.25 1.65 12.71
1/14/2023 5:45:00 AM 3.57 38.426 0.029 6.26 1.72 12.72
1/14/2023 6:00:00 AM 3.55 38.39 0.029 6.26 1.69 12.72
1/14/2023 6:15:00 AM 3.52 38.336 0.029 6.26 1.65 12.74
1/14/2023 6:30:00 AM 3.5 38.3 0.029 6.26 1.62 12.74
1/14/2023 6:45:00 AM 3.47 38.246 0.029 6.27 1.67 12.76
1/14/2023 7:00:00 AM 3.44 38.192 0.029 6.27 1.64 12.77
1/14/2023 7:15:00 AM 3.42 38.156 0.029 6.27 1.59 12.77
1/14/2023 7:30:00 AM 3.39 38.102 0.029 6.28 1.59 12.79
1/14/2023 7:45:00 AM 3.37 38.066 0.029 6.27 1.58 12.8
1/14/2023 8:00:00 AM 3.34 38.012 0.029 6.29 1.62 12.82
1/14/2023 8:15:00 AM 3.32 37.976 0.029 6.25 1.63 12.83
1/14/2023 8:30:00 AM 3.31 37.958 0.029 6.25 1.64 12.86
1/14/2023 8:45:00 AM 3.29 37.922 0.029 6.26 1.61 12.87
1/14/2023 9:00:00 AM 3.27 37.886 0.029 6.27 1.57 12.89
1/14/2023 9:15:00 AM 3.25 37.85 0.029 6.27 1.59 12.92
1/14/2023 9:30:00 AM 3.23 37.814 0.029 6.28 1.55 12.94
1/14/2023 9:45:00 AM 3.2 37.76 0.029 6.28 1.6 12.96
1/14/2023 10:00:00 AM 3.19 37.742 0.029 6.29 1.54 12.98
1/14/2023 10:15:00 AM 3.17 37.706 0.029 6.3 1.59 13.01
1/14/2023 10:30:00 AM 3.15 37.67 0.029 6.29 1.6 13.02
1/14/2023 10:45:00 AM 3.14 37.652 0.029 6.29 1.57 13.04
1/14/2023 11:00:00 AM 3.15 37.67 0.029 6.29 1.55 13.04
1/14/2023 11:15:00 AM 3.16 37.688 0.029 6.3 1.55 13.04
1/14/2023 11:30:00 AM 3.17 37.706 0.029 6.28 1.58 13.04
1/14/2023 11:45:00 AM 3.18 37.724 0.029 6.29 1.58 13.04
1/14/2023 12:00:00 PM 3.2 37.76 0.029 6.29 1.56 13.04
1/14/2023 12:15:00 PM 3.2 37.76 0.029 6.29 1.59 13.04
1/14/2023 12:30:00 PM 3.2 37.76 0.029 6.29 1.55 13.04
1/14/2023 12:45:00 PM 3.2 37.76 0.029 6.29 1.59 13.04
1/14/2023 1:00:00 PM 3.2 37.76 0.029 6.29 1.62 13.04
1/14/2023 1:15:00 PM 3.21 37.778 0.029 6.29 1.56 13.03
1/14/2023 1:30:00 PM 3.2 37.76 0.029 6.29 1.55 13.03
1/14/2023 1:45:00 PM 3.21 37.778 0.029 6.3 1.55 13.03
1/14/2023 2:00:00 PM 3.2 37.76 0.029 6.29 1.57 13.03
1/14/2023 2:15:00 PM 3.2 37.76 0.029 6.29 1.56 13.03
1/14/2023 2:30:00 PM 3.19 37.742 0.029 6.29 1.53 13.03
1/14/2023 2:45:00 PM 3.18 37.724 0.029 6.29 1.53 13.03
1/14/2023 3:00:00 PM 3.17 37.706 0.029 6.29 1.57 13.02
1/14/2023 3:15:00 PM 3.15 37.67 0.029 6.29 1.56 13.03
1/14/2023 3:30:00 PM 3.14 37.652 0.029 6.29 1.59 13.03
1/14/2023 3:45:00 PM 3.13 37.634 0.029 6.28 1.57 13.03
1/14/2023 4:00:00 PM 3.12 37.616 0.029 6.28 1.58 13.02
1/14/2023 4:15:00 PM 3.1 37.58 0.029 6.28 1.57 13.01
1/14/2023 4:30:00 PM 3.07 37.526 0.029 6.26 1.6 13.01
1/14/2023 4:45:00 PM 3.05 37.49 0.029 6.25 1.62 13
1/14/2023 5:00:00 PM 3.03 37.454 0.029 6.24 1.61 12.99
1/14/2023 5:15:00 PM 3.02 37.436 0.029 6.24 1.6 12.98
1/14/2023 5:30:00 PM 3 37.4 0.029 6.24 1.62 12.99
1/14/2023 5:45:00 PM 2.97 37.346 0.03 6.23 1.58 12.99
1/14/2023 6:00:00 PM 2.95 37.31 0.03 6.23 1.58 13.01
1/14/2023 6:15:00 PM 2.92 37.256 0.03 6.22 1.58 13.01
1/14/2023 6:30:00 PM 2.9 37.22 0.03 6.19 1.59 13.03
1/14/2023 6:45:00 PM 2.87 37.166 0.03 6.17 1.6 13.04
1/14/2023 7:00:00 PM 2.84 37.112 0.03 6.09 1.6 13.05
1/14/2023 7:15:00 PM 2.82 37.076 0.03 5.9 1.61 13.06
1/14/2023 7:30:00 PM 2.81 37.058 0.03 5.93 1.63 13.05
1/14/2023 7:45:00 PM 2.79 37.022 0.03 5.94 1.59 13.07
1/14/2023 8:00:00 PM 2.77 36.986 0.03 6.01 1.64 13.08
1/14/2023 8:15:00 PM 2.76 36.968 0.03 6.06 1.63 13.08
1/14/2023 8:30:00 PM 2.75 36.95 0.03 6.09 1.59 13.09
1/14/2023 8:45:00 PM 2.74 36.932 0.03 6.12 1.53 13.1
1/14/2023 9:00:00 PM 2.73 36.914 0.03 6.13 1.65 13.1
1/14/2023 9:15:00 PM 2.71 36.878 0.03 6.14 1.64 13.11
1/14/2023 9:30:00 PM 2.7 36.86 0.03 6.15 1.63 13.1
1/14/2023 9:45:00 PM 2.69 36.842 0.03 6.17 1.6 13.11
1/14/2023 10:00:00 PM 2.67 36.806 0.03 6.17 1.58 13.12
1/14/2023 10:15:00 PM 2.66 36.788 0.03 6.18 1.63 13.13
1/14/2023 10:30:00 PM 2.65 36.77 0.03 6.19 1.66 13.12
1/14/2023 10:45:00 PM 2.63 36.734 0.03 6.2 1.58 13.13
1/14/2023 11:00:00 PM 2.62 36.716 0.03 6.21 1.58 13.14
1/14/2023 11:15:00 PM 2.61 36.698 0.03 6.21 1.59 13.14
1/14/2023 11:30:00 PM 2.61 36.698 0.03 6.22 1.64 13.14
1/14/2023 11:45:00 PM 2.59 36.662 0.03 6.21 1.57 13.14
1/15/2023 12:00:00 AM 2.59 36.662 0.03 6.19 1.59 13.14
1/15/2023 12:15:00 AM 2.59 36.662 0.03 6.17 1.59 13.14
1/15/2023 12:30:00 AM 2.59 36.662 0.03 6.17 1.63 13.15
1/15/2023 12:45:00 AM 2.59 36.662 0.03 6.19 1.61 13.15
1/15/2023 1:00:00 AM 2.6 36.68 0.03 6.19 1.62 13.16
1/15/2023 1:15:00 AM 2.59 36.662 0.03 6.18 1.59 13.15
1/15/2023 1:30:00 AM 2.59 36.662 0.03 6.17 1.58 13.16
1/15/2023 1:45:00 AM 2.59 36.662 0.03 6.16 1.59 13.17
1/15/2023 2:00:00 AM 2.58 36.644 0.03 6.17 1.61 13.17
1/15/2023 2:15:00 AM 2.58 36.644 0.03 6.18 1.62 13.17
1/15/2023 2:30:00 AM 2.57 36.626 0.03 6.17 1.58 13.17
1/15/2023 2:45:00 AM 2.57 36.626 0.03 6.17 1.63 13.18
1/15/2023 3:00:00 AM 2.57 36.626 0.03 6.18 1.57 13.18
1/15/2023 3:15:00 AM 2.56 36.608 0.03 6.19 1.57 13.19
1/15/2023 3:30:00 AM 2.55 36.59 0.03 6.2 1.61 13.19
1/15/2023 3:45:00 AM 2.54 36.572 0.03 6.2 1.61 13.18
1/15/2023 4:00:00 AM 2.53 36.554 0.03 6.19 1.61 13.19
1/15/2023 4:15:00 AM 2.51 36.518 0.03 6.2 1.59 13.19
1/15/2023 4:30:00 AM 2.5 36.5 0.03 6.19 1.6 13.2
1/15/2023 4:45:00 AM 2.49 36.482 0.03 6.18 1.58 13.2
1/15/2023 5:00:00 AM 2.48 36.464 0.03 6.18 1.51 13.21
1/15/2023 5:15:00 AM 2.46 36.428 0.03 6.18 1.52 13.22
1/15/2023 5:30:00 AM 2.45 36.41 0.03 6.18 1.59 13.22
1/15/2023 5:45:00 AM 2.44 36.392 0.03 6.19 1.58 13.23
1/15/2023 6:00:00 AM 2.44 36.392 0.03 6.19 1.61 13.23
1/15/2023 6:15:00 AM 2.44 36.392 0.03 6.19 1.57 13.24
1/15/2023 6:30:00 AM 2.43 36.374 0.03 6.19 1.58 13.24
1/15/2023 6:45:00 AM 2.42 36.356 0.03 6.19 1.55 13.24
1/15/2023 7:00:00 AM 2.41 36.338 0.03 6.18 1.57 13.24
1/15/2023 7:15:00 AM 2.39 36.302 0.03 6.19 1.59 13.25
1/15/2023 7:30:00 AM 2.37 36.266 0.03 6.18 1.58 13.26
1/15/2023 7:45:00 AM 2.35 36.23 0.03 6.18 1.6 13.28
1/15/2023 8:00:00 AM 2.35 36.23 0.03 6.19 1.59 13.3
1/15/2023 8:15:00 AM 2.34 36.212 0.03 6.19 1.58 13.32
1/15/2023 8:30:00 AM 2.33 36.194 0.03 6.2 1.59 13.35
1/15/2023 8:45:00 AM 2.33 36.194 0.03 6.21 1.51 13.38
1/15/2023 9:00:00 AM 2.34 36.212 0.03 6.22 1.58 13.4
1/15/2023 9:15:00 AM 2.34 36.212 0.03 6.23 1.55 13.41
1/15/2023 9:30:00 AM 2.34 36.212 0.03 6.23 1.52 13.42
1/15/2023 9:45:00 AM 2.34 36.212 0.03 6.23 1.54 13.42
1/15/2023 10:00:00 AM 2.35 36.23 0.03 6.24 1.52 13.43
1/15/2023 10:15:00 AM 2.38 36.284 0.03 6.25 1.55 13.43
1/15/2023 10:30:00 AM 2.41 36.338 0.03 6.26 1.56 13.42
1/15/2023 10:45:00 AM 2.45 36.41 0.03 6.27 1.57 13.42
1/15/2023 11:00:00 AM 2.49 36.482 0.03 6.27 1.58 13.4
1/15/2023 11:15:00 AM 2.56 36.608 0.03 6.28 1.57 13.38
1/15/2023 11:30:00 AM 2.64 36.752 0.029 6.27 1.52 13.36
1/15/2023 11:45:00 AM 2.72 36.896 0.029 6.28 1.53 13.34
1/15/2023 12:00:00 PM 2.79 37.022 0.03 6.29 1.53 13.31
1/15/2023 12:15:00 PM 2.87 37.166 0.029 6.29 1.55 13.28
1/15/2023 12:30:00 PM 2.94 37.292 0.029 6.29 1.56 13.25
1/15/2023 12:45:00 PM 3.01 37.418 0.03 6.29 1.52 13.22
1/15/2023 1:00:00 PM 3.07 37.526 0.03 6.29 1.48 13.19
1/15/2023 1:15:00 PM 3.11 37.598 0.03 6.29 1.52 13.17
1/15/2023 1:30:00 PM 3.15 37.67 0.03 6.3 1.53 13.15
1/15/2023 1:45:00 PM 3.17 37.706 0.03 6.3 1.53 13.13
1/15/2023 2:00:00 PM 3.18 37.724 0.03 6.29 1.56 13.11
1/15/2023 2:15:00 PM 3.19 37.742 0.03 6.3 1.51 13.1
1/15/2023 2:30:00 PM 3.19 37.742 0.03 6.3 1.5 13.1
1/15/2023 2:45:00 PM 3.18 37.724 0.03 6.3 1.51 13.09
1/15/2023 3:00:00 PM 3.17 37.706 0.03 6.29 1.52 13.09
1/15/2023 3:15:00 PM 3.16 37.688 0.03 6.29 1.53 13.08
1/15/2023 3:30:00 PM 3.15 37.67 0.03 6.29 1.54 13.08
1/15/2023 3:45:00 PM 3.14 37.652 0.03 6.29 1.54 13.06
1/15/2023 4:00:00 PM 3.13 37.634 0.03 6.29 1.54 13.06
1/15/2023 4:15:00 PM 3.11 37.598 0.03 6.29 1.53 13.07
1/15/2023 4:30:00 PM 3.09 37.562 0.03 6.28 1.51 13.06
1/15/2023 4:45:00 PM 3.08 37.544 0.03 6.27 1.56 13.05
1/15/2023 5:00:00 PM 3.05 37.49 0.03 6.27 1.54 13.05
1/15/2023 5:15:00 PM 3.04 37.472 0.03 6.27 1.55 13.05
1/15/2023 5:30:00 PM 3.03 37.454 0.03 6.27 1.55 13.04
1/15/2023 5:45:00 PM 3.02 37.436 0.03 6.26 1.57 13.04
1/15/2023 6:00:00 PM 3 37.4 0.03 6.26 1.5 13.03
1/15/2023 6:15:00 PM 2.99 37.382 0.03 6.25 1.59 13.04
1/15/2023 6:30:00 PM 2.98 37.364 0.03 6.26 1.58 13.04
1/15/2023 6:45:00 PM 2.96 37.328 0.03 6.26 1.61 13.05
1/15/2023 7:00:00 PM 2.94 37.292 0.03 6.26 1.56 13.05
1/15/2023 7:15:00 PM 2.92 37.256 0.03 6.26 1.58 13.06
1/15/2023 7:30:00 PM 2.9 37.22 0.03 6.26 1.57 13.07
1/15/2023 7:45:00 PM 2.88 37.184 0.03 6.26 1.56 13.08
1/15/2023 8:00:00 PM 2.87 37.166 0.03 6.26 1.59 13.07
1/15/2023 8:15:00 PM 2.85 37.13 0.03 6.26 1.57 13.08
1/15/2023 8:30:00 PM 2.83 37.094 0.03 6.25 1.59 13.09
1/15/2023 8:45:00 PM 2.81 37.058 0.03 6.25 1.56 13.09
1/15/2023 9:00:00 PM 2.78 37.004 0.03 6.25 1.55 13.11
1/15/2023 9:15:00 PM 2.76 36.968 0.03 6.24 1.61 13.11
1/15/2023 9:30:00 PM 2.74 36.932 0.03 6.25 1.57 13.12
1/15/2023 9:45:00 PM 2.72 36.896 0.03 6.25 1.57 13.12
1/15/2023 10:00:00 PM 2.7 36.86 0.03 6.25 1.55 13.14
1/15/2023 10:15:00 PM 2.68 36.824 0.03 6.25 1.56 13.14
1/15/2023 10:30:00 PM 2.66 36.788 0.03 6.24 1.59 13.14
1/15/2023 10:45:00 PM 2.64 36.752 0.03 6.24 1.57 13.15
1/15/2023 11:00:00 PM 2.61 36.698 0.03 6.25 1.57 13.16
1/15/2023 11:15:00 PM 2.59 36.662 0.03 6.24 1.56 13.17
1/15/2023 11:30:00 PM 2.57 36.626 0.03 6.25 1.56 13.17
1/15/2023 11:45:00 PM 2.54 36.572 0.03 6.25 1.54 13.19
1/16/2023 12:00:00 AM 2.52 36.536 0.03 6.25 1.58 13.19
1/16/2023 12:15:00 AM 2.49 36.482 0.03 6.25 1.59 13.21
1/16/2023 12:30:00 AM 2.46 36.428 0.03 6.25 1.53 13.21
1/16/2023 12:45:00 AM 2.43 36.374 0.03 6.25 1.55 13.22
1/16/2023 1:00:00 AM 2.41 36.338 0.03 6.25 1.61 13.23
1/16/2023 1:15:00 AM 2.38 36.284 0.03 6.25 1.6 13.24
1/16/2023 1:30:00 AM 2.35 36.23 0.03 6.25 1.58 13.25
1/16/2023 1:45:00 AM 2.32 36.176 0.03 6.25 1.58 13.26
1/16/2023 2:00:00 AM 2.29 36.122 0.03 6.25 1.59 13.27
1/16/2023 2:15:00 AM 2.27 36.086 0.03 6.25 1.61 13.27
1/16/2023 2:30:00 AM 2.25 36.05 0.03 6.25 1.63 13.28
1/16/2023 2:45:00 AM 2.22 35.996 0.03 6.25 1.56 13.29
1/16/2023 3:00:00 AM 2.19 35.942 0.03 6.25 1.57 13.31
1/16/2023 3:15:00 AM 2.16 35.888 0.03 6.25 1.55 13.32
1/16/2023 3:30:00 AM 2.12 35.816 0.03 6.24 1.54 13.33
1/16/2023 3:45:00 AM 2.09 35.762 0.03 6.19 1.58 13.33
1/16/2023 4:00:00 AM 2.06 35.708 0.03 6.18 1.54 13.35
1/16/2023 4:15:00 AM 2.02 35.636 0.03 6.18 1.55 13.35
1/16/2023 4:30:00 AM 1.99 35.582 0.03 6.18 1.57 13.37
1/16/2023 4:45:00 AM 1.96 35.528 0.03 6.17 1.56 13.38
1/16/2023 5:00:00 AM 1.93 35.474 0.03 6.17 1.59 13.39
1/16/2023 5:15:00 AM 1.9 35.42 0.03 6.17 1.55 13.4
1/16/2023 5:30:00 AM 1.88 35.384 0.03 6.17 1.67 13.41
1/16/2023 5:45:00 AM 1.85 35.33 0.03 6.18 1.56 13.43
1/16/2023 6:00:00 AM 1.81 35.258 0.03 6.18 1.58 13.44
1/16/2023 6:15:00 AM 1.79 35.222 0.03 6.19 1.6 13.45
1/16/2023 6:30:00 AM 1.76 35.168 0.03 6.18 1.57 13.46
1/16/2023 6:45:00 AM 1.74 35.132 0.03 6.18 1.57 13.47
1/16/2023 7:00:00 AM 1.72 35.096 0.03 6.18 1.55 13.48
1/16/2023 7:15:00 AM 1.7 35.06 0.03 6.19 1.53 13.48
1/16/2023 7:30:00 AM 1.68 35.024 0.03 6.2 1.55 13.5
1/16/2023 7:45:00 AM 1.67 35.006 0.03 6.21 1.54 13.5
1/16/2023 8:00:00 AM 1.68 35.024 0.03 6.22 1.56 13.51
1/16/2023 8:15:00 AM 1.69 35.042 0.03 6.23 1.52 13.52
1/16/2023 8:30:00 AM 1.69 35.042 0.03 6.23 1.56 13.54
1/16/2023 8:45:00 AM 1.7 35.06 0.03 6.24 1.56 13.55
1/16/2023 9:00:00 AM 1.7 35.06 0.03 6.25 1.57 13.55
1/16/2023 9:15:00 AM 1.71 35.078 0.03 6.26 1.57 13.56
1/16/2023 9:30:00 AM 1.73 35.114 0.03 6.26 1